Provisional Data: Blockhouse Creek near English Center, PA


Please select a monitoring station.
Please select start date.
Please select start date.

Toggle Unit: C/F Toggle Unit: C/F
Sample Time Temperature (C) Temperature (F) Specific Conductivity (mS/cm) pH   Turbidity (NTU+) DO (mg/L)
10/20/2020 12:00:00 AM 11.69 53.042 0.151 7.42 2.92 9.87
10/20/2020 12:15:00 AM 11.7 53.06 0.152 7.43 2.83 9.87
10/20/2020 12:30:00 AM 11.7 53.06 0.152 7.43 2.95 9.87
10/20/2020 12:45:00 AM 11.71 53.078 0.152 7.27 3.02 9.86
10/20/2020 1:00:00 AM 11.72 53.096 0.152 7.43 2.93 9.86
10/20/2020 1:15:00 AM 11.73 53.114 0.152 7.44 2.99 9.86
10/20/2020 1:30:00 AM 11.74 53.132 0.152 7.43 2.9 9.86
10/20/2020 1:45:00 AM 11.76 53.168 0.152 7.43 2.79 9.86
10/20/2020 2:00:00 AM 11.77 53.186 0.152 7.43 2.9 9.86
10/20/2020 2:15:00 AM 11.79 53.222 0.152 7.44 2.77 9.86
10/20/2020 2:30:00 AM 11.81 53.258 0.152 7.44 2.7 9.86
10/20/2020 2:45:00 AM 11.82 53.276 0.152 7.43 3.15 9.85
10/20/2020 3:00:00 AM 11.84 53.312 0.152 7.43 2.82 9.85
10/20/2020 3:15:00 AM 11.86 53.348 0.152 7.42 3.01 9.84
10/20/2020 3:30:00 AM 11.87 53.366 0.152 7.42 2.91 9.84
10/20/2020 3:45:00 AM 11.88 53.384 0.152 7.43 2.94 9.83
10/20/2020 4:00:00 AM 11.89 53.402 0.152 7.42 2.84 9.83
10/20/2020 4:15:00 AM 11.9 53.42 0.152 7.42 2.78 9.83
10/20/2020 4:30:00 AM 11.91 53.438 0.152 7.25 2.94 9.83
10/20/2020 4:45:00 AM 11.92 53.456 0.152 7.42 3.02 9.82
10/20/2020 5:00:00 AM 11.91 53.438 0.152 7.43 2.87 9.83
10/20/2020 5:15:00 AM 11.92 53.456 0.152 7.42 2.85 9.83
10/20/2020 5:30:00 AM 11.93 53.474 0.152 7.43 3.05 9.83
10/20/2020 5:45:00 AM 11.94 53.492 0.152 7.42 2.78 9.82
10/20/2020 6:00:00 AM 11.95 53.51 0.152 7.43 2.74 9.82
10/20/2020 6:15:00 AM 11.96 53.528 0.152 7.44 2.87 9.83
10/20/2020 6:30:00 AM 11.97 53.546 0.152 7.43 2.77 9.83
10/20/2020 6:45:00 AM 11.97 53.546 0.152 7.42 3 9.83
10/20/2020 7:00:00 AM 11.97 53.546 0.152 7.42 2.85 9.82
10/20/2020 7:15:00 AM 11.97 53.546 0.152 7.29 2.73 9.82
10/20/2020 7:30:00 AM 11.98 53.564 0.152 7.42 2.72 9.83
10/20/2020 7:45:00 AM 11.98 53.564 0.153 7.42 2.79 9.83
10/20/2020 8:00:00 AM 11.99 53.582 0.153 7.42 2.89 9.84
10/20/2020 8:15:00 AM 11.99 53.582 0.152 7.41 2.71 9.86
10/20/2020 8:30:00 AM 12 53.6 0.152 7.42 2.77 9.89
10/20/2020 8:45:00 AM 12.02 53.636 0.152 7.45 2.96 9.91
10/20/2020 9:00:00 AM 12.03 53.654 0.152 7.44 2.8 9.93
10/20/2020 9:15:00 AM 12.06 53.708 0.152 7.43 2.78 9.97
10/20/2020 9:30:00 AM 12.12 53.816 0.152 7.46 2.72 10.05
10/20/2020 9:45:00 AM 12.2 53.96 0.152 7.49 2.65 10.14
10/20/2020 10:00:00 AM 12.27 54.086 0.152 7.52 2.86 10.18
10/20/2020 10:15:00 AM 12.36 54.248 0.152 7.54 2.65 10.23
10/20/2020 10:30:00 AM 12.41 54.338 0.152 7.56 2.62 10.22
10/20/2020 10:45:00 AM 12.51 54.518 0.152 7.58 2.65 10.27
10/20/2020 11:00:00 AM 12.61 54.698 0.151 7.59 2.74 10.31
10/20/2020 11:15:00 AM 12.68 54.824 0.151 7.61 2.76 10.32
10/20/2020 11:30:00 AM 12.75 54.95 0.151 7.61 2.68 10.31
10/20/2020 11:45:00 AM 12.83 55.094 0.151 7.62 2.71 10.28
10/20/2020 12:00:00 PM 12.91 55.238 0.151 7.64 2.7 10.29
10/20/2020 12:15:00 PM 12.93 55.274 0.151 7.64 2.75 10.23
10/20/2020 12:30:00 PM 12.97 55.346 0.151 7.61 2.69 10.18
10/20/2020 12:45:00 PM 13.02 55.436 0.151 7.62 2.68 10.18
10/20/2020 1:00:00 PM 13.07 55.526 0.151 7.62 2.75 10.18
10/20/2020 1:15:00 PM 13.21 55.778 0.151 7.64 2.74 10.24
10/20/2020 1:30:00 PM 13.34 56.012 0.151 7.65 2.63 10.25
10/20/2020 1:45:00 PM 13.46 56.228 0.151 7.68 2.74 10.27
10/20/2020 2:00:00 PM 13.52 56.336 0.151 7.69 2.73 10.23
10/20/2020 2:15:00 PM 13.55 56.39 0.151 7.67 2.72 10.17
10/20/2020 2:30:00 PM 13.62 56.516 0.151 7.68 2.7 10.17
10/20/2020 2:45:00 PM 13.66 56.588 0.151 7.68 2.68 10.14
10/20/2020 3:00:00 PM 13.73 56.714 0.151 7.7 2.88 10.1
10/20/2020 3:15:00 PM 13.85 56.93 0.151 7.7 3.2 10.14
10/20/2020 3:30:00 PM 13.91 57.038 0.151 7.69 2.98 10.1
10/20/2020 3:45:00 PM 13.96 57.128 0.151 7.69 2.85 10.08
10/20/2020 4:00:00 PM 14 57.2 0.151 7.69 2.99 10.05
10/20/2020 4:15:00 PM 14.02 57.236 0.151 7.69 2.88 10.04
10/20/2020 4:30:00 PM 14.07 57.326 0.151 7.7 2.87 10.06
10/20/2020 4:45:00 PM 14.1 57.38 0.151 7.69 2.8 10.02
10/20/2020 5:00:00 PM 14.09 57.362 0.152 7.57 2.97 9.94
10/20/2020 5:15:00 PM 14.09 57.362 0.152 7.64 2.86 9.89
10/20/2020 5:30:00 PM 14.07 57.326 0.152 7.62 2.89 9.82
10/20/2020 5:45:00 PM 14.03 57.254 0.152 7.59 3.07 9.72
10/20/2020 6:00:00 PM 14 57.2 0.152 7.56 2.94 9.65
10/20/2020 6:15:00 PM 13.98 57.164 0.153 7.54 2.89 9.59
10/20/2020 6:30:00 PM 13.93 57.074 0.153 7.53 2.89 9.54
10/20/2020 6:45:00 PM 13.89 57.002 0.153 7.52 2.98 9.5
10/20/2020 7:00:00 PM 13.83 56.894 0.153 7.39 3 9.46
10/20/2020 7:15:00 PM 13.77 56.786 0.154 7.51 2.95 9.45
10/20/2020 7:30:00 PM 13.71 56.678 0.154 7.51 3.09 9.44
10/20/2020 7:45:00 PM 13.65 56.57 0.154 7.49 2.98 9.43
10/20/2020 8:00:00 PM 13.58 56.444 0.154 7.48 2.91 9.45
10/20/2020 8:15:00 PM 13.52 56.336 0.154 7.47 3.2 9.47
10/20/2020 8:30:00 PM 13.47 56.246 0.154 7.48 3.11 9.48
10/20/2020 8:45:00 PM 13.42 56.156 0.154 7.49 3.25 9.5
10/20/2020 9:00:00 PM 13.37 56.066 0.154 7.48 3.29 9.52
10/20/2020 9:15:00 PM 13.33 55.994 0.155 7.48 3.25 9.53
10/20/2020 9:30:00 PM 13.28 55.904 0.155 7.48 3.04 9.55
10/20/2020 9:45:00 PM 13.23 55.814 0.155 7.46 3.39 9.55
10/20/2020 10:00:00 PM 13.18 55.724 0.155 7.48 3.42 9.57
10/20/2020 10:15:00 PM 13.13 55.634 0.155 7.47 3.35 9.57
10/20/2020 10:30:00 PM 13.08 55.544 0.155 7.48 3.34 9.59
10/20/2020 10:45:00 PM 13.03 55.454 0.155 7.47 3.58 9.59
10/20/2020 11:00:00 PM 12.99 55.382 0.155 7.47 2.9 9.58
10/20/2020 11:15:00 PM 12.94 55.292 0.155 7.47 2.9 9.6
10/20/2020 11:30:00 PM 12.9 55.22 0.155 7.47 3.31 9.62
10/20/2020 11:45:00 PM 12.86 55.148 0.155 7.47 2.97 9.64
10/21/2020 12:00:00 AM 12.82 55.076 0.155 7.48 3.24 9.63
10/21/2020 12:15:00 AM 12.77 54.986 0.155 7.46 3 9.65
10/21/2020 12:30:00 AM 12.72 54.896 0.155 7.47 3.07 9.67
10/21/2020 12:45:00 AM 12.67 54.806 0.155 7.47 3.14 9.65
10/21/2020 1:00:00 AM 12.63 54.734 0.156 7.46 3.21 9.68
10/21/2020 1:15:00 AM 12.59 54.662 0.156 7.47 2.9 9.68
10/21/2020 1:30:00 AM 12.55 54.59 0.156 7.47 3.11 9.7
10/21/2020 1:45:00 AM 12.51 54.518 0.156 7.48 3.02 9.7
10/21/2020 2:00:00 AM 12.48 54.464 0.156 7.47 3.09 9.72
10/21/2020 2:15:00 AM 12.45 54.41 0.156 7.47 3.23 9.71
10/21/2020 2:30:00 AM 12.42 54.356 0.156 7.48 3.01 9.73
10/21/2020 2:45:00 AM 12.38 54.284 0.156 7.47 2.82 9.73
10/21/2020 3:00:00 AM 12.35 54.23 0.156 7.47 2.84 9.74
10/21/2020 3:15:00 AM 12.32 54.176 0.156 7.48 3.03 9.75
10/21/2020 3:30:00 AM 12.3 54.14 0.156 7.47 3.39 9.77
10/21/2020 3:45:00 AM 12.28 54.104 0.156 7.5 2.95 9.76
10/21/2020 4:00:00 AM 12.26 54.068 0.156 7.46 3.03 9.76
10/21/2020 4:15:00 AM 12.24 54.032 0.156 7.47 3.04 9.77
10/21/2020 4:30:00 AM 12.22 53.996 0.156 7.48 2.82 9.78
10/21/2020 4:45:00 AM 12.21 53.978 0.156 7.47 2.97 9.79
10/21/2020 5:00:00 AM 12.2 53.96 0.157 7.47 3.07 9.8
10/21/2020 5:15:00 AM 12.19 53.942 0.157 7.46 3.11 9.8
10/21/2020 5:30:00 AM 12.18 53.924 0.157 7.47 3.12 9.79
10/21/2020 5:45:00 AM 12.18 53.924 0.157 7.51 3.02 9.79
10/21/2020 6:00:00 AM 12.17 53.906 0.157 7.48 2.98 9.81
10/21/2020 6:15:00 AM 12.16 53.888 0.157 7.47 2.84 9.81
10/21/2020 6:30:00 AM 12.15 53.87 0.157 7.47 2.96 9.81
10/21/2020 6:45:00 AM 12.15 53.87 0.157 7.46 2.87 9.8
10/21/2020 7:00:00 AM 12.15 53.87 0.157 7.46 2.92 9.8
10/21/2020 7:15:00 AM 12.14 53.852 0.157 7.47 2.8 9.8
10/21/2020 7:30:00 AM 12.14 53.852 0.157 7.48 2.83 9.79
10/21/2020 7:45:00 AM 12.14 53.852 0.157 7.47 2.94 9.81
10/21/2020 8:00:00 AM 12.15 53.87 0.157 7.48 2.93 9.81
10/21/2020 8:15:00 AM 12.17 53.906 0.157 7.48 2.83 9.86
10/21/2020 8:30:00 AM 12.2 53.96 0.157 7.49 2.84 9.92
10/21/2020 8:45:00 AM 12.24 54.032 0.157 7.5 2.95 9.95
10/21/2020 9:00:00 AM 12.29 54.122 0.157 7.53 2.81 10.01
10/21/2020 9:15:00 AM 12.38 54.284 0.157 7.54 2.74 10.11
10/21/2020 9:30:00 AM 12.48 54.464 0.157 7.57 2.79 10.18
10/21/2020 9:45:00 AM 12.59 54.662 0.156 7.58 2.91 10.28
10/21/2020 10:00:00 AM 12.71 54.878 0.156 7.6 2.89 10.29
10/21/2020 10:15:00 AM 12.81 55.058 0.156 7.62 3.06 10.3
10/21/2020 10:30:00 AM 12.94 55.292 0.156 7.65 2.86 10.3
10/21/2020 10:45:00 AM 13.07 55.526 0.156 7.65 2.79 10.3
10/21/2020 11:00:00 AM 13.23 55.814 0.156 7.67 2.75 10.29
10/21/2020 11:15:00 AM 13.38 56.084 0.156 7.68 2.78 10.29
10/21/2020 11:30:00 AM 13.56 56.408 0.156 7.69 2.78 10.26
10/21/2020 11:45:00 AM 13.7 56.66 0.156 7.69 2.74 10.23
10/21/2020 12:00:00 PM 13.93 57.074 0.156 7.69 2.81 10.24
10/21/2020 12:15:00 PM 14.16 57.488 0.156 7.72 2.88 10.21
10/21/2020 12:30:00 PM 14.36 57.848 0.156 7.72 2.78 10.15
10/21/2020 12:45:00 PM 14.54 58.172 0.156 7.72 2.67 10.11
10/21/2020 1:00:00 PM 14.7 58.46 0.156 7.72 2.99 10.09
10/21/2020 1:15:00 PM 14.87 58.766 0.156 7.72 2.96 10.05
10/21/2020 1:30:00 PM 15.05 59.09 0.156 7.73 2.77 10.05
10/21/2020 1:45:00 PM 15.1 59.18 0.156 7.73 2.81 10.01
10/21/2020 2:00:00 PM 15.22 59.396 0.156 7.74 2.63 10
10/21/2020 2:15:00 PM 15.34 59.612 0.156 7.75 2.81 9.96
10/21/2020 2:30:00 PM 15.36 59.648 0.156 7.74 2.88 9.9
10/21/2020 2:45:00 PM 15.43 59.774 0.156 7.74 2.79 9.88
10/21/2020 3:00:00 PM 15.56 60.008 0.156 7.75 2.92 9.83
10/21/2020 3:15:00 PM 15.73 60.314 0.156 7.75 3.04 9.79
10/21/2020 3:30:00 PM 15.79 60.422 0.156 7.73 2.84 9.73
10/21/2020 3:45:00 PM 15.94 60.692 0.156 7.75 3.04 9.71
10/21/2020 4:00:00 PM 16.05 60.89 0.156 7.73 2.78 9.68
10/21/2020 4:15:00 PM 16.09 60.962 0.156 7.74 2.86 9.56
10/21/2020 4:30:00 PM 16.24 61.232 0.156 7.72 3 9.54
10/21/2020 4:45:00 PM 16.33 61.394 0.156 7.7 3.11 9.46
10/21/2020 5:00:00 PM 16.36 61.448 0.156 7.67 2.88 9.32
10/21/2020 5:15:00 PM 16.38 61.484 0.156 7.63 3.07 9.19
10/21/2020 5:30:00 PM 16.41 61.538 0.157 7.59 3.66 9.1
10/21/2020 5:45:00 PM 16.41 61.538 0.157 7.56 3.64 9.01
10/21/2020 6:00:00 PM 16.4 61.52 0.157 7.53 3.18 8.93
10/21/2020 6:15:00 PM 16.35 61.43 0.157 7.52 2.86 8.87
10/21/2020 6:30:00 PM 16.29 61.322 0.158 7.36 3.08 8.82
10/21/2020 6:45:00 PM 16.23 61.214 0.158 7.29 3.07 8.79
10/21/2020 7:00:00 PM 16.15 61.07 0.158 7.34 3.09 8.78
10/21/2020 7:15:00 PM 16.06 60.908 0.158 7.44 3.1 8.76
10/21/2020 7:30:00 PM 15.95 60.71 0.158 7.43 3 8.77
10/21/2020 7:45:00 PM 15.86 60.548 0.159 7.42 3.44 8.74
10/21/2020 8:00:00 PM 15.76 60.368 0.159 7.4 3.61 8.76
10/21/2020 8:15:00 PM 15.66 60.188 0.159 7.4 3.27 8.75
10/21/2020 8:30:00 PM 15.58 60.044 0.159 7.4 3.29 8.78
10/21/2020 8:45:00 PM 15.5 59.9 0.159 7.39 3.27 8.82
10/21/2020 9:00:00 PM 15.42 59.756 0.159 7.37 3.38 8.86
10/21/2020 9:15:00 PM 15.37 59.666 0.159 7.22 3.18 8.88
10/21/2020 9:30:00 PM 15.32 59.576 0.159 7.39 3.15 8.89
10/21/2020 9:45:00 PM 15.27 59.486 0.159 7.38 3.29 8.9
10/21/2020 10:00:00 PM 15.22 59.396 0.159 7.26 3.35 8.92
10/21/2020 10:15:00 PM 15.17 59.306 0.159 7.38 3.45 8.93
10/21/2020 10:30:00 PM 15.11 59.198 0.159 7.4 3.4 8.95
10/21/2020 10:45:00 PM 15.05 59.09 0.159 7.37 3.19 8.96
10/21/2020 11:00:00 PM 14.99 58.982 0.159 7.35 3.08 8.98
10/21/2020 11:15:00 PM 14.92 58.856 0.159 7.36 3.08 9
10/21/2020 11:30:00 PM 14.85 58.73 0.159 7.38 11.65 9.01
10/21/2020 11:45:00 PM 14.78 58.604 0.159 7.38 5.46 9.02
10/22/2020 12:00:00 AM 14.7 58.46 0.159 7.35 3.28 9.02
10/22/2020 12:15:00 AM 14.62 58.316 0.159 7.35 3.01 9.06
10/22/2020 12:30:00 AM 14.53 58.154 0.159 7.36 2.88 9.08
10/22/2020 12:45:00 AM 14.45 58.01 0.159 7.36 2.76 9.1
10/22/2020 1:00:00 AM 14.38 57.884 0.159 7.36 2.88 9.1
10/22/2020 1:15:00 AM 14.3 57.74 0.159 7.37 2.86 9.13
10/22/2020 1:30:00 AM 14.24 57.632 0.159 7.36 2.91 9.15
10/22/2020 1:45:00 AM 14.21 57.578 0.159 7.36 3.01 9.17
10/22/2020 2:00:00 AM 14.17 57.506 0.159 7.37 2.94 9.19
10/22/2020 2:15:00 AM 14.14 57.452 0.159 7.37 2.82 9.19
10/22/2020 2:30:00 AM 14.09 57.362 0.159 7.36 2.89 9.21
10/22/2020 2:45:00 AM 14.07 57.326 0.159 7.37 2.82 9.22
10/22/2020 3:00:00 AM 14.04 57.272 0.159 7.37 3.07 9.24
10/22/2020 3:15:00 AM 14.03 57.254 0.159 7.39 2.97 9.23
10/22/2020 3:30:00 AM 14.02 57.236 0.159 7.26 3.31 9.24
10/22/2020 3:45:00 AM 14.01 57.218 0.159 7.37 2.89 9.25
10/22/2020 4:00:00 AM 14 57.2 0.159 7.38 2.98 9.26
10/22/2020 4:15:00 AM 13.99 57.182 0.159 7.36 3.02 9.25
10/22/2020 4:30:00 AM 13.99 57.182 0.159 7.37 3.02 9.26
10/22/2020 4:45:00 AM 13.98 57.164 0.159 7.38 2.96 9.26
10/22/2020 5:00:00 AM 13.97 57.146 0.159 7.36 2.9 9.26
10/22/2020 5:15:00 AM 13.96 57.128 0.159 7.39 2.9 9.26
10/22/2020 5:30:00 AM 13.95 57.11 0.159 7.37 2.83 9.26
10/22/2020 5:45:00 AM 13.94 57.092 0.159 7.36 2.74 9.27
10/22/2020 6:00:00 AM 13.93 57.074 0.159 7.36 2.95 9.26
10/22/2020 6:15:00 AM 13.91 57.038 0.159 7.37 3.04 9.27
10/22/2020 6:30:00 AM 13.9 57.02 0.159 7.37 2.95 9.27
10/22/2020 6:45:00 AM 13.89 57.002 0.159 7.36 2.99 9.27
10/22/2020 7:00:00 AM 13.88 56.984 0.159 7.37 2.87 9.28
10/22/2020 7:15:00 AM 13.87 56.966 0.159 7.36 2.85 9.28
10/22/2020 7:30:00 AM 13.86 56.948 0.159 7.36 2.75 9.28
10/22/2020 7:45:00 AM 13.86 56.948 0.159 7.35 2.79 9.3
10/22/2020 8:00:00 AM 13.86 56.948 0.159 7.38 2.79 9.31
10/22/2020 8:15:00 AM 13.86 56.948 0.159 7.37 2.63 9.33
10/22/2020 8:30:00 AM 13.87 56.966 0.159 7.38 2.73 9.38
10/22/2020 8:45:00 AM 13.89 57.002 0.159 7.41 2.75 9.43
10/22/2020 9:00:00 AM 13.9 57.02 0.159 7.4 2.61 9.46
10/22/2020 9:15:00 AM 13.92 57.056 0.159 7.42 2.67 9.5
10/22/2020 9:30:00 AM 13.97 57.146 0.159 7.43 2.67 9.58
10/22/2020 9:45:00 AM 14.04 57.272 0.159 7.45 2.67 9.67
10/22/2020 10:00:00 AM 14.14 57.452 0.158 7.49 2.68 9.76
10/22/2020 10:15:00 AM 14.24 57.632 0.158 7.52 2.8 9.82
10/22/2020 10:30:00 AM 14.39 57.902 0.158 7.53 2.78 9.88
10/22/2020 10:45:00 AM 14.59 58.262 0.158 7.55 2.8 9.92
10/22/2020 11:00:00 AM 14.74 58.532 0.158 7.57 2.67 9.92
10/22/2020 11:15:00 AM 14.9 58.82 0.158 7.59 2.74 9.91
10/22/2020 11:30:00 AM 15.01 59.018 0.158 7.62 2.8 9.9
10/22/2020 11:45:00 AM 15.17 59.306 0.158 7.61 2.75 9.89
10/22/2020 12:00:00 PM 15.32 59.576 0.158 7.62 2.57 9.88
10/22/2020 12:15:00 PM 15.48 59.864 0.158 7.42 2.62 9.87
10/22/2020 12:30:00 PM 15.62 60.116 0.158 7.65 2.69 9.85
10/22/2020 12:45:00 PM 15.75 60.35 0.158 7.65 2.62 9.83
10/22/2020 1:00:00 PM 15.9 60.62 0.158 7.66 2.68 9.82
10/22/2020 1:15:00 PM 15.99 60.782 0.158 7.69 2.65 9.8
10/22/2020 1:30:00 PM 16.16 61.088 0.157 7.69 2.63 9.79
10/22/2020 1:45:00 PM 16.18 61.124 0.157 7.69 2.5 9.73
10/22/2020 2:00:00 PM 16.33 61.394 0.157 7.7 2.52 9.71
10/22/2020 2:15:00 PM 16.51 61.718 0.157 7.7 2.55 9.71
10/22/2020 2:30:00 PM 16.66 61.988 0.157 7.72 2.62 9.67
10/22/2020 2:45:00 PM 16.79 62.222 0.157 7.73 2.64 9.63
10/22/2020 3:00:00 PM 16.92 62.456 0.157 7.72 2.65 9.57
10/22/2020 3:15:00 PM 17.01 62.618 0.157 7.71 2.69 9.52
10/22/2020 3:30:00 PM 16.91 62.438 0.157 7.69 2.59 9.4
10/22/2020 3:45:00 PM 16.92 62.456 0.157 7.69 2.64 9.33
10/22/2020 4:00:00 PM 16.94 62.492 0.157 7.66 2.67 9.26
10/22/2020 4:15:00 PM 16.99 62.582 0.157 7.66 2.66 9.2
10/22/2020 4:30:00 PM 17.06 62.708 0.157 7.63 2.76 9.15
10/22/2020 4:45:00 PM 17.12 62.816 0.158 7.51 2.78 9.08
10/22/2020 5:00:00 PM 17.15 62.87 0.158 7.61 2.74 9.01
10/22/2020 5:15:00 PM 17.18 62.924 0.158 7.59 2.91 8.95
10/22/2020 5:30:00 PM 17.2 62.96 0.158 7.57 2.75 8.89
10/22/2020 5:45:00 PM 17.2 62.96 0.158 7.54 2.79 8.82
10/22/2020 6:00:00 PM 17.19 62.942 0.158 7.52 2.77 8.75
10/22/2020 6:15:00 PM 17.16 62.888 0.158 7.29 2.61 8.67
10/22/2020 6:30:00 PM 17.12 62.816 0.159 7.49 2.95 8.61
10/22/2020 6:45:00 PM 17.06 62.708 0.159 7.46 2.65 8.55
10/22/2020 7:00:00 PM 16.99 62.582 0.159 7.45 2.81 8.52
10/22/2020 7:15:00 PM 16.91 62.438 0.159 7.43 3.21 8.5
10/22/2020 7:30:00 PM 16.84 62.312 0.159 7.43 3.54 8.49
10/22/2020 7:45:00 PM 16.74 62.132 0.159 7.42 3.49 8.49
10/22/2020 8:00:00 PM 16.64 61.952 0.16 7.42 2.88 8.5
10/22/2020 8:15:00 PM 16.53 61.754 0.16 7.41 2.85 8.52
10/22/2020 8:30:00 PM 16.41 61.538 0.16 7.41 2.73 8.54
10/22/2020 8:45:00 PM 16.3 61.34 0.16 7.4 2.87 8.56
10/22/2020 9:00:00 PM 16.18 61.124 0.16 7.39 4.65 8.56
10/22/2020 9:15:00 PM 16.06 60.908 0.16 7.41 2.96 8.61
10/22/2020 9:30:00 PM 15.95 60.71 0.16 7.39 2.79 8.64
10/22/2020 9:45:00 PM 15.83 60.494 0.16 7.39 2.98 8.67
10/22/2020 10:00:00 PM 15.71 60.278 0.16 7.4 2.97 8.69
10/22/2020 10:15:00 PM 15.61 60.098 0.16 7.4 2.77 8.72
10/22/2020 10:30:00 PM 15.49 59.882 0.16 7.41 2.96 8.75
10/22/2020 10:45:00 PM 15.38 59.684 0.16 7.38 2.83 8.77
10/22/2020 11:00:00 PM 15.27 59.486 0.16 7.38 3 8.81
10/22/2020 11:15:00 PM 15.16 59.288 0.16 7.38 2.81 8.83
10/22/2020 11:30:00 PM 15.06 59.108 0.16 7.39 2.87 8.86
10/22/2020 11:45:00 PM 14.96 58.928 0.16 7.38 2.65 8.88
10/23/2020 12:00:00 AM 14.86 58.748 0.16 7.38 2.85 8.9
10/23/2020 12:15:00 AM 14.76 58.568 0.16 7.38 2.83 8.93
10/23/2020 12:30:00 AM 14.67 58.406 0.16 7.38 2.86 8.95
10/23/2020 12:45:00 AM 14.58 58.244 0.16 7.37 2.75 8.98
10/23/2020 1:00:00 AM 14.49 58.082 0.16 7.39 3.12 9
10/23/2020 1:15:00 AM 14.41 57.938 0.16 7.37 2.67 9.01
10/23/2020 1:30:00 AM 14.33 57.794 0.159 7.4 2.79 9.04
10/23/2020 1:45:00 AM 14.26 57.668 0.159 7.38 2.83 9.05
10/23/2020 2:00:00 AM 14.19 57.542 0.159 7.38 2.85 9.08
10/23/2020 2:15:00 AM 14.12 57.416 0.159 7.37 2.72 9.11
10/23/2020 2:30:00 AM 14.07 57.326 0.159 7.39 2.93 9.12
10/23/2020 2:45:00 AM 14.02 57.236 0.159 7.38 2.81 9.14
10/23/2020 3:00:00 AM 13.98 57.164 0.159 7.37 2.83 9.13
10/23/2020 3:15:00 AM 13.95 57.11 0.159 7.38 2.72 9.17
10/23/2020 3:30:00 AM 13.93 57.074 0.159 7.39 2.88 9.17
10/23/2020 3:45:00 AM 13.91 57.038 0.159 7.39 2.63 9.19
10/23/2020 4:00:00 AM 13.89 57.002 0.159 7.18 2.93 9.2
10/23/2020 4:15:00 AM 13.87 56.966 0.159 7.39 2.76 9.2
10/23/2020 4:30:00 AM 13.85 56.93 0.159 7.37 2.89 9.2
10/23/2020 4:45:00 AM 13.83 56.894 0.159 7.37 2.84 9.21
10/23/2020 5:00:00 AM 13.81 56.858 0.159 7.38 2.87 9.22
10/23/2020 5:15:00 AM 13.79 56.822 0.159 7.37 2.79 9.21
10/23/2020 5:30:00 AM 13.78 56.804 0.159 7.39 2.73 9.22
10/23/2020 5:45:00 AM 13.76 56.768 0.159 7.37 2.8 9.21
10/23/2020 6:00:00 AM 13.75 56.75 0.159 7.38 2.78 9.24
10/23/2020 6:15:00 AM 13.74 56.732 0.159 7.38 2.78 9.24
10/23/2020 6:30:00 AM 13.72 56.696 0.159 7.38 2.75 9.23
10/23/2020 6:45:00 AM 13.71 56.678 0.159 7.38 2.78 9.25
10/23/2020 7:00:00 AM 13.7 56.66 0.159 7.38 2.92 9.25
10/23/2020 7:15:00 AM 13.69 56.642 0.159 7.39 3.17 9.26
10/23/2020 7:30:00 AM 13.69 56.642 0.159 7.39 2.71 9.27
10/23/2020 7:45:00 AM 13.69 56.642 0.159 7.39 2.86 9.29
10/23/2020 8:00:00 AM 13.69 56.642 0.159 7.4 2.72 9.32
10/23/2020 8:15:00 AM 13.71 56.678 0.159 7.29 2.68 9.37
10/23/2020 8:30:00 AM 13.74 56.732 0.159 7.42 2.62 9.43
10/23/2020 8:45:00 AM 13.78 56.804 0.159 7.45 2.72 9.47
10/23/2020 9:00:00 AM 13.84 56.912 0.159 7.45 2.65 9.55
10/23/2020 9:15:00 AM 13.88 56.984 0.159 7.48 2.63 9.58
10/23/2020 9:30:00 AM 13.91 57.038 0.159 7.47 2.64 9.59
10/23/2020 9:45:00 AM 14.01 57.218 0.159 7.48 2.74 9.66
10/23/2020 10:00:00 AM 14.12 57.416 0.159 7.52 2.66 9.75
10/23/2020 10:15:00 AM 14.26 57.668 0.158 7.54 2.7 9.79
10/23/2020 10:30:00 AM 14.51 58.118 0.158 7.58 2.65 9.87
10/23/2020 10:45:00 AM 14.82 58.676 0.158 7.6 2.88 9.92
10/23/2020 11:00:00 AM 14.98 58.964 0.158 7.62 2.67 9.9
10/23/2020 11:15:00 AM 15.03 59.054 0.158 7.64 2.8 9.88
10/23/2020 11:30:00 AM 15.12 59.216 0.158 7.64 2.72 9.88
10/23/2020 11:45:00 AM 15.22 59.396 0.158 7.66 2.73 9.88
10/23/2020 12:00:00 PM 15.38 59.684 0.158 7.68 2.79 9.87
10/23/2020 12:15:00 PM 15.65 60.17 0.158 7.52 2.72 9.88
10/23/2020 12:30:00 PM 15.67 60.206 0.157 7.69 2.64 9.83
10/23/2020 12:45:00 PM 15.76 60.368 0.157 7.47 2.67 9.83
10/23/2020 1:00:00 PM 15.84 60.512 0.157 7.72 2.71 9.82
10/23/2020 1:15:00 PM 15.93 60.674 0.157 7.76 2.72 9.8
10/23/2020 1:30:00 PM 16 60.8 0.157 7.72 2.73 9.76
10/23/2020 1:45:00 PM 16.08 60.944 0.157 7.73 2.64 9.73
10/23/2020 2:00:00 PM 16.4 61.52 0.157 7.74 3.34 9.76
10/23/2020 2:15:00 PM 16.63 61.934 0.157 7.75 2.7 9.73
10/23/2020 2:30:00 PM 16.73 62.114 0.157 7.77 2.97 9.68
10/23/2020 2:45:00 PM 16.68 62.024 0.157 7.74 2.78 9.6
10/23/2020 3:00:00 PM 16.84 62.312 0.157 7.76 2.81 9.57
10/23/2020 3:15:00 PM 16.91 62.438 0.157 7.75 2.69 9.52
10/23/2020 3:30:00 PM 16.81 62.258 0.157 7.71 2.85 9.44
10/23/2020 3:45:00 PM 16.75 62.15 0.157 7.7 2.74 9.38
10/23/2020 4:00:00 PM 16.74 62.132 0.157 7.69 2.85 9.32
10/23/2020 4:15:00 PM 16.75 62.15 0.157 7.68 2.85 9.27
10/23/2020 4:30:00 PM 16.76 62.168 0.157 7.66 2.8 9.23
10/23/2020 4:45:00 PM 16.74 62.132 0.158 7.64 2.96 9.15
10/23/2020 5:00:00 PM 16.72 62.096 0.158 7.62 2.91 9.07
10/23/2020 5:15:00 PM 16.69 62.042 0.158 7.61 2.83 9.02
10/23/2020 5:30:00 PM 16.65 61.97 0.158 7.59 2.93 8.96
10/23/2020 5:45:00 PM 16.61 61.898 0.158 7.56 2.66 8.9
10/23/2020 6:00:00 PM 16.58 61.844 0.158 7.54 2.79 8.83
10/23/2020 6:15:00 PM 16.56 61.808 0.158 7.51 2.89 8.77
10/23/2020 6:30:00 PM 16.53 61.754 0.158 7.5 2.73 8.7
10/23/2020 6:45:00 PM 16.49 61.682 0.159 7.5 2.85 8.64
10/23/2020 7:00:00 PM 16.43 61.574 0.159 7.47 2.95 8.58
10/23/2020 7:15:00 PM 16.35 61.43 0.159 7.46 3.14 8.57
10/23/2020 7:30:00 PM 16.27 61.286 0.159 7.45 2.88 8.57
10/23/2020 7:45:00 PM 16.18 61.124 0.159 7.43 2.72 8.57
10/23/2020 8:00:00 PM 16.1 60.98 0.159 7.44 2.82 8.57
10/23/2020 8:15:00 PM 16.01 60.818 0.16 7.42 2.72 8.59
10/23/2020 8:30:00 PM 15.93 60.674 0.159 7.42 2.69 8.6
10/23/2020 8:45:00 PM 15.86 60.548 0.159 7.41 3.18 8.55
10/23/2020 9:00:00 PM 15.79 60.422 0.16 7.43 2.8 8.61
10/23/2020 9:15:00 PM 15.72 60.296 0.16 7.41 2.95 8.63
10/23/2020 9:30:00 PM 15.65 60.17 0.16 7.41 2.85 8.64
10/23/2020 9:45:00 PM 15.59 60.062 0.16 7.43 3.25 8.66
10/23/2020 10:00:00 PM 15.53 59.954 0.16 7.41 2.79 8.59
10/23/2020 10:15:00 PM 15.48 59.864 0.16 7.41 2.73 8.69
10/23/2020 10:30:00 PM 15.42 59.756 0.16 7.41 2.77 8.69
10/23/2020 10:45:00 PM 15.35 59.63 0.159 7.41 2.74 8.69
10/23/2020 11:00:00 PM 15.29 59.522 0.16 7.42 2.8 8.7
10/23/2020 11:15:00 PM 15.22 59.396 0.159 7.4 2.75 8.75
10/23/2020 11:30:00 PM 15.16 59.288 0.159 7.4 2.65 8.76
10/23/2020 11:45:00 PM 15.08 59.144 0.159 7.43 2.8 8.73
10/24/2020 12:00:00 AM 15.01 59.018 0.159 7.4 2.92 8.76
10/24/2020 12:15:00 AM 14.94 58.892 0.159 7.41 2.72 8.77
10/24/2020 12:30:00 AM 14.88 58.784 0.159 7.41 2.7 8.83
10/24/2020 12:45:00 AM 14.82 58.676 0.159 7.4 2.75 8.85
10/24/2020 1:00:00 AM 14.76 58.568 0.159 7.4 2.84 8.86
10/24/2020 1:15:00 AM 14.7 58.46 0.159 7.41 2.69 8.89
10/24/2020 1:30:00 AM 14.65 58.37 0.159 7.41 2.84 8.9
10/24/2020 1:45:00 AM 14.61 58.298 0.159 7.41 2.79 8.91
10/24/2020 2:00:00 AM 14.59 58.262 0.159 7.42 2.61 8.9
10/24/2020 2:15:00 AM 14.58 58.244 0.159 7.37 2.75 8.92
10/24/2020 2:30:00 AM 14.58 58.244 0.159 7.4 3.76 8.92
10/24/2020 2:45:00 AM 14.6 58.28 0.159 7.4 2.73 8.95
10/24/2020 3:00:00 AM 14.61 58.298 0.159 7.42 2.63 8.94
10/24/2020 3:15:00 AM 14.63 58.334 0.159 7.41 2.71 8.95
10/24/2020 3:30:00 AM 14.62 58.316 0.159 7.39 2.84 8.94
10/24/2020 3:45:00 AM 14.61 58.298 0.159 7.39 2.64 8.95
10/24/2020 4:00:00 AM 14.59 58.262 0.159 7.4 2.61 8.95
10/24/2020 4:15:00 AM 14.57 58.226 0.159 7.39 2.84 8.95
10/24/2020 4:30:00 AM 14.56 58.208 0.159 7.41 2.76 8.95
10/24/2020 4:45:00 AM 14.55 58.19 0.159 7.4 2.9 8.95
10/24/2020 5:00:00 AM 14.55 58.19 0.159 7.4 2.7 8.96
10/24/2020 5:15:00 AM 14.55 58.19 0.159 7.41 2.68 8.97
10/24/2020 5:30:00 AM 14.56 58.208 0.158 7.4 2.76 8.95
10/24/2020 5:45:00 AM 14.57 58.226 0.158 7.38 2.82 8.95
10/24/2020 6:00:00 AM 14.57 58.226 0.158 7.4 2.72 8.94
10/24/2020 6:15:00 AM 14.58 58.244 0.158 7.39 2.75 8.93
10/24/2020 6:30:00 AM 14.58 58.244 0.158 7.38 2.72 8.9
10/24/2020 6:45:00 AM 14.58 58.244 0.158 7.39 2.72 8.91
10/24/2020 7:00:00 AM 14.58 58.244 0.158 7.36 2.98 8.91
10/24/2020 7:15:00 AM 14.58 58.244 0.158 7.4 2.89 8.92
10/24/2020 7:30:00 AM 14.57 58.226 0.158 7.37 2.92 8.91
10/24/2020 7:45:00 AM 14.53 58.154 0.158 7.38 3.02 8.92
10/24/2020 8:00:00 AM 14.51 58.118 0.158 7.39 2.86 8.92
10/24/2020 8:15:00 AM 14.45 58.01 0.158 7.39 2.78 8.93
10/24/2020 8:30:00 AM 14.41 57.938 0.158 7.4 2.73 8.96
10/24/2020 8:45:00 AM 14.35 57.83 0.158 7.42 2.83 8.98
10/24/2020 9:00:00 AM 14.29 57.722 0.158 7.4 2.81 9.04
10/24/2020 9:15:00 AM 14.24 57.632 0.158 7.44 2.85 9.13
10/24/2020 9:30:00 AM 14.24 57.632 0.158 7.45 2.86 9.28
10/24/2020 9:45:00 AM 14.24 57.632 0.158 7.48 2.69 9.35
10/24/2020 10:00:00 AM 14.22 57.596 0.158 7.51 2.66 9.44
10/24/2020 10:15:00 AM 14.27 57.686 0.157 7.53 2.74 9.59
10/24/2020 10:30:00 AM 14.25 57.65 0.157 7.55 2.71 9.65
10/24/2020 10:45:00 AM 14.24 57.632 0.157 7.57 2.72 9.72
10/24/2020 11:00:00 AM 14.24 57.632 0.157 7.6 2.61 9.77
10/24/2020 11:15:00 AM 14.22 57.596 0.157 7.61 2.71 9.82
10/24/2020 11:30:00 AM 14.25 57.65 0.157 7.63 2.74 9.89
10/24/2020 11:45:00 AM 14.4 57.92 0.157 7.64 2.64 9.95
10/24/2020 12:00:00 PM 14.36 57.848 0.157 7.66 2.7 9.95
10/24/2020 12:15:00 PM 14.37 57.866 0.156 7.68 2.53 9.98
10/24/2020 12:30:00 PM 14.42 57.956 0.156 7.69 2.61 10
10/24/2020 12:45:00 PM 14.36 57.848 0.156 7.69 2.86 9.99
10/24/2020 1:00:00 PM 14.52 58.136 0.156 7.71 2.71 10.02
10/24/2020 1:15:00 PM 14.41 57.938 0.156 7.72 2.72 10.01
10/24/2020 1:30:00 PM 14.54 58.172 0.156 7.74 2.63 10.06
10/24/2020 1:45:00 PM 14.58 58.244 0.156 7.73 2.56 10.06
10/24/2020 2:00:00 PM 14.54 58.172 0.156 7.74 2.67 10.04
10/24/2020 2:15:00 PM 14.47 58.046 0.156 7.74 2.89 10.01
10/24/2020 2:30:00 PM 14.48 58.064 0.156 7.76 2.83 10.02
10/24/2020 2:45:00 PM 14.42 57.956 0.156 7.76 2.8 10.02
10/24/2020 3:00:00 PM 14.39 57.902 0.156 7.75 2.69 10
10/24/2020 3:15:00 PM 14.5 58.1 0.156 7.76 2.82 10.04
10/24/2020 3:30:00 PM 14.3 57.74 0.156 7.73 2.89 9.9
10/24/2020 3:45:00 PM 14.21 57.578 0.156 7.73 2.7 9.88
10/24/2020 4:00:00 PM 14.08 57.344 0.156 7.7 2.85 9.85
10/24/2020 4:15:00 PM 14.01 57.218 0.156 7.68 2.52 9.8
10/24/2020 4:30:00 PM 13.83 56.894 0.157 7.66 2.69 9.77
10/24/2020 4:45:00 PM 13.7 56.66 0.157 7.64 2.89 9.73
10/24/2020 5:00:00 PM 13.61 56.498 0.157 7.65 2.69 9.73
10/24/2020 5:15:00 PM 13.57 56.426 0.157 7.63 2.79 9.75
10/24/2020 5:30:00 PM 13.53 56.354 0.157 7.63 2.76 9.71
10/24/2020 5:45:00 PM 13.51 56.318 0.157 7.61 4.36 9.64
10/24/2020 6:00:00 PM 13.45 56.21 0.157 7.58 3.7 9.59
10/24/2020 6:15:00 PM 13.39 56.102 0.157 7.56 3.09 9.53
10/24/2020 6:30:00 PM 13.36 56.048 0.158 7.54 2.81 9.47
10/24/2020 6:45:00 PM 13.37 56.066 0.158 7.55 2.97 9.43
10/24/2020 7:00:00 PM 13.35 56.03 0.158 7.52 2.89 9.38
10/24/2020 7:15:00 PM 13.28 55.904 0.158 7.52 2.86 9.39
10/24/2020 7:30:00 PM 13.19 55.742 0.158 7.5 3.02 9.38
10/24/2020 7:45:00 PM 13.09 55.562 0.159 7.49 3.03 9.38
10/24/2020 8:00:00 PM 12.97 55.346 0.159 7.5 2.85 9.38
10/24/2020 8:15:00 PM 12.88 55.184 0.159 7.31 2.9 9.4
10/24/2020 8:30:00 PM 12.81 55.058 0.159 7.48 2.82 9.42
10/24/2020 8:45:00 PM 12.72 54.896 0.159 7.48 5.19 9.44
10/24/2020 9:00:00 PM 12.65 54.77 0.159 7.48 5.44 9.43
10/24/2020 9:15:00 PM 12.6 54.68 0.159 7.47 6.23 9.47
10/24/2020 9:30:00 PM 12.52 54.536 0.159 7.46 4.08 9.48
10/24/2020 9:45:00 PM 12.43 54.374 0.159 7.47 5.34 9.5
10/24/2020 10:00:00 PM 12.33 54.194 0.159 7.48 2.9 9.53
10/24/2020 10:15:00 PM 12.29 54.122 0.159 7.47 2.7 9.55
10/24/2020 10:30:00 PM 12.27 54.086 0.159 7.47 2.77 9.56
10/24/2020 10:45:00 PM 12.18 53.924 0.159 7.46 3.04 9.58
10/24/2020 11:00:00 PM 12.07 53.726 0.159 7.46 2.73 9.61
10/24/2020 11:15:00 PM 12 53.6 0.159 7.46 2.65 9.63
10/24/2020 11:30:00 PM 11.94 53.492 0.159 7.46 2.68 9.65
10/24/2020 11:45:00 PM 11.85 53.33 0.159 7.47 2.7 9.67
10/25/2020 12:00:00 AM 11.76 53.168 0.159 7.46 2.77 9.68
10/25/2020 12:15:00 AM 11.68 53.024 0.159 7.46 2.85 9.71
10/25/2020 12:30:00 AM 11.6 52.88 0.159 7.48 2.67 9.73
10/25/2020 12:45:00 AM 11.51 52.718 0.159 7.46 2.65 9.76
10/25/2020 1:00:00 AM 11.43 52.574 0.159 7.47 2.71 9.78
10/25/2020 1:15:00 AM 11.39 52.502 0.159 7.47 2.75 9.8
10/25/2020 1:30:00 AM 11.28 52.304 0.159 7.47 2.83 9.82
10/25/2020 1:45:00 AM 11.18 52.124 0.159 7.46 2.56 9.84
10/25/2020 2:00:00 AM 11.14 52.052 0.159 7.46 2.58 9.86
10/25/2020 2:15:00 AM 11.08 51.944 0.159 7.47 2.45 9.88
10/25/2020 2:30:00 AM 11.02 51.836 0.159 7.47 2.56 9.9
10/25/2020 2:45:00 AM 10.9 51.62 0.159 7.47 3.07 9.92
10/25/2020 3:00:00 AM 10.83 51.494 0.159 7.46 2.51 9.95
10/25/2020 3:15:00 AM 10.77 51.386 0.159 7.47 2.62 9.96
10/25/2020 3:30:00 AM 10.7 51.26 0.159 7.46 2.67 9.98
10/25/2020 3:45:00 AM 10.62 51.116 0.159 7.47 2.58 10.01
10/25/2020 4:00:00 AM 10.52 50.936 0.159 7.46 2.53 10.03
10/25/2020 4:15:00 AM 10.42 50.756 0.159 7.45 2.91 10.06
10/25/2020 4:30:00 AM 10.31 50.558 0.159 7.46 3 10.08
10/25/2020 4:45:00 AM 10.21 50.378 0.159 7.45 2.76 10.11
10/25/2020 5:00:00 AM 10.11 50.198 0.159 7.45 2.68 10.14
10/25/2020 5:15:00 AM 10.01 50.018 0.159 7.46 2.63 10.17
10/25/2020 5:30:00 AM 9.92 49.856 0.159 7.47 3.02 10.21
10/25/2020 5:45:00 AM 9.82 49.676 0.159 7.46 2.72 10.22
10/25/2020 6:00:00 AM 9.72 49.496 0.159 7.46 2.61 10.25
10/25/2020 6:15:00 AM 9.62 49.316 0.159 7.47 2.61 10.28
10/25/2020 6:30:00 AM 9.53 49.154 0.159 7.46 2.57 10.32
10/25/2020 6:45:00 AM 9.44 48.992 0.159 7.45 2.53 10.35
10/25/2020 7:00:00 AM 9.35 48.83 0.159 7.46 2.55 10.38
10/25/2020 7:15:00 AM 9.26 48.668 0.159 7.47 2.48 10.4
10/25/2020 7:30:00 AM 9.18 48.524 0.159 7.47 2.56 10.44
10/25/2020 7:45:00 AM 9.1 48.38 0.159 7.46 2.51 10.47
10/25/2020 8:00:00 AM 9.03 48.254 0.158 7.49 2.58 10.53
10/25/2020 8:15:00 AM 8.98 48.164 0.158 7.49 2.71 10.59
10/25/2020 8:30:00 AM 8.93 48.074 0.158 7.49 2.63 10.67
10/25/2020 8:45:00 AM 8.89 48.002 0.158 7.51 2.52 10.74
10/25/2020 9:00:00 AM 8.86 47.948 0.158 7.53 2.47 10.81
10/25/2020 9:15:00 AM 8.85 47.93 0.158 7.55 2.49 10.88
10/25/2020 9:30:00 AM 8.84 47.912 0.158 7.55 2.44 10.95
10/25/2020 9:45:00 AM 8.87 47.966 0.158 7.56 2.49 11.01
10/25/2020 10:00:00 AM 8.93 48.074 0.158 7.57 2.61 11.07
10/25/2020 10:15:00 AM 9.01 48.218 0.158 7.6 2.53 11.11
10/25/2020 10:30:00 AM 9.09 48.362 0.158 7.61 2.47 11.14
10/25/2020 10:45:00 AM 9.17 48.506 0.158 7.62 2.51 11.16
10/25/2020 11:00:00 AM 9.23 48.614 0.158 7.63 2.55 11.17
10/25/2020 11:15:00 AM 9.28 48.704 0.158 7.64 2.47 11.17
10/25/2020 11:30:00 AM 9.33 48.794 0.157 7.65 2.42 11.17
10/25/2020 11:45:00 AM 9.51 49.118 0.157 7.67 2.57 11.18
10/25/2020 12:00:00 PM 9.81 49.658 0.157 7.67 2.43 11.19
10/25/2020 12:15:00 PM 9.98 49.964 0.157 7.68 2.43 11.17
10/25/2020 12:30:00 PM 10.08 50.144 0.157 7.69 2.53 11.14
10/25/2020 12:45:00 PM 10.2 50.36 0.157 7.69 2.59 11.1
10/25/2020 1:00:00 PM 10.46 50.828 0.157 7.69 2.5 11.07
10/25/2020 1:15:00 PM 10.6 51.08 0.157 7.69 2.55 11.04
10/25/2020 1:30:00 PM 10.6 51.08 0.157 7.69 2.52 11.03
10/25/2020 1:45:00 PM 10.67 51.206 0.157 7.7 2.52 10.99
10/25/2020 2:00:00 PM 10.75 51.35 0.156 7.57 2.43 10.96
10/25/2020 2:15:00 PM 10.79 51.422 0.156 7.73 2.44 10.93
10/25/2020 2:30:00 PM 10.85 51.53 0.156 7.72 2.45 10.92
10/25/2020 2:45:00 PM 10.95 51.71 0.156 7.73 2.47 10.9
10/25/2020 3:00:00 PM 11.03 51.854 0.156 7.72 2.52 10.89
10/25/2020 3:15:00 PM 11.08 51.944 0.156 7.73 2.54 10.86
10/25/2020 3:30:00 PM 11.17 52.106 0.156 7.74 2.48 10.84
10/25/2020 3:45:00 PM 11.29 52.322 0.156 7.74 2.56 10.81
10/25/2020 4:00:00 PM 11.36 52.448 0.156 7.74 2.53 10.77
10/25/2020 4:15:00 PM 11.39 52.502 0.156 7.74 2.58 10.71
10/25/2020 4:30:00 PM 11.42 52.556 0.156 7.73 2.6 10.66
10/25/2020 4:45:00 PM 11.46 52.628 0.156 7.72 2.68 10.59
10/25/2020 5:00:00 PM 11.45 52.61 0.156 7.71 2.52 10.53
10/25/2020 5:15:00 PM 11.49 52.682 0.156 7.69 2.44 10.45
10/25/2020 5:30:00 PM 11.51 52.718 0.156 7.68 2.66 10.38
10/25/2020 5:45:00 PM 11.52 52.736 0.156 7.67 2.65 10.32
10/25/2020 6:00:00 PM 11.51 52.718 0.156 7.63 2.64 10.23
10/25/2020 6:15:00 PM 11.49 52.682 0.157 7.6 2.59 10.14
10/25/2020 6:30:00 PM 11.45 52.61 0.157 7.59 2.72 10.07
10/25/2020 6:45:00 PM 11.42 52.556 0.157 7.58 2.67 10.02
10/25/2020 7:00:00 PM 11.39 52.502 0.157 7.57 2.73 9.98
10/25/2020 7:15:00 PM 11.36 52.448 0.157 7.54 2.82 9.96
10/25/2020 7:30:00 PM 11.34 52.412 0.157 7.53 2.75 9.94
10/25/2020 7:45:00 PM 11.31 52.358 0.158 7.53 2.74 9.94
10/25/2020 8:00:00 PM 11.29 52.322 0.158 7.52 2.86 9.93
10/25/2020 8:15:00 PM 11.26 52.268 0.158 7.53 2.74 9.92
10/25/2020 8:30:00 PM 11.22 52.196 0.158 7.5 2.81 9.92
10/25/2020 8:45:00 PM 11.19 52.142 0.158 7.49 2.66 9.93
10/25/2020 9:00:00 PM 11.15 52.07 0.158 7.49 2.67 9.93
10/25/2020 9:15:00 PM 11.09 51.962 0.159 7.48 2.76 9.94
10/25/2020 9:30:00 PM 11.06 51.908 0.158 7.48 2.49 9.94
10/25/2020 9:45:00 PM 11.03 51.854 0.158 7.49 2.67 9.95
10/25/2020 10:00:00 PM 10.97 51.746 0.158 7.4 2.75 9.96
10/25/2020 10:15:00 PM 10.91 51.638 0.158 7.48 2.74 9.96
10/25/2020 10:30:00 PM 10.86 51.548 0.158 7.48 2.8 9.98
10/25/2020 10:45:00 PM 10.81 51.458 0.158 7.48 2.68 10
10/25/2020 11:00:00 PM 10.76 51.368 0.158 7.47 2.7 10.01
10/25/2020 11:15:00 PM 10.7 51.26 0.158 7.47 2.75 10.02
10/25/2020 11:30:00 PM 10.65 51.17 0.158 7.46 2.67 10.04
10/25/2020 11:45:00 PM 10.61 51.098 0.158 7.47 2.62 10.05
10/26/2020 12:00:00 AM 10.57 51.026 0.158 7.47 2.67 10.06
10/26/2020 12:15:00 AM 10.53 50.954 0.158 7.47 2.52 10.07
10/26/2020 12:30:00 AM 10.5 50.9 0.158 7.47 2.74 10.09
10/26/2020 12:45:00 AM 10.45 50.81 0.158 7.48 2.68 10.09
10/26/2020 1:00:00 AM 10.41 50.738 0.158 7.46 2.69 10.11
10/26/2020 1:15:00 AM 10.38 50.684 0.158 7.49 2.65 10.12
10/26/2020 1:30:00 AM 10.33 50.594 0.158 7.46 2.62 10.13
10/26/2020 1:45:00 AM 10.29 50.522 0.158 7.47 2.61 10.14
10/26/2020 2:00:00 AM 10.25 50.45 0.158 7.49 2.63 10.15
10/26/2020 2:15:00 AM 10.22 50.396 0.158 7.46 2.62 10.17
10/26/2020 2:30:00 AM 10.18 50.324 0.158 7.49 2.55 10.17
10/26/2020 2:45:00 AM 10.16 50.288 0.158 7.49 2.5 10.18
10/26/2020 3:00:00 AM 10.15 50.27 0.158 7.48 2.54 10.19
10/26/2020 3:15:00 AM 10.14 50.252 0.158 7.48 2.5 10.2
10/26/2020 3:30:00 AM 10.12 50.216 0.158 7.48 2.58 10.2
10/26/2020 3:45:00 AM 10.11 50.198 0.158 7.48 2.54 10.21
10/26/2020 4:00:00 AM 10.1 50.18 0.158 7.48 2.48 10.22
10/26/2020 4:15:00 AM 10.08 50.144 0.158 7.47 2.58 10.22
10/26/2020 4:30:00 AM 10.07 50.126 0.158 7.47 2.44 10.23
10/26/2020 4:45:00 AM 10.06 50.108 0.158 7.48 2.5 10.23
10/26/2020 5:00:00 AM 10.05 50.09 0.158 7.47 2.67 10.24
10/26/2020 5:15:00 AM 10.03 50.054 0.158 7.48 2.51 10.24
10/26/2020 5:30:00 AM 10.02 50.036 0.158 7.48 2.56 10.24
10/26/2020 5:45:00 AM 10.01 50.018 0.158 7.47 2.55 10.25
10/26/2020 6:00:00 AM 10 50 0.158 7.47 2.58 10.25
10/26/2020 6:15:00 AM 9.99 49.982 0.158 7.47 2.67 10.25
10/26/2020 6:30:00 AM 9.98 49.964 0.158 7.47 2.6 10.26
10/26/2020 6:45:00 AM 9.97 49.946 0.158 7.47 2.65 10.26
10/26/2020 7:00:00 AM 9.95 49.91 0.157 7.46 2.69 10.27
10/26/2020 7:15:00 AM 9.95 49.91 0.157 7.45 2.73 10.26
10/26/2020 7:30:00 AM 9.95 49.91 0.157 7.47 2.68 10.25
10/26/2020 7:45:00 AM 9.95 49.91 0.157 7.46 2.58 10.25
10/26/2020 8:00:00 AM 9.94 49.892 0.157 7.47 2.64 10.26
10/26/2020 8:15:00 AM 9.94 49.892 0.157 7.47 2.87 10.27
10/26/2020 8:30:00 AM 9.95 49.91 0.156 7.47 2.57 10.3
10/26/2020 8:45:00 AM 9.96 49.928 0.156 7.46 2.48 10.31
10/26/2020 9:00:00 AM 9.98 49.964 0.156 7.48 2.62 10.35
10/26/2020 9:15:00 AM 10 50 0.156 7.47 2.65 10.37
10/26/2020 9:30:00 AM 10.02 50.036 0.156 7.48 2.7 10.39
10/26/2020 9:45:00 AM 10.04 50.072 0.155 7.49 2.62 10.42
10/26/2020 10:00:00 AM 10.07 50.126 0.155 7.51 2.57 10.44
10/26/2020 10:15:00 AM 10.11 50.198 0.155 7.5 2.78 10.49
10/26/2020 10:30:00 AM 10.16 50.288 0.155 7.52 2.6 10.54
10/26/2020 10:45:00 AM 10.21 50.378 0.155 7.52 2.58 10.56
10/26/2020 11:00:00 AM 10.26 50.468 0.155 7.56 2.63 10.58
10/26/2020 11:15:00 AM 10.32 50.576 0.155 7.57 2.57 10.59
10/26/2020 11:30:00 AM 10.38 50.684 0.155 7.56 2.53 10.63
10/26/2020 11:45:00 AM 10.46 50.828 0.155 7.57 2.6 10.67
10/26/2020 12:00:00 PM 10.55 50.99 0.155 7.6 2.55 10.71
10/26/2020 12:15:00 PM 10.62 51.116 0.154 7.6 2.68 10.71
10/26/2020 12:30:00 PM 10.71 51.278 0.154 7.61 2.65 10.72
10/26/2020 12:45:00 PM 10.79 51.422 0.154 7.63 2.59 10.73
10/26/2020 1:00:00 PM 10.85 51.53 0.154 7.63 2.55 10.7
10/26/2020 1:15:00 PM 10.91 51.638 0.154 7.63 2.65 10.69
10/26/2020 1:30:00 PM 11.01 51.818 0.154 7.65 2.64 10.69
10/26/2020 1:45:00 PM 11.09 51.962 0.154 7.66 2.53 10.7
10/26/2020 2:00:00 PM 11.13 52.034 0.154 7.65 2.62 10.64
10/26/2020 2:15:00 PM 11.17 52.106 0.154 7.64 2.56 10.57
10/26/2020 2:30:00 PM 11.21 52.178 0.154 7.64 2.62 10.56
10/26/2020 2:45:00 PM 11.23 52.214 0.154 7.63 2.79 10.49
10/26/2020 3:00:00 PM 11.28 52.304 0.155 7.63 2.6 10.48
10/26/2020 3:15:00 PM 11.31 52.358 0.155 7.62 2.66 10.43
10/26/2020 3:30:00 PM 11.34 52.412 0.155 7.61 2.58 10.4
10/26/2020 3:45:00 PM 11.37 52.466 0.155 7.6 2.61 10.33
10/26/2020 4:00:00 PM 11.38 52.484 0.155 7.59 2.72 10.27
10/26/2020 4:15:00 PM 11.41 52.538 0.155 7.59 2.82 10.26
10/26/2020 4:30:00 PM 11.45 52.61 0.155 7.59 2.57 10.26
10/26/2020 4:45:00 PM 11.46 52.628 0.155 7.57 2.56 10.22
10/26/2020 5:00:00 PM 11.48 52.664 0.155 7.57 2.69 10.19
10/26/2020 5:15:00 PM 11.49 52.682 0.155 7.56 2.53 10.14
10/26/2020 5:30:00 PM 11.49 52.682 0.155 7.53 2.7 10.09
10/26/2020 5:45:00 PM 11.49 52.682 0.155 7.54 2.64 10.04
10/26/2020 6:00:00 PM 11.49 52.682 0.155 7.53 2.74 10.01
10/26/2020 6:15:00 PM 11.49 52.682 0.155 7.52 2.67 9.98
10/26/2020 6:30:00 PM 11.49 52.682 0.155 7.53 2.72 9.95
10/26/2020 6:45:00 PM 11.49 52.682 0.155 7.51 2.76 9.92
10/26/2020 7:00:00 PM 11.48 52.664 0.156 7.49 2.72 9.91
10/26/2020 7:15:00 PM 11.48 52.664 0.156 7.5 2.69 9.9
10/26/2020 7:30:00 PM 11.48 52.664 0.156 7.49 2.87 9.88
10/26/2020 7:45:00 PM 11.48 52.664 0.156 7.5 2.64 9.88
10/26/2020 8:00:00 PM 11.47 52.646 0.156 7.47 2.81 9.88
10/26/2020 8:15:00 PM 11.47 52.646 0.156 7.47 2.61 9.88
10/26/2020 8:30:00 PM 11.46 52.628 0.156 7.48 2.7 9.88
10/26/2020 8:45:00 PM 11.46 52.628 0.156 7.47 2.63 9.88
10/26/2020 9:00:00 PM 11.46 52.628 0.156 7.47 2.64 9.88
10/26/2020 9:15:00 PM 11.46 52.628 0.156 7.49 2.59 9.88
10/26/2020 9:30:00 PM 11.46 52.628 0.156 7.47 2.65 9.88
10/26/2020 9:45:00 PM 11.45 52.61 0.156 7.47 2.74 9.88
10/26/2020 10:00:00 PM 11.45 52.61 0.156 7.46 2.65 9.89
10/26/2020 10:15:00 PM 11.44 52.592 0.156 7.45 2.69 9.89
10/26/2020 10:30:00 PM 11.44 52.592 0.156 7.46 2.61 9.89
10/26/2020 10:45:00 PM 11.44 52.592 0.156 7.46 2.65 9.9
10/26/2020 11:00:00 PM 11.44 52.592 0.156 7.46 2.73 9.89
10/26/2020 11:15:00 PM 11.43 52.574 0.156 7.47 2.56 9.91
10/26/2020 11:30:00 PM 11.42 52.556 0.157 7.47 4.65 9.9
10/26/2020 11:45:00 PM 11.4 52.52 0.157 7.46 3.42 9.91
10/27/2020 12:00:00 AM 11.39 52.502 0.156 7.46 2.64 9.92
10/27/2020 12:15:00 AM 11.39 52.502 0.157 7.45 2.56 9.92
10/27/2020 12:30:00 AM 11.37 52.466 0.156 7.47 2.6 9.92
10/27/2020 12:45:00 AM 11.35 52.43 0.157 7.46 2.64 9.92
10/27/2020 1:00:00 AM 11.3 52.34 0.156 7.46 2.5 9.94
10/27/2020 1:15:00 AM 11.25 52.25 0.156 7.48 2.6 9.95
10/27/2020 1:30:00 AM 11.19 52.142 0.157 7.47 2.6 9.96
10/27/2020 1:45:00 AM 11.15 52.07 0.156 7.47 2.61 9.98
10/27/2020 2:00:00 AM 11.11 51.998 0.156 7.48 2.68 9.99
10/27/2020 2:15:00 AM 11.05 51.89 0.156 7.47 2.68 10
10/27/2020 2:30:00 AM 11.02 51.836 0.157 7.48 2.65 10.02
10/27/2020 2:45:00 AM 11 51.8 0.157 7.48 2.56 10.02
10/27/2020 3:00:00 AM 10.96 51.728 0.156 7.48 2.64 10.03
10/27/2020 3:15:00 AM 10.94 51.692 0.157 7.48 2.6 10.04
10/27/2020 3:30:00 AM 10.91 51.638 0.157 7.48 2.63 10.04
10/27/2020 3:45:00 AM 10.88 51.584 0.157 7.48 2.6 10.06
10/27/2020 4:00:00 AM 10.84 51.512 0.157 7.48 2.51 10.06
10/27/2020 4:15:00 AM 10.81 51.458 0.157 7.48 2.72 10.08
10/27/2020 4:30:00 AM 10.78 51.404 0.157 7.48 2.68 10.09
10/27/2020 4:45:00 AM 10.72 51.296 0.157 7.47 2.64 10.1
10/27/2020 5:00:00 AM 10.7 51.26 0.157 7.48 2.59 10.12
10/27/2020 5:15:00 AM 10.67 51.206 0.157 7.5 2.6 10.13
10/27/2020 5:30:00 AM 10.65 51.17 0.157 7.49 2.67 10.14
10/27/2020 5:45:00 AM 10.62 51.116 0.157 7.48 2.85 10.15
10/27/2020 6:00:00 AM 10.59 51.062 0.157 7.48 2.57 10.15
10/27/2020 6:15:00 AM 10.57 51.026 0.157 7.47 2.57 10.17
10/27/2020 6:30:00 AM 10.54 50.972 0.157 7.48 2.52 10.17
10/27/2020 6:45:00 AM 10.51 50.918 0.157 7.47 2.59 10.18
10/27/2020 7:00:00 AM 10.49 50.882 0.157 7.47 2.55 10.19
10/27/2020 7:15:00 AM 10.45 50.81 0.157 7.47 2.56 10.2
10/27/2020 7:30:00 AM 10.38 50.684 0.157 7.48 2.61 10.21
10/27/2020 7:45:00 AM 10.35 50.63 0.157 7.48 2.5 10.23
10/27/2020 8:00:00 AM 10.33 50.594 0.157 7.49 2.45 10.27
10/27/2020 8:15:00 AM 10.29 50.522 0.157 7.47 2.53 10.32
10/27/2020 8:30:00 AM 10.3 50.54 0.157 7.53 2.53 10.4
10/27/2020 8:45:00 AM 10.33 50.594 0.157 7.54 2.52 10.49
10/27/2020 9:00:00 AM 10.32 50.576 0.157 7.54 2.62 10.52
10/27/2020 9:15:00 AM 10.37 50.666 0.156 7.56 2.45 10.61
10/27/2020 9:30:00 AM 10.39 50.702 0.156 7.56 2.55 10.64
10/27/2020 9:45:00 AM 10.46 50.828 0.156 7.6 2.41 10.71
10/27/2020 10:00:00 AM 10.51 50.918 0.156 7.61 2.48 10.76
10/27/2020 10:15:00 AM 10.62 51.116 0.156 7.63 2.61 10.81
10/27/2020 10:30:00 AM 10.67 51.206 0.156 7.66 2.57 10.83
10/27/2020 10:45:00 AM 10.77 51.386 0.156 7.66 2.53 10.85
10/27/2020 11:00:00 AM 10.86 51.548 0.156 7.67 2.72 10.85
10/27/2020 11:15:00 AM 11.01 51.818 0.155 7.68 2.54 10.87
10/27/2020 11:30:00 AM 11.14 52.052 0.155 7.61 2.53 10.87
10/27/2020 11:45:00 AM 11.25 52.25 0.155 7.7 4.31 10.87
10/27/2020 12:00:00 PM 11.37 52.466 0.155 7.72 2.54 10.87
10/27/2020 12:15:00 PM 11.46 52.628 0.155 7.72 2.39 10.85
10/27/2020 12:30:00 PM 11.5 52.7 0.155 7.73 2.61 10.82
10/27/2020 12:45:00 PM 11.56 52.808 0.155 7.73 2.53 10.8
10/27/2020 1:00:00 PM 11.59 52.862 0.155 7.73 2.65 10.76
10/27/2020 1:15:00 PM 11.62 52.916 0.155 7.74 2.65 10.74
10/27/2020 1:30:00 PM 11.64 52.952 0.155 7.75 2.59 10.71
10/27/2020 1:45:00 PM 11.68 53.024 0.155 7.75 2.47 10.7
10/27/2020 2:00:00 PM 11.71 53.078 0.155 7.73 2.63 10.68
10/27/2020 2:15:00 PM 11.73 53.114 0.155 7.74 2.61 10.65
10/27/2020 2:30:00 PM 11.74 53.132 0.155 7.75 2.67 10.62
10/27/2020 2:45:00 PM 11.72 53.096 0.155 7.71 2.6 10.58
10/27/2020 3:00:00 PM 11.73 53.114 0.155 7.73 2.52 10.57
10/27/2020 3:15:00 PM 11.72 53.096 0.155 7.71 2.58 10.54
10/27/2020 3:30:00 PM 11.73 53.114 0.155 7.71 2.59 10.52
10/27/2020 3:45:00 PM 11.73 53.114 0.155 7.7 2.68 10.49
10/27/2020 4:00:00 PM 11.71 53.078 0.155 7.69 2.68 10.45
10/27/2020 4:15:00 PM 11.71 53.078 0.155 7.68 2.63 10.41
10/27/2020 4:30:00 PM 11.69 53.042 0.155 7.66 2.72 10.36
10/27/2020 4:45:00 PM 11.67 53.006 0.155 7.65 2.7 10.32
10/27/2020 5:00:00 PM 11.65 52.97 0.155 7.63 2.6 10.27
10/27/2020 5:15:00 PM 11.63 52.934 0.155 7.62 2.72 10.23
10/27/2020 5:30:00 PM 11.6 52.88 0.155 7.6 2.57 10.18
10/27/2020 5:45:00 PM 11.58 52.844 0.156 7.58 2.55 10.14
10/27/2020 6:00:00 PM 11.54 52.772 0.156 7.57 2.71 10.1
10/27/2020 6:15:00 PM 11.5 52.7 0.156 7.56 2.75 10.06
10/27/2020 6:30:00 PM 11.46 52.628 0.156 7.54 2.67 10.03
10/27/2020 6:45:00 PM 11.43 52.574 0.156 7.52 2.66 10.02
10/27/2020 7:00:00 PM 11.39 52.502 0.156 7.52 2.7 10
10/27/2020 7:15:00 PM 11.35 52.43 0.157 7.52 2.77 10
10/27/2020 7:30:00 PM 11.31 52.358 0.157 7.5 2.77 9.99
10/27/2020 7:45:00 PM 11.28 52.304 0.157 7.51 2.57 9.99
10/27/2020 8:00:00 PM 11.25 52.25 0.157 7.49 2.75 9.99
10/27/2020 8:15:00 PM 11.21 52.178 0.157 7.5 2.76 10
10/27/2020 8:30:00 PM 11.17 52.106 0.157 7.49 2.79 10
10/27/2020 8:45:00 PM 11.13 52.034 0.157 7.49 2.63 10.01
10/27/2020 9:00:00 PM 11.1 51.98 0.157 7.48 2.57 10.01
10/27/2020 9:15:00 PM 11.06 51.908 0.157 7.49 2.66 10.02
10/27/2020 9:30:00 PM 11.02 51.836 0.157 7.48 2.68 10.03
10/27/2020 9:45:00 PM 11.01 51.818 0.157 7.49 2.74 10.03
10/27/2020 10:00:00 PM 10.98 51.764 0.157 7.49 2.76 10.04
10/27/2020 10:15:00 PM 10.95 51.71 0.157 7.51 2.68 10.04
10/27/2020 10:30:00 PM 10.9 51.62 0.157 7.47 2.59 10.05
10/27/2020 10:45:00 PM 10.87 51.566 0.157 7.47 2.61 10.06
10/27/2020 11:00:00 PM 10.82 51.476 0.157 7.48 2.63 10.07
10/27/2020 11:15:00 PM 10.77 51.386 0.157 7.49 2.79 10.08
10/27/2020 11:30:00 PM 10.74 51.332 0.157 7.48 2.65 10.09
10/27/2020 11:45:00 PM 10.7 51.26 0.157 7.48 2.7 10.1
10/28/2020 12:00:00 AM 10.67 51.206 0.157 7.48 2.68 10.11
10/28/2020 12:15:00 AM 10.65 51.17 0.157 7.46 2.67 10.12
10/28/2020 12:30:00 AM 10.64 51.152 0.157 7.47 2.63 10.13
10/28/2020 12:45:00 AM 10.61 51.098 0.157 7.48 2.65 10.13
10/28/2020 1:00:00 AM 10.6 51.08 0.157 7.49 2.73 10.14
10/28/2020 1:15:00 AM 10.59 51.062 0.157 7.48 2.62 10.14
10/28/2020 1:30:00 AM 10.58 51.044 0.157 7.47 2.64 10.14
10/28/2020 1:45:00 AM 10.57 51.026 0.157 7.47 2.48 10.15
10/28/2020 2:00:00 AM 10.56 51.008 0.157 7.47 2.69 10.16
10/28/2020 2:15:00 AM 10.55 50.99 0.157 7.48 2.53 10.16
10/28/2020 2:30:00 AM 10.54 50.972 0.157 7.49 2.68 10.15
10/28/2020 2:45:00 AM 10.53 50.954 0.157 7.46 2.72 10.16
10/28/2020 3:00:00 AM 10.52 50.936 0.157 7.48 2.64 10.16
10/28/2020 3:15:00 AM 10.51 50.918 0.156 7.46 2.84 10.15
10/28/2020 3:30:00 AM 10.5 50.9 0.156 7.46 2.73 10.16
10/28/2020 3:45:00 AM 10.49 50.882 0.156 7.48 2.76 10.16
10/28/2020 4:00:00 AM 10.48 50.864 0.156 7.48 2.76 10.16
10/28/2020 4:15:00 AM 10.48 50.864 0.156 7.48 2.79 10.15
10/28/2020 4:30:00 AM 10.47 50.846 0.156 7.47 2.58 10.15
10/28/2020 4:45:00 AM 10.46 50.828 0.156 7.47 2.83 10.15
10/28/2020 5:00:00 AM 10.45 50.81 0.156 7.46 2.63 10.15
10/28/2020 5:15:00 AM 10.44 50.792 0.155 7.47 2.65 10.15
10/28/2020 5:30:00 AM 10.44 50.792 0.155 7.48 2.59 10.15
10/28/2020 5:45:00 AM 10.43 50.774 0.155 7.47 2.68 10.15
10/28/2020 6:00:00 AM 10.43 50.774 0.155 7.46 2.83 10.16
10/28/2020 6:15:00 AM 10.43 50.774 0.155 7.47 2.77 10.15
10/28/2020 6:30:00 AM 10.42 50.756 0.155 7.46 2.71 10.15
10/28/2020 6:45:00 AM 10.42 50.756 0.155 7.47 2.82 10.15
10/28/2020 7:00:00 AM 10.42 50.756 0.154 7.46 3.3 10.15
10/28/2020 7:15:00 AM 10.43 50.774 0.155 7.46 2.75 10.15
10/28/2020 7:30:00 AM 10.43 50.774 0.154 7.45 2.86 10.15
10/28/2020 7:45:00 AM 10.43 50.774 0.154 7.47 2.73 10.16
10/28/2020 8:00:00 AM 10.43 50.774 0.154 7.47 2.84 10.16
10/28/2020 8:15:00 AM 10.43 50.774 0.154 7.45 2.6 10.18
10/28/2020 8:30:00 AM 10.44 50.792 0.154 7.48 2.87 10.19
10/28/2020 8:45:00 AM 10.45 50.81 0.154 7.49 2.78 10.24
10/28/2020 9:00:00 AM 10.46 50.828 0.154 7.49 2.87 10.27
10/28/2020 9:15:00 AM 10.49 50.882 0.154 7.49 2.75 10.32
10/28/2020 9:30:00 AM 10.51 50.918 0.154 7.51 2.79 10.36
10/28/2020 9:45:00 AM 10.54 50.972 0.154 7.54 2.65 10.4
10/28/2020 10:00:00 AM 10.61 51.098 0.154 7.55 2.69 10.5
10/28/2020 10:15:00 AM 10.73 51.314 0.154 7.58 2.63 10.56
10/28/2020 10:30:00 AM 10.8 51.44 0.154 7.59 2.62 10.61
10/28/2020 10:45:00 AM 10.88 51.584 0.154 7.6 2.75 10.64
10/28/2020 11:00:00 AM 11 51.8 0.154 7.62 2.76 10.67
10/28/2020 11:15:00 AM 11.1 51.98 0.154 7.65 2.63 10.7
10/28/2020 11:30:00 AM 11.17 52.106 0.154 7.65 2.66 10.71
10/28/2020 11:45:00 AM 11.22 52.196 0.154 7.65 2.69 10.67
10/28/2020 12:00:00 PM 11.28 52.304 0.154 7.68 2.63 10.68
10/28/2020 12:15:00 PM 11.31 52.358 0.154 7.67 2.55 10.66
10/28/2020 12:30:00 PM 11.33 52.394 0.154 7.67 2.46 10.61
10/28/2020 12:45:00 PM 11.34 52.412 0.155 7.66 2.55 10.59
10/28/2020 1:00:00 PM 11.36 52.448 0.155 7.65 2.54 10.56
10/28/2020 1:15:00 PM 11.36 52.448 0.155 7.64 2.59 10.54
10/28/2020 1:30:00 PM 11.36 52.448 0.155 7.65 2.65 10.52
10/28/2020 1:45:00 PM 11.37 52.466 0.155 7.66 2.73 10.49
10/28/2020 2:00:00 PM 11.4 52.52 0.155 7.53 2.7 10.5
10/28/2020 2:15:00 PM 11.44 52.592 0.155 7.65 2.53 10.54
10/28/2020 2:30:00 PM 11.47 52.646 0.155 7.68 2.51 10.55
10/28/2020 2:45:00 PM 11.5 52.7 0.155 7.69 2.67 10.53
10/28/2020 3:00:00 PM 11.52 52.736 0.155 7.67 2.73 10.52
10/28/2020 3:15:00 PM 11.56 52.808 0.155 7.67 2.67 10.52
10/28/2020 3:30:00 PM 11.57 52.826 0.155 7.69 2.68 10.51
10/28/2020 3:45:00 PM 11.58 52.844 0.155 7.66 2.59 10.47
10/28/2020 4:00:00 PM 11.59 52.862 0.155 7.67 2.62 10.44
10/28/2020 4:15:00 PM 11.6 52.88 0.155 7.66 2.61 10.4
10/28/2020 4:30:00 PM 11.59 52.862 0.155 7.66 2.59 10.36
10/28/2020 4:45:00 PM 11.59 52.862 0.155 7.64 2.67 10.34
10/28/2020 5:00:00 PM 11.59 52.862 0.156 7.68 2.73 10.35
10/28/2020 5:15:00 PM 11.58 52.844 0.156 7.63 2.75 10.35
10/28/2020 5:30:00 PM 11.55 52.79 0.156 7.64 2.77 10.33
10/28/2020 5:45:00 PM 11.5 52.7 0.156 7.64 2.76 10.29
10/28/2020 6:00:00 PM 11.44 52.592 0.156 7.61 2.71 10.23
10/28/2020 6:15:00 PM 11.36 52.448 0.156 7.6 2.74 10.19
10/28/2020 6:30:00 PM 11.28 52.304 0.156 7.57 2.61 10.15
10/28/2020 6:45:00 PM 11.2 52.16 0.156 7.56 2.92 10.12
10/28/2020 7:00:00 PM 11.12 52.016 0.156 7.55 2.66 10.09
10/28/2020 7:15:00 PM 11.05 51.89 0.157 7.53 2.85 10.09
10/28/2020 7:30:00 PM 10.96 51.728 0.157 7.55 2.65 10.09
10/28/2020 7:45:00 PM 10.89 51.602 0.157 7.49 2.67 10.08
10/28/2020 8:00:00 PM 10.8 51.44 0.157 7.52 2.74 10.1
10/28/2020 8:15:00 PM 10.72 51.296 0.157 7.49 2.73 10.12
10/28/2020 8:30:00 PM 10.64 51.152 0.157 7.51 3.04 10.13
10/28/2020 8:45:00 PM 10.56 51.008 0.157 7.48 2.86 10.12
10/28/2020 9:00:00 PM 10.49 50.882 0.157 7.49 2.7 10.15
10/28/2020 9:15:00 PM 10.42 50.756 0.157 7.49 2.67 10.17
10/28/2020 9:30:00 PM 10.37 50.666 0.157 7.46 2.76 10.18
10/28/2020 9:45:00 PM 10.31 50.558 0.157 7.48 2.67 10.21
10/28/2020 10:00:00 PM 10.25 50.45 0.157 7.46 2.78 10.21
10/28/2020 10:15:00 PM 10.18 50.324 0.157 7.48 2.68 10.23
10/28/2020 10:30:00 PM 10.12 50.216 0.157 7.49 2.81 10.26
10/28/2020 10:45:00 PM 10.08 50.144 0.157 7.47 2.71 10.27
10/28/2020 11:00:00 PM 10.04 50.072 0.157 7.48 2.75 10.29
10/28/2020 11:15:00 PM 10.01 50.018 0.157 7.49 2.68 10.31
10/28/2020 11:30:00 PM 9.97 49.946 0.157 7.48 2.76 10.31
10/28/2020 11:45:00 PM 9.94 49.892 0.157 7.47 2.72 10.33
10/29/2020 12:00:00 AM 9.91 49.838 0.158 7.5 2.57 10.34
10/29/2020 12:15:00 AM 9.88 49.784 0.158 7.47 2.66 10.35
10/29/2020 12:30:00 AM 9.85 49.73 0.157 7.51 2.64 10.35
10/29/2020 12:45:00 AM 9.83 49.694 0.157 7.47 2.75 10.37
10/29/2020 1:00:00 AM 9.81 49.658 0.158 7.49 2.65 10.36
10/29/2020 1:15:00 AM 9.78 49.604 0.157 7.49 2.7 10.37
10/29/2020 1:30:00 AM 9.76 49.568 0.157 7.49 2.6 10.36
10/29/2020 1:45:00 AM 9.74 49.532 0.157 7.47 2.68 10.38
10/29/2020 2:00:00 AM 9.71 49.478 0.158 7.49 2.84 10.39
10/29/2020 2:15:00 AM 9.68 49.424 0.157 7.49 2.57 10.39
10/29/2020 2:30:00 AM 9.66 49.388 0.158 7.49 2.65 10.4
10/29/2020 2:45:00 AM 9.65 49.37 0.158 7.51 2.56 10.41
10/29/2020 3:00:00 AM 9.63 49.334 0.158 7.49 2.87 10.41
10/29/2020 3:15:00 AM 9.62 49.316 0.158 7.5 2.73 10.42
10/29/2020 3:30:00 AM 9.61 49.298 0.158 7.49 2.78 10.41
10/29/2020 3:45:00 AM 9.6 49.28 0.157 7.49 2.89 10.42
10/29/2020 4:00:00 AM 9.59 49.262 0.157 7.49 2.64 10.41
10/29/2020 4:15:00 AM 9.58 49.244 0.157 7.49 2.91 10.43
10/29/2020 4:30:00 AM 9.57 49.226 0.157 7.48 2.96 10.42
10/29/2020 4:45:00 AM 9.56 49.208 0.157 7.49 2.81 10.42
10/29/2020 5:00:00 AM 9.56 49.208 0.157 7.5 2.68 10.42
10/29/2020 5:15:00 AM 9.56 49.208 0.157 7.5 2.6 10.42
10/29/2020 5:30:00 AM 9.56 49.208 0.157 7.49 2.67 10.42
10/29/2020 5:45:00 AM 9.56 49.208 0.157 7.49 2.63 10.42
10/29/2020 6:00:00 AM 9.55 49.19 0.157 7.5 2.69 10.41
10/29/2020 6:15:00 AM 9.55 49.19 0.156 7.49 2.73 10.42
10/29/2020 6:30:00 AM 9.55 49.19 0.156 7.49 2.7 10.39
10/29/2020 6:45:00 AM 9.55 49.19 0.156 7.48 2.57 10.41
10/29/2020 7:00:00 AM 9.55 49.19 0.156 7.48 2.68 10.42
10/29/2020 7:15:00 AM 9.55 49.19 0.156 7.48 2.6 10.41
10/29/2020 7:30:00 AM 9.55 49.19 0.155 7.48 2.74 10.41
10/29/2020 7:45:00 AM 9.55 49.19 0.155 7.47 2.78 10.41
10/29/2020 8:00:00 AM 9.55 49.19 0.154 7.47 2.63 10.42
10/29/2020 8:15:00 AM 9.54 49.172 0.154 7.48 2.79 10.42
10/29/2020 8:30:00 AM 9.54 49.172 0.153 7.48 2.78 10.42
10/29/2020 8:45:00 AM 9.53 49.154 0.152 7.5 2.79 10.45
10/29/2020 9:00:00 AM 9.53 49.154 0.151 7.49 2.88 10.41
10/29/2020 9:15:00 AM 9.52 49.136 0.151 7.51 2.87 10.46
10/29/2020 9:30:00 AM 9.52 49.136 0.15 7.5 2.82 10.47
10/29/2020 9:45:00 AM 9.52 49.136 0.149 7.5 2.97 10.49
10/29/2020 10:00:00 AM 9.52 49.136 0.149 7.5 2.91 10.51
10/29/2020 10:15:00 AM 9.52 49.136 0.148 7.52 3.18 10.54
10/29/2020 10:30:00 AM 9.52 49.136 0.147 7.53 2.97 10.56
10/29/2020 10:45:00 AM 9.52 49.136 0.147 7.53 3.31 10.57
10/29/2020 11:00:00 AM 9.54 49.172 0.146 7.54 3.16 10.59
10/29/2020 11:15:00 AM 9.54 49.172 0.145 7.54 3.37 10.62
10/29/2020 11:30:00 AM 9.56 49.208 0.145 7.55 3.5 10.66
10/29/2020 11:45:00 AM 9.59 49.262 0.144 7.54 3.36 10.65
10/29/2020 12:00:00 PM 9.62 49.316 0.144 7.55 3.55 10.66
10/29/2020 12:15:00 PM 9.65 49.37 0.143 7.56 3.85 10.69
10/29/2020 12:30:00 PM 9.7 49.46 0.143 7.56 4.19 10.69
10/29/2020 12:45:00 PM 9.74 49.532 0.143 7.56 4.38 10.71
10/29/2020 1:00:00 PM 9.76 49.568 0.143 7.57 4.4 10.72
10/29/2020 1:15:00 PM 9.79 49.622 0.143 7.57 4.22 10.69
10/29/2020 1:30:00 PM 9.8 49.64 0.143 7.57 4.81 10.67
10/29/2020 1:45:00 PM 9.83 49.694 0.143 7.56 4.74 10.66
10/29/2020 2:00:00 PM 9.88 49.784 0.143 7.57 6.37 10.68
10/29/2020 2:15:00 PM 9.93 49.874 0.143 7.57 6.18 10.67
10/29/2020 2:30:00 PM 9.97 49.946 0.143 7.57 6.65 10.67
10/29/2020 2:45:00 PM 10.02 50.036 0.144 7.57 6.61 10.65
10/29/2020 3:00:00 PM 10.04 50.072 0.144 7.57 7.82 10.65
10/29/2020 3:15:00 PM 10.06 50.108 0.143 7.56 8.27 10.64
10/29/2020 3:30:00 PM 10.07 50.126 0.143 7.58 9.78 10.61
10/29/2020 3:45:00 PM 10.07 50.126 0.142 7.56 12.32 10.58
10/29/2020 4:00:00 PM 10.05 50.09 0.141 7.55 11.38 10.56
10/29/2020 4:15:00 PM 10.02 50.036 0.139 7.55 9.79 10.54
10/29/2020 4:30:00 PM 9.98 49.964 0.137 7.53 13.67 10.53
10/29/2020 4:45:00 PM 9.95 49.91 0.135 7.52 12.93 10.53
10/29/2020 5:00:00 PM 9.92 49.856 0.133 7.51 16.1 10.51
10/29/2020 5:15:00 PM 9.88 49.784 0.132 7.5 20.05 10.51
10/29/2020 5:30:00 PM 9.84 49.712 0.13 7.49 18.86 10.52
10/29/2020 5:45:00 PM 9.81 49.658 0.13 7.47 19.81 10.53
10/29/2020 6:00:00 PM 9.8 49.64 0.13 7.45 15.56 10.52
10/29/2020 6:15:00 PM 9.77 49.586 0.132 7.45 15.55 10.51
10/29/2020 6:30:00 PM 9.75 49.55 0.133 7.45 16.76 10.51
10/29/2020 6:45:00 PM 9.73 49.514 0.134 7.44 21.62 10.51
10/29/2020 7:00:00 PM 9.71 49.478 0.136 7.45 27.77 10.5
10/29/2020 7:15:00 PM 9.7 49.46 0.137 7.45 38.32 10.5
10/29/2020 7:30:00 PM 9.68 49.424 0.139 7.45 23.19 10.5
10/29/2020 7:45:00 PM 9.66 49.388 0.142 7.44 23.67 10.52
10/29/2020 8:00:00 PM 9.64 49.352 0.144 7.46 19.81 10.53
10/29/2020 8:15:00 PM 9.63 49.334 0.147 7.46 29.96 10.55
10/29/2020 8:30:00 PM 9.61 49.298 0.149 7.47 22.72 10.55
10/29/2020 8:45:00 PM 9.59 49.262 0.151 7.47 27.39 10.56
10/29/2020 9:00:00 PM 9.57 49.226 0.154 7.47 30.85 10.58
10/29/2020 9:15:00 PM 9.56 49.208 0.159 7.48 22.94 10.59
10/29/2020 9:30:00 PM 9.55 49.19 0.163 7.48 22.7 10.6
10/29/2020 9:45:00 PM 9.54 49.172 0.168 7.49 20.37 10.6
10/29/2020 10:00:00 PM 9.53 49.154 0.173 7.5 19.59 10.61
10/29/2020 10:15:00 PM 9.52 49.136 0.176 7.52 24.82 10.62
10/29/2020 10:30:00 PM 9.5 49.1 0.179 7.51 21.11 10.62
10/29/2020 10:45:00 PM 9.48 49.064 0.181 7.52 18 10.63
10/29/2020 11:00:00 PM 9.46 49.028 0.181 7.52 18.64 10.65
10/29/2020 11:15:00 PM 9.44 48.992 0.181 7.52 17.73 10.65
10/29/2020 11:30:00 PM 9.42 48.956 0.18 7.52 16.82 10.66
10/29/2020 11:45:00 PM 9.4 48.92 0.18 7.52 17.12 10.66
10/30/2020 12:00:00 AM 9.38 48.884 0.18 7.52 17.55 10.68
10/30/2020 12:15:00 AM 9.35 48.83 0.18 7.52 16.5 10.69
10/30/2020 12:30:00 AM 9.33 48.794 0.18 7.52 17.66 10.69
10/30/2020 12:45:00 AM 9.3 48.74 0.179 7.51 18 10.69
10/30/2020 1:00:00 AM 9.27 48.686 0.179 7.51 16.58 10.7
10/30/2020 1:15:00 AM 9.24 48.632 0.178 7.51 16.64 10.7
10/30/2020 1:30:00 AM 9.22 48.596 0.177 7.53 15.66 10.71
10/30/2020 1:45:00 AM 9.19 48.542 0.177 7.52 16.26 10.71
10/30/2020 2:00:00 AM 9.17 48.506 0.177 7.52 15.2 10.71
10/30/2020 2:15:00 AM 9.15 48.47 0.176 7.51 14.27 10.72
10/30/2020 2:30:00 AM 9.12 48.416 0.176 7.53 14.15 10.72
10/30/2020 2:45:00 AM 9.1 48.38 0.177 7.51 13.26 10.73
10/30/2020 3:00:00 AM 9.08 48.344 0.177 7.51 13.08 10.73
10/30/2020 3:15:00 AM 9.05 48.29 0.178 7.52 13.17 10.74
10/30/2020 3:30:00 AM 9.03 48.254 0.179 7.51 12.46 10.75
10/30/2020 3:45:00 AM 9 48.2 0.179 7.51 12.24 10.76
10/30/2020 4:00:00 AM 8.98 48.164 0.18 7.51 12.07 10.77
10/30/2020 4:15:00 AM 8.94 48.092 0.18 7.51 12 10.78
10/30/2020 4:30:00 AM 8.91 48.038 0.181 7.5 11.76 10.78
10/30/2020 4:45:00 AM 8.89 48.002 0.181 7.5 11.11 10.79
10/30/2020 5:00:00 AM 8.86 47.948 0.181 7.5 10.94 10.8
10/30/2020 5:15:00 AM 8.83 47.894 0.181 7.5 10.59 10.81
10/30/2020 5:30:00 AM 8.79 47.822 0.181 7.5 10.84 10.83
10/30/2020 5:45:00 AM 8.75 47.75 0.18 7.49 9.78 10.84
10/30/2020 6:00:00 AM 8.73 47.714 0.18 7.49 9.53 10.84
10/30/2020 6:15:00 AM 8.7 47.66 0.18 7.49 9.21 10.85
10/30/2020 6:30:00 AM 8.68 47.624 0.18 7.48 9.11 10.86
10/30/2020 6:45:00 AM 8.66 47.588 0.18 7.46 8.81 10.87
10/30/2020 7:00:00 AM 8.63 47.534 0.18 7.48 8.32 10.87
10/30/2020 7:15:00 AM 8.62 47.516 0.18 7.47 8.43 10.88
10/30/2020 7:30:00 AM 8.59 47.462 0.18 7.47 8.41 10.89
10/30/2020 7:45:00 AM 8.57 47.426 0.18 7.48 8.6 10.9
10/30/2020 8:00:00 AM 8.56 47.408 0.18 7.48 7.96 10.9
10/30/2020 8:15:00 AM 8.54 47.372 0.18 7.48 7.98 10.92
10/30/2020 8:30:00 AM 8.53 47.354 0.18 7.48 7.76 10.94
10/30/2020 8:45:00 AM 8.52 47.336 0.18 7.48 7.28 10.95
10/30/2020 9:00:00 AM 8.51 47.318 0.18 7.47 6.92 10.96
10/30/2020 9:15:00 AM 8.51 47.318 0.18 7.48 7.2 10.99
10/30/2020 9:30:00 AM 8.51 47.318 0.18 7.49 6.87 11.01
10/30/2020 9:45:00 AM 8.52 47.336 0.181 7.49 6.75 11.03
10/30/2020 10:00:00 AM 8.51 47.318 0.18 7.5 6.63 11.06
10/30/2020 10:15:00 AM 8.51 47.318 0.18 7.51 6.56 11.07
10/30/2020 10:30:00 AM 8.51 47.318 0.18 7.49 6.15 11.08
10/30/2020 10:45:00 AM 8.51 47.318 0.18 7.5 6.05 11.09
10/30/2020 11:00:00 AM 8.51 47.318 0.18 7.51 6.01 11.1
10/30/2020 11:15:00 AM 8.52 47.336 0.18 7.52 6.14 11.12
10/30/2020 11:30:00 AM 8.55 47.39 0.18 7.51 5.74 11.15
10/30/2020 11:45:00 AM 8.57 47.426 0.18 7.52 5.63 11.16
10/30/2020 12:00:00 PM 8.58 47.444 0.18 7.53 5.63 11.17
10/30/2020 12:15:00 PM 8.61 47.498 0.18 7.53 5.44 11.19
10/30/2020 12:30:00 PM 8.63 47.534 0.18 7.53 5.35 11.19
10/30/2020 12:45:00 PM 8.65 47.57 0.18 7.53 5.33 11.2
10/30/2020 1:00:00 PM 8.66 47.588 0.18 7.54 5.61 11.21
10/30/2020 1:15:00 PM 8.68 47.624 0.181 7.54 5.2 11.2
10/30/2020 1:30:00 PM 8.69 47.642 0.181 7.55 12.19 11.2
10/30/2020 1:45:00 PM 8.69 47.642 0.181 7.55 5.84 11.19
10/30/2020 2:00:00 PM 8.7 47.66 0.181 7.55 5.11 11.19
10/30/2020 2:15:00 PM 8.69 47.642 0.182 7.55 5.23 11.18
10/30/2020 2:30:00 PM 8.69 47.642 0.182 7.56 5.15 11.17
10/30/2020 2:45:00 PM 8.7 47.66 0.182 7.55 5.06 11.17
10/30/2020 3:00:00 PM 8.7 47.66 0.182 7.55 4.93 11.18
10/30/2020 3:15:00 PM 8.7 47.66 0.182 7.55 4.81 11.17
10/30/2020 3:30:00 PM 8.76 47.768 0.183 7.56 5.01 11.19
10/30/2020 3:45:00 PM 8.8 47.84 0.183 7.58 5.05 11.22
10/30/2020 4:00:00 PM 8.83 47.894 0.183 7.58 4.87 11.22
10/30/2020 4:15:00 PM 8.82 47.876 0.183 7.56 4.84 11.2
10/30/2020 4:30:00 PM 8.82 47.876 0.183 7.57 4.92 11.2
10/30/2020 4:45:00 PM 8.81 47.858 0.183 7.57 4.99 11.2
10/30/2020 5:00:00 PM 8.79 47.822 0.183 7.56 4.8 11.18
10/30/2020 5:15:00 PM 8.74 47.732 0.183 7.57 4.82 11.17
10/30/2020 5:30:00 PM 8.7 47.66 0.183 7.55 5 11.16
10/30/2020 5:45:00 PM 8.65 47.57 0.183 7.55 4.74 11.14
10/30/2020 6:00:00 PM 8.6 47.48 0.183 7.54 4.74 11.13
10/30/2020 6:15:00 PM 8.57 47.426 0.183 7.53 4.61 11.12
10/30/2020 6:30:00 PM 8.54 47.372 0.183 7.53 4.75 11.1
10/30/2020 6:45:00 PM 8.5 47.3 0.183 7.52 4.71 11.09
10/30/2020 7:00:00 PM 8.44 47.192 0.183 7.52 4.63 11.09
10/30/2020 7:15:00 PM 8.38 47.084 0.183 7.51 4.62 11.09
10/30/2020 7:30:00 PM 8.35 47.03 0.183 7.51 4.86 11.1
10/30/2020 7:45:00 PM 8.32 46.976 0.182 7.5 4.64 11.11
10/30/2020 8:00:00 PM 8.29 46.922 0.183 7.5 4.54 11.12
10/30/2020 8:15:00 PM 8.27 46.886 0.182 7.5 4.38 11.12
10/30/2020 8:30:00 PM 8.24 46.832 0.183 7.49 4.6 11.13
10/30/2020 8:45:00 PM 8.22 46.796 0.183 7.5 4.46 11.14
10/30/2020 9:00:00 PM 8.2 46.76 0.183 7.49 4.98 11.15
10/30/2020 9:15:00 PM 8.19 46.742 0.183 7.47 4.61 11.16
10/30/2020 9:30:00 PM 8.17 46.706 0.183 7.47 4.39 11.16
10/30/2020 9:45:00 PM 8.16 46.688 0.183 7.47 4.31 11.17
10/30/2020 10:00:00 PM 8.13 46.634 0.183 7.47 4.26 11.17
10/30/2020 10:15:00 PM 8.11 46.598 0.183 7.47 4.42 11.18
10/30/2020 10:30:00 PM 8.09 46.562 0.183 7.47 4.41 11.19
10/30/2020 10:45:00 PM 8.07 46.526 0.183 7.46 4.35 11.2
10/30/2020 11:00:00 PM 8.04 46.472 0.184 7.47 4.82 11.21
10/30/2020 11:15:00 PM 8.02 46.436 0.184 7.47 4.37 11.22
10/30/2020 11:30:00 PM 7.99 46.382 0.184 7.47 4.7 11.23
10/30/2020 11:45:00 PM 7.98 46.364 0.184 7.48 4.41 11.24
10/31/2020 12:00:00 AM 7.96 46.328 0.184 7.48 4.52 11.24
10/31/2020 12:15:00 AM 7.95 46.31 0.184 7.48 4.29 11.24
10/31/2020 12:30:00 AM 7.93 46.274 0.184 7.49 4.32 11.25
10/31/2020 12:45:00 AM 7.9 46.22 0.184 7.49 4.01 11.26
10/31/2020 1:00:00 AM 7.89 46.202 0.184 7.49 4 11.26
10/31/2020 1:15:00 AM 7.88 46.184 0.184 7.48 3.71 11.27
10/31/2020 1:30:00 AM 7.86 46.148 0.184 7.5 4.35 11.28
10/31/2020 1:45:00 AM 7.84 46.112 0.185 7.5 3.84 11.28
10/31/2020 2:00:00 AM 7.83 46.094 0.185 7.5 3.82 11.29
10/31/2020 2:15:00 AM 7.81 46.058 0.185 7.5 3.71 11.3
10/31/2020 2:30:00 AM 7.79 46.022 0.185 7.5 4.06 11.3
10/31/2020 2:45:00 AM 7.77 45.986 0.185 7.39 3.95 11.31
10/31/2020 3:00:00 AM 7.74 45.932 0.185 7.5 3.81 11.31
10/31/2020 3:15:00 AM 7.72 45.896 0.184 7.5 4.07 11.33
10/31/2020 3:30:00 AM 7.7 45.86 0.184 7.5 3.78 11.33
10/31/2020 3:45:00 AM 7.68 45.824 0.184 7.5 4.01 11.33
10/31/2020 4:00:00 AM 7.66 45.788 0.184 7.5 3.99 11.34
10/31/2020 4:15:00 AM 7.63 45.734 0.185 7.49 3.86 11.35
10/31/2020 4:30:00 AM 7.62 45.716 0.184 7.49 3.98 11.36
10/31/2020 4:45:00 AM 7.6 45.68 0.185 7.51 4.12 11.35
10/31/2020 5:00:00 AM 7.59 45.662 0.184 7.5 3.67 11.37
10/31/2020 5:15:00 AM 7.56 45.608 0.184 7.49 3.42 11.37
10/31/2020 5:30:00 AM 7.54 45.572 0.185 7.5 3.57 11.38
10/31/2020 5:45:00 AM 7.52 45.536 0.184 7.5 3.52 11.39
10/31/2020 6:00:00 AM 7.49 45.482 0.184 7.5 3.39 11.4
10/31/2020 6:15:00 AM 7.47 45.446 0.184 7.5 3.6 11.4
10/31/2020 6:30:00 AM 7.45 45.41 0.184 7.5 3.75 11.42
10/31/2020 6:45:00 AM 7.43 45.374 0.184 7.49 3.44 11.42
10/31/2020 7:00:00 AM 7.41 45.338 0.184 7.5 3.79 11.44
10/31/2020 7:15:00 AM 7.37 45.266 0.184 7.51 3.57 11.45
10/31/2020 7:30:00 AM 7.34 45.212 0.184 7.51 3.39 11.45
10/31/2020 7:45:00 AM 7.3 45.14 0.184 7.49 3.27 11.47
10/31/2020 8:00:00 AM 7.26 45.068 0.184 7.51 3.43 11.5
10/31/2020 8:15:00 AM 7.23 45.014 0.184 7.52 3.34 11.54
10/31/2020 8:30:00 AM 7.2 44.96 0.184 7.52 3.32 11.59
10/31/2020 8:45:00 AM 7.19 44.942 0.184 7.53 3.09 11.63
10/31/2020 9:00:00 AM 7.2 44.96 0.184 7.55 2.99 11.68
10/31/2020 9:15:00 AM 7.19 44.942 0.184 7.55 3.11 11.71
10/31/2020 9:30:00 AM 7.18 44.924 0.184 7.57 3.19 11.73
10/31/2020 9:45:00 AM 7.17 44.906 0.183 7.57 3.1 11.75
10/31/2020 10:00:00 AM 7.17 44.906 0.183 7.57 3.14 11.77
10/31/2020 10:15:00 AM 7.17 44.906 0.183 7.59 3.29 11.8
10/31/2020 10:30:00 AM 7.25 45.05 0.183 7.61 2.93 11.82
10/31/2020 10:45:00 AM 7.35 45.23 0.183 7.63 2.96 11.84
10/31/2020 11:00:00 AM 7.48 45.464 0.183 7.5 2.93 11.84
10/31/2020 11:15:00 AM 7.55 45.59 0.183 7.63 3.02 11.83
10/31/2020 11:30:00 AM 7.62 45.716 0.183 7.65 2.98 11.81
10/31/2020 11:45:00 AM 7.76 45.968 0.182 7.67 2.87 11.8
10/31/2020 12:00:00 PM 7.89 46.202 0.182 7.66 2.88 11.78
10/31/2020 12:15:00 PM 8.08 46.544 0.182 7.67 4.01 11.76
10/31/2020 12:30:00 PM 8.16 46.688 0.182 7.68 2.85 11.73
10/31/2020 12:45:00 PM 8.17 46.706 0.182 7.68 3.07 11.7
10/31/2020 1:00:00 PM 8.2 46.76 0.182 7.69 2.88 11.66
10/31/2020 1:15:00 PM 8.29 46.922 0.182 7.68 2.97 11.64
10/31/2020 1:30:00 PM 8.31 46.958 0.182 7.68 2.75 11.62
10/31/2020 1:45:00 PM 8.5 47.3 0.182 7.69 2.9 11.6
10/31/2020 2:00:00 PM 8.58 47.444 0.182 7.7 2.81 11.57
10/31/2020 2:15:00 PM 8.75 47.75 0.182 7.7 2.96 11.53
10/31/2020 2:30:00 PM 8.87 47.966 0.182 7.7 2.73 11.5
10/31/2020 2:45:00 PM 8.89 48.002 0.181 7.7 3.09 11.47
10/31/2020 3:00:00 PM 8.95 48.11 0.181 7.7 2.76 11.44
10/31/2020 3:15:00 PM 9.01 48.218 0.181 7.72 2.96 11.41
10/31/2020 3:30:00 PM 9.02 48.236 0.181 7.71 2.88 11.39
10/31/2020 3:45:00 PM 9.06 48.308 0.181 7.71 3.07 11.38
10/31/2020 4:00:00 PM 9.07 48.326 0.181 7.7 2.94 11.36
10/31/2020 4:15:00 PM 9.03 48.254 0.181 7.7 2.93 11.35
10/31/2020 4:30:00 PM 8.96 48.128 0.181 7.7 2.91 11.35
10/31/2020 4:45:00 PM 8.91 48.038 0.181 7.7 3.08 11.35
10/31/2020 5:00:00 PM 8.87 47.966 0.181 7.69 3.09 11.34
10/31/2020 5:15:00 PM 8.85 47.93 0.181 7.68 2.98 11.33
10/31/2020 5:30:00 PM 8.8 47.84 0.181 7.67 3.1 11.31
10/31/2020 5:45:00 PM 8.75 47.75 0.181 7.66 3.04 11.28
10/31/2020 6:00:00 PM 8.68 47.624 0.181 7.66 3.47 11.24
10/31/2020 6:15:00 PM 8.59 47.462 0.181 7.63 3.15 11.22
10/31/2020 6:30:00 PM 8.49 47.282 0.181 7.61 3.06 11.19
10/31/2020 6:45:00 PM 8.39 47.102 0.181 7.59 2.84 11.18
10/31/2020 7:00:00 PM 8.29 46.922 0.181 7.6 3.09 11.18
10/31/2020 7:15:00 PM 8.19 46.742 0.181 7.59 3.23 11.19
10/31/2020 7:30:00 PM 8.09 46.562 0.181 7.59 2.98 11.21
10/31/2020 7:45:00 PM 7.99 46.382 0.181 7.58 3.33 11.23
10/31/2020 8:00:00 PM 7.9 46.22 0.181 7.56 3.22 11.25
10/31/2020 8:15:00 PM 7.81 46.058 0.181 7.56 2.97 11.26
10/31/2020 8:30:00 PM 7.73 45.914 0.181 7.56 3.12 11.28
10/31/2020 8:45:00 PM 7.65 45.77 0.181 7.56 3.37 11.3
10/31/2020 9:00:00 PM 7.57 45.626 0.181 7.56 2.93 11.33
10/31/2020 9:15:00 PM 7.49 45.482 0.181 7.56 2.77 11.35
10/31/2020 9:30:00 PM 7.43 45.374 0.181 7.55 3.07 11.37
10/31/2020 9:45:00 PM 7.35 45.23 0.181 7.56 2.78 11.39
10/31/2020 10:00:00 PM 7.29 45.122 0.181 7.56 3.29 11.41
10/31/2020 10:15:00 PM 7.22 44.996 0.181 7.56 3.01 11.42
10/31/2020 10:30:00 PM 7.16 44.888 0.181 7.56 3.03 11.44
10/31/2020 10:45:00 PM 7.09 44.762 0.181 7.56 2.97 11.46
10/31/2020 11:00:00 PM 7.03 44.654 0.181 7.55 2.86 11.47
10/31/2020 11:15:00 PM 6.98 44.564 0.181 7.55 3.36 11.49
10/31/2020 11:30:00 PM 6.96 44.528 0.181 7.55 3.01 11.5
10/31/2020 11:45:00 PM 6.92 44.456 0.181 7.56 3.19 11.5
11/1/2020 12:00:00 AM 6.91 44.438 0.181 7.55 3.02 11.51
11/1/2020 12:15:00 AM 6.9 44.42 0.181 7.56 3.03 11.52
11/1/2020 12:30:00 AM 6.89 44.402 0.181 7.55 2.81 11.52
11/1/2020 12:45:00 AM 6.88 44.384 0.181 7.56 2.7 11.52
11/1/2020 1:00:00 AM 6.88 44.384 0.181 7.56 3.01 11.52
11/1/2020 1:15:00 AM 6.89 44.402 0.181 7.55 2.93 11.52
11/1/2020 1:30:00 AM 6.9 44.42 0.181 7.55 2.79 11.52
11/1/2020 1:45:00 AM 6.92 44.456 0.181 7.56 2.85 11.51
11/1/2020 2:00:00 AM 6.94 44.492 0.181 7.55 2.72 11.51
11/1/2020 2:15:00 AM 6.94 44.492 0.181 7.56 2.72 11.5
11/1/2020 2:30:00 AM 6.96 44.528 0.181 7.55 2.73 11.5
11/1/2020 2:45:00 AM 6.97 44.546 0.181 7.55 2.75 11.49
11/1/2020 3:00:00 AM 6.99 44.582 0.181 7.55 3.04 11.48
11/1/2020 3:15:00 AM 7 44.6 0.18 7.55 2.88 11.48
11/1/2020 3:30:00 AM 7.01 44.618 0.181 7.56 2.94 11.48
11/1/2020 3:45:00 AM 7 44.6 0.181 7.56 2.91 11.47
11/1/2020 4:00:00 AM 7 44.6 0.18 7.55 2.85 11.47
11/1/2020 4:15:00 AM 7 44.6 0.181 7.55 2.85 11.46
11/1/2020 4:30:00 AM 6.99 44.582 0.18 7.55 2.93 11.46
11/1/2020 4:45:00 AM 7 44.6 0.181 7.56 2.7 11.46
11/1/2020 5:00:00 AM 7 44.6 0.18 7.55 2.89 11.45
11/1/2020 5:15:00 AM 7.01 44.618 0.18 7.55 2.89 11.45
11/1/2020 5:30:00 AM 7.01 44.618 0.18 7.55 2.95 11.45
11/1/2020 5:45:00 AM 7.01 44.618 0.18 7.56 2.94 11.45
11/1/2020 6:00:00 AM 7.02 44.636 0.18 7.55 2.97 11.45
11/1/2020 6:15:00 AM 7.02 44.636 0.18 7.56 3.15 11.44
11/1/2020 6:30:00 AM 7.02 44.636 0.18 7.56 3.05 11.44
11/1/2020 6:45:00 AM 7.02 44.636 0.18 7.56 2.94 11.43
11/1/2020 7:00:00 AM 7.02 44.636 0.18 7.56 3 11.43
11/1/2020 7:15:00 AM 7.03 44.654 0.18 7.56 2.93 11.43
11/1/2020 7:30:00 AM 7.03 44.654 0.18 7.55 2.77 11.42
11/1/2020 7:45:00 AM 7.04 44.672 0.18 7.57 2.67 11.42
11/1/2020 8:00:00 AM 7.05 44.69 0.18 7.56 2.77 11.42
11/1/2020 8:15:00 AM 7.05 44.69 0.18 7.56 2.57 11.43
11/1/2020 8:30:00 AM 7.07 44.726 0.18 7.56 2.73 11.45
11/1/2020 8:45:00 AM 7.09 44.762 0.18 7.56 2.64 11.46
11/1/2020 9:00:00 AM 7.1 44.78 0.18 7.57 2.56 11.47
11/1/2020 9:15:00 AM 7.12 44.816 0.18 7.6 2.76 11.48
11/1/2020 9:30:00 AM 7.16 44.888 0.18 7.6 2.6 11.53
11/1/2020 9:45:00 AM 7.21 44.978 0.18 7.61 2.55 11.56
11/1/2020 10:00:00 AM 7.27 45.086 0.18 7.63 2.58 11.6
11/1/2020 10:15:00 AM 7.33 45.194 0.18 7.64 2.54 11.61
11/1/2020 10:30:00 AM 7.37 45.266 0.18 7.64 2.64 11.58
11/1/2020 10:45:00 AM 7.42 45.356 0.18 7.64 2.58 11.58
11/1/2020 11:00:00 AM 7.47 45.446 0.18 7.66 2.5 11.56
11/1/2020 11:15:00 AM 7.5 45.5 0.18 7.65 2.67 11.53
11/1/2020 11:30:00 AM 7.54 45.572 0.179 7.66 2.58 11.53
11/1/2020 11:45:00 AM 7.58 45.644 0.179 7.66 2.44 11.52
11/1/2020 12:00:00 PM 7.62 45.716 0.179 7.67 2.54 11.51
11/1/2020 12:15:00 PM 7.66 45.788 0.179 7.67 2.6 11.5
11/1/2020 12:30:00 PM 7.69 45.842 0.179 7.67 2.38 11.47
11/1/2020 12:45:00 PM 7.7 45.86 0.179 7.67 2.46 11.42
11/1/2020 1:00:00 PM 7.73 45.914 0.179 7.66 2.56 11.41
11/1/2020 1:15:00 PM 7.76 45.968 0.179 7.67 2.47 11.42
11/1/2020 1:30:00 PM 7.81 46.058 0.179 7.67 2.73 11.43
11/1/2020 1:45:00 PM 7.84 46.112 0.179 7.67 2.67 11.41
11/1/2020 2:00:00 PM 7.88 46.184 0.179 7.66 2.46 11.4
11/1/2020 2:15:00 PM 7.96 46.328 0.178 7.68 2.66 11.43
11/1/2020 2:30:00 PM 8.01 46.418 0.178 7.69 2.55 11.42
11/1/2020 2:45:00 PM 8.04 46.472 0.178 7.68 2.41 11.37
11/1/2020 3:00:00 PM 8.06 46.508 0.177 7.67 2.55 11.32
11/1/2020 3:15:00 PM 8.08 46.544 0.176 7.67 2.79 11.29
11/1/2020 3:30:00 PM 8.12 46.616 0.176 7.66 2.6 11.29
11/1/2020 3:45:00 PM 8.17 46.706 0.175 7.67 2.74 11.31
11/1/2020 4:00:00 PM 8.22 46.796 0.175 7.68 2.73 11.32
11/1/2020 4:15:00 PM 8.2 46.76 0.174 7.66 2.89 11.27
11/1/2020 4:30:00 PM 8.18 46.724 0.174 7.66 2.73 11.27
11/1/2020 4:45:00 PM 8.16 46.688 0.174 7.67 2.69 11.29
11/1/2020 5:00:00 PM 8.11 46.598 0.174 7.67 2.81 11.3
11/1/2020 5:15:00 PM 8.01 46.418 0.174 7.66 2.74 11.31
11/1/2020 5:30:00 PM 7.97 46.346 0.174 7.65 2.67 11.31
11/1/2020 5:45:00 PM 7.94 46.292 0.175 7.64 2.65 11.29
11/1/2020 6:00:00 PM 7.91 46.238 0.175 7.64 2.74 11.25
11/1/2020 6:15:00 PM 7.88 46.184 0.175 7.62 2.82 11.21
11/1/2020 6:30:00 PM 7.82 46.076 0.175 7.61 2.84 11.18
11/1/2020 6:45:00 PM 7.77 45.986 0.175 7.59 2.91 11.16
11/1/2020 7:00:00 PM 7.72 45.896 0.175 7.6 2.85 11.14
11/1/2020 7:15:00 PM 7.67 45.806 0.175 7.6 2.77 11.15
11/1/2020 7:30:00 PM 7.57 45.626 0.175 7.6 2.94 11.16
11/1/2020 7:45:00 PM 7.48 45.464 0.175 7.57 2.98 11.18
11/1/2020 8:00:00 PM 7.41 45.338 0.175 7.57 2.8 11.2
11/1/2020 8:15:00 PM 7.34 45.212 0.175 7.58 3.2 11.21
11/1/2020 8:30:00 PM 7.23 45.014 0.175 7.58 2.85 11.24
11/1/2020 8:45:00 PM 7.17 44.906 0.175 7.58 2.86 11.26
11/1/2020 9:00:00 PM 7.09 44.762 0.175 7.59 2.82 11.28
11/1/2020 9:15:00 PM 7 44.6 0.175 7.58 2.99 11.3
11/1/2020 9:30:00 PM 6.9 44.42 0.175 7.57 2.73 11.33
11/1/2020 9:45:00 PM 6.81 44.258 0.175 7.58 2.95 11.36
11/1/2020 10:00:00 PM 6.74 44.132 0.175 7.57 2.78 11.38
11/1/2020 10:15:00 PM 6.68 44.024 0.175 7.57 2.71 11.41
11/1/2020 10:30:00 PM 6.6 43.88 0.175 7.58 2.89 11.43
11/1/2020 10:45:00 PM 6.54 43.772 0.175 7.57 2.72 11.44
11/1/2020 11:00:00 PM 6.47 43.646 0.176 7.56 2.75 11.46
11/1/2020 11:15:00 PM 6.42 43.556 0.176 7.58 2.7 11.48
11/1/2020 11:30:00 PM 6.39 43.502 0.175 7.57 2.9 11.49
11/1/2020 11:45:00 PM 6.35 43.43 0.175 7.57 2.78 11.5
11/2/2020 12:00:00 AM 6.3 43.34 0.175 7.57 2.8 11.52
11/2/2020 12:15:00 AM 6.26 43.268 0.175 7.58 2.9 11.53
11/2/2020 12:30:00 AM 6.23 43.214 0.175 7.56 2.73 11.54
11/2/2020 12:45:00 AM 6.21 43.178 0.175 7.57 3 11.55
11/2/2020 1:00:00 AM 6.19 43.142 0.175 7.57 2.58 11.56
11/2/2020 1:15:00 AM 6.19 43.142 0.175 7.57 2.77 11.57
11/2/2020 1:30:00 AM 6.19 43.142 0.175 7.57 2.78 11.57
11/2/2020 1:45:00 AM 6.19 43.142 0.175 7.57 2.84 11.57
11/2/2020 2:00:00 AM 6.19 43.142 0.175 7.58 2.76 11.57
11/2/2020 2:15:00 AM 6.19 43.142 0.175 7.57 2.64 11.57
11/2/2020 2:30:00 AM 6.17 43.106 0.175 7.57 2.62 11.57
11/2/2020 2:45:00 AM 6.15 43.07 0.175 7.57 2.7 11.58
11/2/2020 3:00:00 AM 6.12 43.016 0.175 7.56 2.69 11.58
11/2/2020 3:15:00 AM 6.1 42.98 0.175 7.58 2.6 11.58
11/2/2020 3:30:00 AM 6.08 42.944 0.175 7.56 2.44 11.59
11/2/2020 3:45:00 AM 6.05 42.89 0.176 7.58 2.58 11.6
11/2/2020 4:00:00 AM 6.03 42.854 0.176 7.57 2.77 11.61
11/2/2020 4:15:00 AM 6 42.8 0.176 7.57 2.62 11.63
11/2/2020 4:30:00 AM 5.96 42.728 0.176 7.57 2.74 11.64
11/2/2020 4:45:00 AM 5.94 42.692 0.176 7.58 3.01 11.64
11/2/2020 5:00:00 AM 5.93 42.674 0.176 7.56 2.79 11.65
11/2/2020 5:15:00 AM 5.92 42.656 0.176 7.57 2.91 11.65
11/2/2020 5:30:00 AM 5.91 42.638 0.176 7.58 2.86 11.66
11/2/2020 5:45:00 AM 5.9 42.62 0.176 7.57 2.71 11.67
11/2/2020 6:00:00 AM 5.87 42.566 0.176 7.57 3.05 11.68
11/2/2020 6:15:00 AM 5.82 42.476 0.176 7.56 2.58 11.69
11/2/2020 6:30:00 AM 5.78 42.404 0.177 7.57 2.72 11.71
11/2/2020 6:45:00 AM 5.75 42.35 0.177 7.58 2.92 11.72
11/2/2020 7:00:00 AM 5.69 42.242 0.177 7.57 2.78 11.74
11/2/2020 7:15:00 AM 5.69 42.242 0.177 7.57 2.66 11.75
11/2/2020 7:30:00 AM 5.65 42.17 0.178 7.56 2.57 11.76
11/2/2020 7:45:00 AM 5.57 42.026 0.178 7.58 2.87 11.78
11/2/2020 8:00:00 AM 5.53 41.954 0.178 7.58 2.52 11.82
11/2/2020 8:15:00 AM 5.46 41.828 0.178 7.6 2.63 11.86
11/2/2020 8:30:00 AM 5.42 41.756 0.178 7.59 2.59 11.93
11/2/2020 8:45:00 AM 5.37 41.666 0.178 7.6 2.5 12
11/2/2020 9:00:00 AM 5.36 41.648 0.178 7.62 2.53 12.06
11/2/2020 9:15:00 AM 5.3 41.54 0.178 7.63 2.52 12.13
11/2/2020 9:30:00 AM 5.28 41.504 0.178 7.63 2.55 12.18
11/2/2020 9:45:00 AM 5.29 41.522 0.178 7.65 2.58 12.21
11/2/2020 10:00:00 AM 5.3 41.54 0.179 7.68 2.46 12.25
11/2/2020 10:15:00 AM 5.34 41.612 0.179 7.68 2.45 12.27
11/2/2020 10:30:00 AM 5.35 41.63 0.179 7.69 2.39 12.3
11/2/2020 10:45:00 AM 5.29 41.522 0.179 7.69 2.59 12.31
11/2/2020 11:00:00 AM 5.3 41.54 0.179 7.68 2.62 12.32
11/2/2020 11:15:00 AM 5.31 41.558 0.179 7.7 2.46 12.34
11/2/2020 11:30:00 AM 5.38 41.684 0.179 7.71 2.37 12.33
11/2/2020 11:45:00 AM 5.51 41.918 0.179 7.71 2.42 12.32
11/2/2020 12:00:00 PM 5.56 42.008 0.179 7.71 2.49 12.3
11/2/2020 12:15:00 PM 5.72 42.296 0.179 7.71 2.49 12.27
11/2/2020 12:30:00 PM 6.37 43.466 0.179 7.74 2.5 12.1
11/2/2020 12:45:00 PM 6.39 43.502 0.179 7.74 2.38 12.05
11/2/2020 1:00:00 PM 6.36 43.448 0.18 7.73 2.4 12.03
11/2/2020 1:15:00 PM 6.51 43.718 0.18 7.75 2.39 12.02
11/2/2020 1:30:00 PM 6.66 43.988 0.18 7.77 2.38 11.99
11/2/2020 1:45:00 PM 6.82 44.276 0.18 7.76 2.48 11.96
11/2/2020 2:00:00 PM 6.92 44.456 0.18 7.77 2.49 11.94
11/2/2020 2:15:00 PM 7.04 44.672 0.18 7.77 2.43 11.9
11/2/2020 2:30:00 PM 7.13 44.834 0.18 7.77 2.49 11.86
11/2/2020 2:45:00 PM 7.17 44.906 0.18 7.77 2.52 11.82
11/2/2020 3:00:00 PM 7.16 44.888 0.18 7.77 2.43 11.81
11/2/2020 3:15:00 PM 7.09 44.762 0.18 7.76 2.6 11.78
11/2/2020 3:30:00 PM 7.03 44.654 0.18 7.76 2.49 11.78
11/2/2020 3:45:00 PM 6.99 44.582 0.18 7.76 2.57 11.78
11/2/2020 4:00:00 PM 6.94 44.492 0.18 7.75 2.56 11.76
11/2/2020 4:15:00 PM 6.86 44.348 0.18 7.72 2.45 11.74
11/2/2020 4:30:00 PM 6.8 44.24 0.18 7.72 2.63 11.73
11/2/2020 4:45:00 PM 6.74 44.132 0.18 7.71 2.51 11.72
11/2/2020 5:00:00 PM 6.66 43.988 0.18 7.69 2.58 11.69
11/2/2020 5:15:00 PM 6.59 43.862 0.181 7.67 2.45 11.66
11/2/2020 5:30:00 PM 6.52 43.736 0.181 7.66 2.54 11.63
11/2/2020 5:45:00 PM 6.45 43.61 0.181 7.64 2.79 11.61
11/2/2020 6:00:00 PM 6.4 43.52 0.181 7.64 2.45 11.61
11/2/2020 6:15:00 PM 6.35 43.43 0.181 7.63 2.61 11.6
11/2/2020 6:30:00 PM 6.29 43.322 0.181 7.62 2.77 11.61
11/2/2020 6:45:00 PM 6.24 43.232 0.181 7.63 2.66 11.62
11/2/2020 7:00:00 PM 6.19 43.142 0.181 7.62 2.74 11.63
11/2/2020 7:15:00 PM 6.16 43.088 0.181 7.61 2.71 11.64
11/2/2020 7:30:00 PM 6.12 43.016 0.181 7.61 2.78 11.64
11/2/2020 7:45:00 PM 6.09 42.962 0.181 7.61 2.68 11.65
11/2/2020 8:00:00 PM 6.05 42.89 0.181 7.61 2.82 11.66
11/2/2020 8:15:00 PM 6 42.8 0.181 7.6 2.61 11.66
11/2/2020 8:30:00 PM 5.97 42.746 0.181 7.61 2.64 11.67
11/2/2020 8:45:00 PM 5.93 42.674 0.181 7.59 2.41 11.67
11/2/2020 9:00:00 PM 5.87 42.566 0.181 7.61 3.15 11.69
11/2/2020 9:15:00 PM 5.81 42.458 0.181 7.6 2.7 11.7
11/2/2020 9:30:00 PM 5.77 42.386 0.181 7.6 2.61 11.71
11/2/2020 9:45:00 PM 5.72 42.296 0.181 7.59 2.67 11.72
11/2/2020 10:00:00 PM 5.66 42.188 0.181 7.61 2.59 11.74
11/2/2020 10:15:00 PM 5.6 42.08 0.181 7.6 2.54 11.76
11/2/2020 10:30:00 PM 5.56 42.008 0.181 7.59 2.5 11.77
11/2/2020 10:45:00 PM 5.53 41.954 0.181 7.61 2.59 11.79
11/2/2020 11:00:00 PM 5.49 41.882 0.181 7.6 2.62 11.8
11/2/2020 11:15:00 PM 5.47 41.846 0.181 7.6 2.57 11.81
11/2/2020 11:30:00 PM 5.44 41.792 0.181 7.59 2.72 11.82
11/2/2020 11:45:00 PM 5.41 41.738 0.181 7.6 2.63 11.83
11/3/2020 12:00:00 AM 5.38 41.684 0.181 7.58 2.64 11.85
11/3/2020 12:15:00 AM 5.36 41.648 0.181 7.6 2.81 11.86
11/3/2020 12:30:00 AM 5.35 41.63 0.181 7.6 2.75 11.86
11/3/2020 12:45:00 AM 5.33 41.594 0.181 7.58 3.16 11.87
11/3/2020 1:00:00 AM 5.31 41.558 0.181 7.59 2.72 11.88
11/3/2020 1:15:00 AM 5.29 41.522 0.181 7.59 2.79 11.88
11/3/2020 1:30:00 AM 5.26 41.468 0.181 7.59 2.76 11.88
11/3/2020 1:45:00 AM 5.23 41.414 0.181 7.6 2.84 11.89
11/3/2020 2:00:00 AM 5.2 41.36 0.181 7.58 2.74 11.89
11/3/2020 2:15:00 AM 5.18 41.324 0.181 7.58 2.86 11.9
11/3/2020 2:30:00 AM 5.16 41.288 0.181 7.59 2.85 11.91
11/3/2020 2:45:00 AM 5.14 41.252 0.181 7.6 2.62 11.92
11/3/2020 3:00:00 AM 5.12 41.216 0.181 7.59 2.78 11.92
11/3/2020 3:15:00 AM 5.11 41.198 0.181 7.6 2.6 11.93
11/3/2020 3:30:00 AM 5.09 41.162 0.181 7.6 2.64 11.94
11/3/2020 3:45:00 AM 5.06 41.108 0.18 7.59 2.58 11.95
11/3/2020 4:00:00 AM 5.03 41.054 0.181 7.6 2.67 11.95
11/3/2020 4:15:00 AM 5.02 41.036 0.181 7.6 2.71 11.95
11/3/2020 4:30:00 AM 5 41 0.181 7.59 2.67 11.96
11/3/2020 4:45:00 AM 4.96 40.928 0.181 7.58 2.48 11.98
11/3/2020 5:00:00 AM 4.94 40.892 0.181 7.58 2.55 11.99
11/3/2020 5:15:00 AM 4.93 40.874 0.181 7.59 2.47 12
11/3/2020 5:30:00 AM 4.93 40.874 0.181 7.59 2.4 12.01
11/3/2020 5:45:00 AM 4.93 40.874 0.181 7.59 2.56 12.01
11/3/2020 6:00:00 AM 4.92 40.856 0.181 7.59 2.47 12.01
11/3/2020 6:15:00 AM 4.91 40.838 0.181 7.58 2.52 12.02
11/3/2020 6:30:00 AM 4.89 40.802 0.181 7.58 2.57 12.03
11/3/2020 6:45:00 AM 4.87 40.766 0.181 7.58 2.41 12.05
11/3/2020 7:00:00 AM 4.87 40.766 0.181 7.59 2.43 12.06
11/3/2020 7:15:00 AM 4.87 40.766 0.181 7.61 2.45 12.11
11/3/2020 7:30:00 AM 4.89 40.802 0.181 7.62 2.44 12.16
11/3/2020 7:45:00 AM 4.9 40.82 0.181 7.63 2.46 12.21
11/3/2020 8:00:00 AM 4.92 40.856 0.181 7.63 2.44 12.25
11/3/2020 8:15:00 AM 4.93 40.874 0.181 7.65 2.47 12.28
11/3/2020 8:30:00 AM 4.99 40.982 0.181 7.65 2.37 12.32
11/3/2020 8:45:00 AM 5.06 41.108 0.181 7.66 2.51 12.34
11/3/2020 9:00:00 AM 5.13 41.234 0.181 7.69 2.34 12.36
11/3/2020 9:15:00 AM 5.22 41.396 0.181 7.7 2.32 12.38
11/3/2020 9:30:00 AM 5.32 41.576 0.181 7.69 2.38 12.39
11/3/2020 9:45:00 AM 5.38 41.684 0.181 7.71 2.3 12.39
11/3/2020 10:00:00 AM 5.47 41.846 0.181 7.72 2.32 12.39
11/3/2020 10:15:00 AM 5.62 42.116 0.181 7.73 2.31 12.38
11/3/2020 10:30:00 AM 5.82 42.476 0.18 7.74 2.42 12.37
11/3/2020 10:45:00 AM 6.02 42.836 0.18 7.76 2.28 12.33
11/3/2020 11:00:00 AM 6.27 43.286 0.18 7.75 2.47 12.28
11/3/2020 11:15:00 AM 6.49 43.682 0.18 7.77 2.28 12.23
11/3/2020 11:30:00 AM 6.62 43.916 0.18 7.77 2.3 12.18
11/3/2020 11:45:00 AM 6.79 44.222 0.18 7.77 2.45 12.14
11/3/2020 12:00:00 PM 6.91 44.438 0.18 7.78 2.43 12.1
11/3/2020 12:15:00 PM 7.11 44.798 0.18 7.79 2.28 12.07
11/3/2020 12:30:00 PM 7.29 45.122 0.18 7.8 2.39 12.03
11/3/2020 12:45:00 PM 7.55 45.59 0.179 7.8 2.49 11.98
11/3/2020 1:00:00 PM 7.63 45.734 0.179 7.81 2.41 11.92
11/3/2020 1:15:00 PM 7.77 45.986 0.179 7.81 2.29 11.86
11/3/2020 1:30:00 PM 7.95 46.31 0.179 7.83 2.6 11.84
11/3/2020 1:45:00 PM 8.11 46.598 0.179 7.85 2.38 11.78
11/3/2020 2:00:00 PM 8.19 46.742 0.179 7.83 2.45 11.72
11/3/2020 2:15:00 PM 8.25 46.85 0.179 7.84 2.41 11.66
11/3/2020 2:30:00 PM 8.28 46.904 0.179 7.82 2.44 11.6
11/3/2020 2:45:00 PM 8.31 46.958 0.179 7.81 2.47 11.58
11/3/2020 3:00:00 PM 8.28 46.904 0.179 7.81 2.46 11.55
11/3/2020 3:15:00 PM 8.25 46.85 0.179 7.8 2.35 11.55
11/3/2020 3:30:00 PM 8.21 46.778 0.179 7.79 2.46 11.52
11/3/2020 3:45:00 PM 8.19 46.742 0.179 7.77 2.59 11.5
11/3/2020 4:00:00 PM 8.15 46.67 0.179 7.76 2.57 11.48
11/3/2020 4:15:00 PM 8.11 46.598 0.179 7.75 2.4 11.46
11/3/2020 4:30:00 PM 8.03 46.454 0.179 7.73 2.53 11.43
11/3/2020 4:45:00 PM 7.98 46.364 0.179 7.71 2.7 11.4
11/3/2020 5:00:00 PM 7.9 46.22 0.18 7.7 2.53 11.38
11/3/2020 5:15:00 PM 7.82 46.076 0.18 7.69 2.65 11.35
11/3/2020 5:30:00 PM 7.74 45.932 0.18 7.67 2.65 11.32
11/3/2020 5:45:00 PM 7.65 45.77 0.18 7.65 2.55 11.32
11/3/2020 6:00:00 PM 7.56 45.608 0.18 7.63 2.59 11.32
11/3/2020 6:15:00 PM 7.47 45.446 0.18 7.63 2.93 11.34
11/3/2020 6:30:00 PM 7.39 45.302 0.18 7.61 2.7 11.35
11/3/2020 6:45:00 PM 7.32 45.176 0.18 7.61 2.71 11.36
11/3/2020 7:00:00 PM 7.24 45.032 0.18 7.59 2.53 11.38
11/3/2020 7:15:00 PM 7.17 44.906 0.18 7.59 2.62 11.39
11/3/2020 7:30:00 PM 7.09 44.762 0.18 7.58 2.78 11.41
11/3/2020 7:45:00 PM 7.02 44.636 0.18 7.58 2.55 11.44
11/3/2020 8:00:00 PM 6.95 44.51 0.18 7.58 2.83 11.46
11/3/2020 8:15:00 PM 6.88 44.384 0.18 7.56 2.62 11.47
11/3/2020 8:30:00 PM 6.8 44.24 0.18 7.57 2.65 11.51
11/3/2020 8:45:00 PM 6.74 44.132 0.18 7.57 2.73 11.53
11/3/2020 9:00:00 PM 6.67 44.006 0.18 7.57 2.85 11.55
11/3/2020 9:15:00 PM 6.61 43.898 0.18 7.57 2.67 11.57
11/3/2020 9:30:00 PM 6.54 43.772 0.18 7.57 2.54 11.59
11/3/2020 9:45:00 PM 6.48 43.664 0.18 7.57 2.78 11.61
11/3/2020 10:00:00 PM 6.42 43.556 0.18 7.58 3.33 11.63
11/3/2020 10:15:00 PM 6.36 43.448 0.18 7.56 2.64 11.65
11/3/2020 10:30:00 PM 6.31 43.358 0.18 7.56 2.55 11.66
11/3/2020 10:45:00 PM 6.25 43.25 0.18 7.56 2.62 11.69
11/3/2020 11:00:00 PM 6.2 43.16 0.18 7.56 2.7 11.7
11/3/2020 11:15:00 PM 6.14 43.052 0.18 7.57 2.72 11.72
11/3/2020 11:30:00 PM 6.09 42.962 0.18 7.56 2.57 11.74
11/3/2020 11:45:00 PM 6.04 42.872 0.18 7.56 2.84 11.77
11/4/2020 12:00:00 AM 5.98 42.764 0.18 7.56 2.83 11.78
11/4/2020 12:15:00 AM 5.93 42.674 0.18 7.55 2.85 11.79
11/4/2020 12:30:00 AM 5.88 42.584 0.18 7.55 2.8 11.81
11/4/2020 12:45:00 AM 5.82 42.476 0.18 7.55 2.77 11.83
11/4/2020 1:00:00 AM 5.77 42.386 0.18 7.55 2.73 11.85
11/4/2020 1:15:00 AM 5.73 42.314 0.18 7.56 2.66 11.86
11/4/2020 1:30:00 AM 5.68 42.224 0.18 7.55 2.61 11.88
11/4/2020 1:45:00 AM 5.63 42.134 0.18 7.55 2.65 11.9
11/4/2020 2:00:00 AM 5.59 42.062 0.18 7.55 2.46 11.91
11/4/2020 2:15:00 AM 5.54 41.972 0.18 7.55 2.63 11.93
11/4/2020 2:30:00 AM 5.49 41.882 0.18 7.55 2.6 11.95
11/4/2020 2:45:00 AM 5.44 41.792 0.18 7.55 2.65 11.97
11/4/2020 3:00:00 AM 5.4 41.72 0.18 7.55 2.76 11.98
11/4/2020 3:15:00 AM 5.35 41.63 0.18 7.55 2.6 12
11/4/2020 3:30:00 AM 5.31 41.558 0.179 7.55 2.64 12.03
11/4/2020 3:45:00 AM 5.27 41.486 0.18 7.56 2.59 12.03
11/4/2020 4:00:00 AM 5.23 41.414 0.18 7.55 2.55 12.04
11/4/2020 4:15:00 AM 5.19 41.342 0.18 7.55 2.49 12.06
11/4/2020 4:30:00 AM 5.15 41.27 0.179 7.54 2.54 12.07
11/4/2020 4:45:00 AM 5.11 41.198 0.179 7.55 2.43 12.09
11/4/2020 5:00:00 AM 5.06 41.108 0.179 7.56 2.43 12.11
11/4/2020 5:15:00 AM 5.03 41.054 0.18 7.54 2.36 12.12
11/4/2020 5:30:00 AM 4.98 40.964 0.179 7.55 2.39 12.15
11/4/2020 5:45:00 AM 4.94 40.892 0.179 7.54 2.51 12.16
11/4/2020 6:00:00 AM 4.9 40.82 0.18 7.53 2.49 12.17
11/4/2020 6:15:00 AM 4.87 40.766 0.18 7.53 2.49 12.19
11/4/2020 6:30:00 AM 4.83 40.694 0.18 7.55 2.55 12.21
11/4/2020 6:45:00 AM 4.8 40.64 0.179 7.55 2.45 12.22
11/4/2020 7:00:00 AM 4.76 40.568 0.179 7.54 2.53 12.26
11/4/2020 7:15:00 AM 4.73 40.514 0.179 7.56 2.52 12.3
11/4/2020 7:30:00 AM 4.72 40.496 0.179 7.57 2.42 12.34
11/4/2020 7:45:00 AM 4.69 40.442 0.179 7.56 2.57 12.39
11/4/2020 8:00:00 AM 4.67 40.406 0.179 7.58 2.6 12.44
11/4/2020 8:15:00 AM 4.67 40.406 0.179 7.57 2.45 12.48
11/4/2020 8:30:00 AM 4.69 40.442 0.179 7.58 2.45 12.54
11/4/2020 8:45:00 AM 4.73 40.514 0.179 7.6 2.51 12.58
11/4/2020 9:00:00 AM 4.79 40.622 0.179 7.61 2.4 12.61
11/4/2020 9:15:00 AM 4.87 40.766 0.179 7.63 2.45 12.62
11/4/2020 9:30:00 AM 4.96 40.928 0.178 7.64 2.47 12.63
11/4/2020 9:45:00 AM 5.06 41.108 0.178 7.64 2.35 12.63
11/4/2020 10:00:00 AM 5.18 41.324 0.178 7.66 2.44 12.61
11/4/2020 10:15:00 AM 5.29 41.522 0.178 7.67 2.25 12.62
11/4/2020 10:30:00 AM 5.43 41.774 0.178 7.69 2.35 12.61
11/4/2020 10:45:00 AM 5.58 42.044 0.178 7.68 2.34 12.58
11/4/2020 11:00:00 AM 5.78 42.404 0.178 7.69 2.35 12.54
11/4/2020 11:15:00 AM 6 42.8 0.178 7.71 2.38 12.51
11/4/2020 11:30:00 AM 6.22 43.196 0.177 7.73 2.36 12.45
11/4/2020 11:45:00 AM 6.44 43.592 0.177 7.73 2.27 12.39
11/4/2020 12:00:00 PM 6.67 44.006 0.177 7.75 2.27 12.33
11/4/2020 12:15:00 PM 6.91 44.438 0.177 7.74 2.35 12.26
11/4/2020 12:30:00 PM 7.15 44.87 0.177 7.76 2.26 12.19
11/4/2020 12:45:00 PM 7.41 45.338 0.177 7.76 2.36 12.12
11/4/2020 1:00:00 PM 7.66 45.788 0.177 7.78 2.34 12.04
11/4/2020 1:15:00 PM 7.88 46.184 0.177 7.79 2.42 11.97
11/4/2020 1:30:00 PM 8.1 46.58 0.176 7.79 2.29 11.91
11/4/2020 1:45:00 PM 8.3 46.94 0.176 7.8 2.27 11.83
11/4/2020 2:00:00 PM 8.35 47.03 0.176 7.8 2.39 11.72
11/4/2020 2:15:00 PM 8.44 47.192 0.176 7.8 2.44 11.65
11/4/2020 2:30:00 PM 8.52 47.336 0.176 7.78 2.46 11.59
11/4/2020 2:45:00 PM 8.6 47.48 0.176 7.78 2.47 11.53
11/4/2020 3:00:00 PM 8.69 47.642 0.176 7.76 2.45 11.48
11/4/2020 3:15:00 PM 8.77 47.786 0.176 7.77 2.39 11.43
11/4/2020 3:30:00 PM 8.83 47.894 0.176 7.76 2.59 11.37
11/4/2020 3:45:00 PM 8.88 47.984 0.176 7.75 2.5 11.32
11/4/2020 4:00:00 PM 8.92 48.056 0.176 7.75 2.65 11.29
11/4/2020 4:15:00 PM 8.95 48.11 0.176 7.74 2.54 11.27
11/4/2020 4:30:00 PM 8.95 48.11 0.177 7.73 2.63 11.23
11/4/2020 4:45:00 PM 8.91 48.038 0.177 7.71 2.53 11.21
11/4/2020 5:00:00 PM 8.83 47.894 0.177 7.69 2.74 11.17
11/4/2020 5:15:00 PM 8.74 47.732 0.177 7.66 2.7 11.15
11/4/2020 5:30:00 PM 8.63 47.534 0.177 7.65 2.67 11.13
11/4/2020 5:45:00 PM 8.54 47.372 0.177 7.63 2.55 11.12
11/4/2020 6:00:00 PM 8.46 47.228 0.177 7.62 2.59 11.12
11/4/2020 6:15:00 PM 8.37 47.066 0.177 7.62 2.8 11.13
11/4/2020 6:30:00 PM 8.28 46.904 0.177 7.61 2.63 11.14
11/4/2020 6:45:00 PM 8.19 46.742 0.177 7.6 2.7 11.16
11/4/2020 7:00:00 PM 8.1 46.58 0.177 7.59 2.78 11.18
11/4/2020 7:15:00 PM 8.02 46.436 0.178 7.6 2.71 11.2
11/4/2020 7:30:00 PM 7.93 46.274 0.177 7.58 2.67 11.22
11/4/2020 7:45:00 PM 7.84 46.112 0.178 7.59 2.75 11.24
11/4/2020 8:00:00 PM 7.75 45.95 0.177 7.57 2.69 11.26
11/4/2020 8:15:00 PM 7.67 45.806 0.177 7.58 2.67 11.29
11/4/2020 8:30:00 PM 7.59 45.662 0.177 7.58 2.59 11.31
11/4/2020 8:45:00 PM 7.51 45.518 0.177 7.57 2.56 11.33
11/4/2020 9:00:00 PM 7.43 45.374 0.177 7.57 2.62 11.36
11/4/2020 9:15:00 PM 7.36 45.248 0.177 7.57 2.57 11.38
11/4/2020 9:30:00 PM 7.29 45.122 0.177 7.56 2.66 11.41
11/4/2020 9:45:00 PM 7.23 45.014 0.177 7.56 2.67 11.42
11/4/2020 10:00:00 PM 7.16 44.888 0.177 7.56 2.7 11.44
11/4/2020 10:15:00 PM 7.1 44.78 0.177 7.55 2.66 11.45
11/4/2020 10:30:00 PM 7.04 44.672 0.177 7.56 2.7 11.47
11/4/2020 10:45:00 PM 6.99 44.582 0.177 7.55 2.67 11.48
11/4/2020 11:00:00 PM 6.93 44.474 0.177 7.55 2.65 11.5
11/4/2020 11:15:00 PM 6.88 44.384 0.177 7.54 2.64 11.52
11/4/2020 11:30:00 PM 6.81 44.258 0.177 7.56 2.87 11.54
11/4/2020 11:45:00 PM 6.76 44.168 0.177 7.54 2.73 11.56
11/5/2020 12:00:00 AM 6.7 44.06 0.177 7.55 2.57 11.58
11/5/2020 12:15:00 AM 6.64 43.952 0.177 7.55 2.62 11.6
11/5/2020 12:30:00 AM 6.59 43.862 0.177 7.55 2.6 11.62
11/5/2020 12:45:00 AM 6.53 43.754 0.177 7.54 2.63 11.63
11/5/2020 1:00:00 AM 6.47 43.646 0.177 7.55 2.54 11.65
11/5/2020 1:15:00 AM 6.42 43.556 0.177 7.54 2.62 11.66
11/5/2020 1:30:00 AM 6.37 43.466 0.177 7.54 2.6 11.68
11/5/2020 1:45:00 AM 6.32 43.376 0.177 7.54 2.46 11.7
11/5/2020 2:00:00 AM 6.26 43.268 0.177 7.54 2.55 11.72
11/5/2020 2:15:00 AM 6.21 43.178 0.177 7.54 2.54 11.73
11/5/2020 2:30:00 AM 6.16 43.088 0.177 7.55 2.56 11.75
11/5/2020 2:45:00 AM 6.1 42.98 0.177 7.53 2.54 11.77
11/5/2020 3:00:00 AM 6.05 42.89 0.177 7.54 2.47 11.79
11/5/2020 3:15:00 AM 6.01 42.818 0.177 7.53 2.53 11.8
11/5/2020 3:30:00 AM 5.95 42.71 0.177 7.54 2.72 11.82
11/5/2020 3:45:00 AM 5.9 42.62 0.177 7.53 2.61 11.82
11/5/2020 4:00:00 AM 5.85 42.53 0.177 7.53 2.57 11.86
11/5/2020 4:15:00 AM 5.81 42.458 0.177 7.54 2.53 11.86
11/5/2020 4:30:00 AM 5.76 42.368 0.177 7.54 2.58 11.87
11/5/2020 4:45:00 AM 5.71 42.278 0.177 7.55 2.49 11.9
11/5/2020 5:00:00 AM 5.67 42.206 0.177 7.54 2.49 11.91
11/5/2020 5:15:00 AM 5.63 42.134 0.177 7.53 2.51 11.93
11/5/2020 5:30:00 AM 5.59 42.062 0.177 7.54 2.57 11.94
11/5/2020 5:45:00 AM 5.55 41.99 0.177 7.53 2.49 11.95
11/5/2020 6:00:00 AM 5.51 41.918 0.177 7.55 2.5 11.97
11/5/2020 6:15:00 AM 5.48 41.864 0.177 7.53 2.64 11.98
11/5/2020 6:30:00 AM 5.45 41.81 0.177 7.54 2.48 12
11/5/2020 6:45:00 AM 5.43 41.774 0.177 7.54 2.55 12.01
11/5/2020 7:00:00 AM 5.39 41.702 0.177 7.54 2.55 12.04
11/5/2020 7:15:00 AM 5.37 41.666 0.177 7.54 2.53 12.09
11/5/2020 7:30:00 AM 5.36 41.648 0.177 7.56 2.44 12.16
11/5/2020 7:45:00 AM 5.35 41.63 0.177 7.57 2.35 12.22
11/5/2020 8:00:00 AM 5.36 41.648 0.177 7.6 2.57 12.29
11/5/2020 8:15:00 AM 5.37 41.666 0.177 7.62 2.34 12.34
11/5/2020 8:30:00 AM 5.42 41.756 0.176 7.64 2.39 12.42
11/5/2020 8:45:00 AM 5.51 41.918 0.176 7.64 2.3 12.46
11/5/2020 9:00:00 AM 5.57 42.026 0.176 7.66 2.6 12.49
11/5/2020 9:15:00 AM 5.69 42.242 0.176 7.67 2.33 12.49
11/5/2020 9:30:00 AM 5.81 42.458 0.176 7.69 2.46 12.5
11/5/2020 9:45:00 AM 6 42.8 0.176 7.71 2.26 12.52
11/5/2020 10:00:00 AM 6.12 43.016 0.176 7.75 2.35 12.52
11/5/2020 10:15:00 AM 6.31 43.358 0.175 7.74 2.3 12.51
11/5/2020 10:30:00 AM 6.5 43.7 0.175 7.77 2.27 12.49
11/5/2020 10:45:00 AM 6.73 44.114 0.175 7.78 2.53 12.46
11/5/2020 11:00:00 AM 6.94 44.492 0.175 7.79 2.76 12.42
11/5/2020 11:15:00 AM 7.16 44.888 0.175 7.81 2.73 12.36
11/5/2020 11:30:00 AM 7.4 45.32 0.174 7.82 2.55 12.3
11/5/2020 11:45:00 AM 7.6 45.68 0.174 7.83 2.34 12.24
11/5/2020 12:00:00 PM 7.77 45.986 0.174 7.86 2.39 12.16
11/5/2020 12:15:00 PM 8.03 46.454 0.174 7.84 2.33 12.12
11/5/2020 12:30:00 PM 8.11 46.598 0.174 7.87 2.38 12.05
11/5/2020 12:45:00 PM 8.27 46.886 0.174 7.88 2.35 12.01
11/5/2020 1:00:00 PM 8.51 47.318 0.174 7.89 2.38 11.97
11/5/2020 1:15:00 PM 8.68 47.624 0.174 7.92 2.36 11.92
11/5/2020 1:30:00 PM 8.92 48.056 0.174 7.92 2.44 11.86
11/5/2020 1:45:00 PM 9.08 48.344 0.173 7.92 2.38 11.8
11/5/2020 2:00:00 PM 9.23 48.614 0.174 7.94 2.29 11.74
11/5/2020 2:15:00 PM 9.38 48.884 0.173 7.94 2.41 11.7
11/5/2020 2:30:00 PM 9.53 49.154 0.173 7.95 2.43 11.65
11/5/2020 2:45:00 PM 9.64 49.352 0.173 7.96 2.51 11.61
11/5/2020 3:00:00 PM 9.71 49.478 0.173 7.96 2.53 11.56
11/5/2020 3:15:00 PM 9.76 49.568 0.173 7.96 2.68 11.5
11/5/2020 3:30:00 PM 9.77 49.586 0.173 7.94 2.52 11.43
11/5/2020 3:45:00 PM 9.75 49.55 0.173 7.9 2.51 11.35
11/5/2020 4:00:00 PM 9.72 49.496 0.173 7.86 2.59 11.29
11/5/2020 4:15:00 PM 9.69 49.442 0.174 7.83 3.02 11.24
11/5/2020 4:30:00 PM 9.63 49.334 0.174 7.8 2.65 11.18
11/5/2020 4:45:00 PM 9.56 49.208 0.174 7.78 2.45 11.12
11/5/2020 5:00:00 PM 9.46 49.028 0.174 7.74 2.64 11.06
11/5/2020 5:15:00 PM 9.36 48.848 0.174 7.71 2.58 11.02
11/5/2020 5:30:00 PM 9.25 48.65 0.175 7.68 2.57 10.99
11/5/2020 5:45:00 PM 9.15 48.47 0.175 7.66 2.73 10.96
11/5/2020 6:00:00 PM 9.05 48.29 0.175 7.64 2.59 10.95
11/5/2020 6:15:00 PM 8.95 48.11 0.175 7.63 2.74 10.95
11/5/2020 6:30:00 PM 8.84 47.912 0.175 7.62 2.71 10.97
11/5/2020 6:45:00 PM 8.75 47.75 0.175 7.6 3.11 10.99
11/5/2020 7:00:00 PM 8.65 47.57 0.175 7.59 3.15 11.01
11/5/2020 7:15:00 PM 8.57 47.426 0.175 7.58 2.79 11.03
11/5/2020 7:30:00 PM 8.49 47.282 0.175 7.59 2.99 11.04
11/5/2020 7:45:00 PM 8.42 47.156 0.175 7.58 2.95 11.06
11/5/2020 8:00:00 PM 8.35 47.03 0.175 7.58 3.02 11.08
11/5/2020 8:15:00 PM 8.28 46.904 0.175 7.56 2.77 11.1
11/5/2020 8:30:00 PM 8.21 46.778 0.175 7.44 2.72 11.12
11/5/2020 8:45:00 PM 8.15 46.67 0.175 7.57 2.62 11.13
11/5/2020 9:00:00 PM 8.09 46.562 0.175 7.56 2.89 11.15
11/5/2020 9:15:00 PM 8.03 46.454 0.175 7.55 2.79 11.17
11/5/2020 9:30:00 PM 7.98 46.364 0.175 7.55 2.82 11.16
11/5/2020 9:45:00 PM 7.94 46.292 0.175 7.56 2.61 11.2
11/5/2020 10:00:00 PM 7.9 46.22 0.175 7.54 2.61 11.22
11/5/2020 10:15:00 PM 7.87 46.166 0.175 7.55 2.82 11.22
11/5/2020 10:30:00 PM 7.85 46.13 0.175 7.54 2.59 11.22
11/5/2020 10:45:00 PM 7.83 46.094 0.175 7.54 2.68 11.24
11/5/2020 11:00:00 PM 7.81 46.058 0.175 7.54 2.58 11.24
11/5/2020 11:15:00 PM 7.8 46.04 0.175 7.55 2.68 11.25
11/5/2020 11:30:00 PM 7.78 46.004 0.175 7.54 2.6 11.25
11/5/2020 11:45:00 PM 7.78 46.004 0.175 7.54 2.62 11.26
11/6/2020 12:00:00 AM 7.77 45.986 0.175 7.54 2.68 11.25
11/6/2020 12:15:00 AM 7.75 45.95 0.175 7.54 2.91 11.26
11/6/2020 12:30:00 AM 7.73 45.914 0.175 7.54 2.75 11.26
11/6/2020 12:45:00 AM 7.7 45.86 0.175 7.54 2.5 11.27
11/6/2020 1:00:00 AM 7.67 45.806 0.175 7.54 2.52 11.27
11/6/2020 1:15:00 AM 7.65 45.77 0.175 7.53 2.63 11.28
11/6/2020 1:30:00 AM 7.62 45.716 0.175 7.54 2.71 11.29
11/6/2020 1:45:00 AM 7.61 45.698 0.175 7.53 2.56 11.3
11/6/2020 2:00:00 AM 7.59 45.662 0.175 7.52 2.77 11.3
11/6/2020 2:15:00 AM 7.57 45.626 0.175 7.53 2.73 11.31
11/6/2020 2:30:00 AM 7.56 45.608 0.175 7.54 2.63 11.31
11/6/2020 2:45:00 AM 7.55 45.59 0.175 7.54 2.73 11.32
11/6/2020 3:00:00 AM 7.53 45.554 0.175 7.53 2.59 11.33
11/6/2020 3:15:00 AM 7.5 45.5 0.175 7.53 2.64 11.32
11/6/2020 3:30:00 AM 7.45 45.41 0.175 7.52 2.54 11.34
11/6/2020 3:45:00 AM 7.39 45.302 0.175 7.52 2.65 11.36
11/6/2020 4:00:00 AM 7.34 45.212 0.175 7.52 2.62 11.36
11/6/2020 4:15:00 AM 7.27 45.086 0.175 7.52 2.72 11.38
11/6/2020 4:30:00 AM 7.21 44.978 0.175 7.52 2.66 11.39
11/6/2020 4:45:00 AM 7.14 44.852 0.175 7.53 2.56 11.41
11/6/2020 5:00:00 AM 7.07 44.726 0.175 7.51 2.6 11.43
11/6/2020 5:15:00 AM 7 44.6 0.175 7.53 2.49 11.44
11/6/2020 5:30:00 AM 6.93 44.474 0.175 7.52 2.58 11.47
11/6/2020 5:45:00 AM 6.86 44.348 0.175 7.51 2.63 11.5
11/6/2020 6:00:00 AM 6.79 44.222 0.175 7.41 2.58 11.52
11/6/2020 6:15:00 AM 6.73 44.114 0.175 7.51 2.53 11.55
11/6/2020 6:30:00 AM 6.66 43.988 0.175 7.52 2.51 11.57
11/6/2020 6:45:00 AM 6.6 43.88 0.175 7.51 2.54 11.59
11/6/2020 7:00:00 AM 6.54 43.772 0.175 7.52 2.54 11.62
11/6/2020 7:15:00 AM 6.49 43.682 0.175 7.53 2.57 11.67
11/6/2020 7:30:00 AM 6.44 43.592 0.175 7.55 2.47 11.75
11/6/2020 7:45:00 AM 6.4 43.52 0.175 7.55 2.48 11.82
11/6/2020 8:00:00 AM 6.36 43.448 0.175 7.57 2.56 11.9
11/6/2020 8:15:00 AM 6.34 43.412 0.175 7.6 2.47 11.96
11/6/2020 8:30:00 AM 6.34 43.412 0.174 7.6 2.54 12.03
11/6/2020 8:45:00 AM 6.37 43.466 0.174 7.63 2.46 12.1
11/6/2020 9:00:00 AM 6.42 43.556 0.174 7.63 2.48 12.16
11/6/2020 9:15:00 AM 6.5 43.7 0.174 7.66 2.48 12.2
11/6/2020 9:30:00 AM 6.59 43.862 0.174 7.67 2.55 12.23
11/6/2020 9:45:00 AM 6.7 44.06 0.174 7.71 2.44 12.24
11/6/2020 10:00:00 AM 6.82 44.276 0.174 7.72 2.29 12.24
11/6/2020 10:15:00 AM 6.95 44.51 0.173 7.73 2.45 12.24
11/6/2020 10:30:00 AM 7.09 44.762 0.173 7.73 2.53 12.24
11/6/2020 10:45:00 AM 7.24 45.032 0.173 7.76 2.42 12.23
11/6/2020 11:00:00 AM 7.41 45.338 0.173 7.77 2.35 12.22
11/6/2020 11:15:00 AM 7.6 45.68 0.173 7.79 2.45 12.19
11/6/2020 11:30:00 AM 7.81 46.058 0.172 7.81 2.46 12.15
11/6/2020 11:45:00 AM 8.03 46.454 0.172 7.82 2.37 12.11
11/6/2020 12:00:00 PM 8.26 46.868 0.172 7.83 2.47 12.05
11/6/2020 12:15:00 PM 8.49 47.282 0.172 7.86 2.37 11.99
11/6/2020 12:30:00 PM 8.7 47.66 0.172 7.85 2.44 11.95
11/6/2020 12:45:00 PM 8.92 48.056 0.172 7.88 2.32 11.88
11/6/2020 1:00:00 PM 9.16 48.488 0.172 7.87 2.52 11.81
11/6/2020 1:15:00 PM 9.37 48.866 0.172 7.91 2.44 11.75
11/6/2020 1:30:00 PM 9.58 49.244 0.172 7.91 2.4 11.68
11/6/2020 1:45:00 PM 9.73 49.514 0.172 7.91 2.58 11.6
11/6/2020 2:00:00 PM 9.77 49.586 0.172 7.92 2.47 11.49
11/6/2020 2:15:00 PM 9.85 49.73 0.172 7.91 2.76 11.41
11/6/2020 2:30:00 PM 9.92 49.856 0.172 7.89 2.57 11.34
11/6/2020 2:45:00 PM 9.99 49.982 0.172 7.87 2.58 11.26
11/6/2020 3:00:00 PM 10.06 50.108 0.172 7.86 2.68 11.21
11/6/2020 3:15:00 PM 10.13 50.234 0.172 7.85 2.85 11.14
11/6/2020 3:30:00 PM 10.19 50.342 0.172 7.83 2.52 11.08
11/6/2020 3:45:00 PM 10.23 50.414 0.172 7.81 2.55 11.03
11/6/2020 4:00:00 PM 10.26 50.468 0.172 7.81 2.67 10.97
11/6/2020 4:15:00 PM 10.3 50.54 0.172 7.78 2.57 10.93
11/6/2020 4:30:00 PM 10.31 50.558 0.172 7.77 2.6 10.89
11/6/2020 4:45:00 PM 10.29 50.522 0.172 7.74 2.71 10.83
11/6/2020 5:00:00 PM 10.24 50.432 0.172 7.72 2.71 10.78
11/6/2020 5:15:00 PM 10.16 50.288 0.172 7.69 2.84 10.73
11/6/2020 5:30:00 PM 10.07 50.126 0.173 7.66 2.78 10.7
11/6/2020 5:45:00 PM 9.96 49.928 0.173 7.64 2.78 10.68
11/6/2020 6:00:00 PM 9.86 49.748 0.173 7.62 2.85 10.68
11/6/2020 6:15:00 PM 9.75 49.55 0.173 7.62 2.79 10.69
11/6/2020 6:30:00 PM 9.65 49.37 0.173 7.6 2.7 10.69
11/6/2020 6:45:00 PM 9.54 49.172 0.173 7.59 2.97 10.71
11/6/2020 7:00:00 PM 9.44 48.992 0.174 7.58 3.32 10.74
11/6/2020 7:15:00 PM 9.34 48.812 0.174 7.58 3.3 10.77
11/6/2020 7:30:00 PM 9.24 48.632 0.174 7.57 3 10.78
11/6/2020 7:45:00 PM 9.14 48.452 0.174 7.57 2.75 10.82
11/6/2020 8:00:00 PM 9.04 48.272 0.174 7.57 3.07 10.83
11/6/2020 8:15:00 PM 8.94 48.092 0.174 7.57 2.95 10.86
11/6/2020 8:30:00 PM 8.85 47.93 0.174 7.56 2.71 10.89
11/6/2020 8:45:00 PM 8.76 47.768 0.174 7.57 2.66 10.93
11/6/2020 9:00:00 PM 8.66 47.588 0.174 7.56 2.74 10.96
11/6/2020 9:15:00 PM 8.57 47.426 0.174 7.55 2.9 10.98
11/6/2020 9:30:00 PM 8.48 47.264 0.174 7.55 2.65 10.99
11/6/2020 9:45:00 PM 8.4 47.12 0.174 7.55 2.89 11.02
11/6/2020 10:00:00 PM 8.32 46.976 0.174 7.56 2.78 11.05
11/6/2020 10:15:00 PM 8.24 46.832 0.174 7.55 2.71 11.07
11/6/2020 10:30:00 PM 8.15 46.67 0.173 7.55 2.73 11.1
11/6/2020 10:45:00 PM 8.08 46.544 0.174 7.54 2.56 11.12
11/6/2020 11:00:00 PM 8.01 46.418 0.174 7.55 2.66 11.13
11/6/2020 11:15:00 PM 7.94 46.292 0.173 7.56 2.51 11.16
11/6/2020 11:30:00 PM 7.86 46.148 0.173 7.55 2.64 11.18
11/6/2020 11:45:00 PM 7.79 46.022 0.173 7.53 2.51 11.2
11/7/2020 12:00:00 AM 7.72 45.896 0.173 7.55 2.59 11.21
11/7/2020 12:15:00 AM 7.66 45.788 0.173 7.55 2.44 11.24
11/7/2020 12:30:00 AM 7.59 45.662 0.173 7.54 2.62 11.25
11/7/2020 12:45:00 AM 7.53 45.554 0.173 7.54 2.53 11.29
11/7/2020 1:00:00 AM 7.46 45.428 0.173 7.54 2.41 11.3
11/7/2020 1:15:00 AM 7.4 45.32 0.173 7.55 2.53 11.32
11/7/2020 1:30:00 AM 7.34 45.212 0.173 7.54 2.61 11.34
11/7/2020 1:45:00 AM 7.27 45.086 0.173 7.53 2.67 11.35
11/7/2020 2:00:00 AM 7.21 44.978 0.173 7.54 2.5 11.37
11/7/2020 2:15:00 AM 7.16 44.888 0.173 7.53 2.57 11.39
11/7/2020 2:30:00 AM 7.1 44.78 0.173 7.55 2.63 11.42
11/7/2020 2:45:00 AM 7.04 44.672 0.173 7.53 2.57 11.43
11/7/2020 3:00:00 AM 6.99 44.582 0.173 7.53 2.6 11.45
11/7/2020 3:15:00 AM 6.93 44.474 0.173 7.54 2.48 11.46
11/7/2020 3:30:00 AM 6.87 44.366 0.173 7.53 2.46 11.49
11/7/2020 3:45:00 AM 6.82 44.276 0.173 7.53 2.44 11.5
11/7/2020 4:00:00 AM 6.76 44.168 0.173 7.52 2.67 11.52
11/7/2020 4:15:00 AM 6.7 44.06 0.173 7.53 2.45 11.54
11/7/2020 4:30:00 AM 6.64 43.952 0.173 7.53 2.47 11.56
11/7/2020 4:45:00 AM 6.59 43.862 0.173 7.54 2.34 11.58
11/7/2020 5:00:00 AM 6.53 43.754 0.173 7.54 2.58 11.59
11/7/2020 5:15:00 AM 6.48 43.664 0.174 7.53 2.57 11.6
11/7/2020 5:30:00 AM 6.42 43.556 0.173 7.53 2.48 11.62
11/7/2020 5:45:00 AM 6.38 43.484 0.174 7.53 2.6 11.64
11/7/2020 6:00:00 AM 6.32 43.376 0.174 7.54 2.55 11.63
11/7/2020 6:15:00 AM 6.27 43.286 0.173 7.54 2.46 11.68
11/7/2020 6:30:00 AM 6.22 43.196 0.173 7.54 2.57 11.69
11/7/2020 6:45:00 AM 6.17 43.106 0.173 7.53 2.45 11.71
11/7/2020 7:00:00 AM 6.12 43.016 0.174 7.53 2.37 11.74
11/7/2020 7:15:00 AM 6.09 42.962 0.173 7.54 2.5 11.78
11/7/2020 7:30:00 AM 6.05 42.89 0.173 7.57 2.46 11.88
11/7/2020 7:45:00 AM 6.04 42.872 0.173 7.58 2.43 11.97
11/7/2020 8:00:00 AM 6.03 42.854 0.173 7.6 2.55 12.05
11/7/2020 8:15:00 AM 6.04 42.872 0.173 7.62 2.39 12.13
11/7/2020 8:30:00 AM 6.05 42.89 0.173 7.65 2.36 12.22
11/7/2020 8:45:00 AM 6.1 42.98 0.173 7.66 2.47 12.28
11/7/2020 9:00:00 AM 6.14 43.052 0.172 7.68 2.36 12.32
11/7/2020 9:15:00 AM 6.17 43.106 0.172 7.69 2.45 12.32
11/7/2020 9:30:00 AM 6.28 43.304 0.172 7.71 2.53 12.36
11/7/2020 9:45:00 AM 6.39 43.502 0.172 7.73 2.47 12.37
11/7/2020 10:00:00 AM 6.53 43.754 0.172 7.74 2.42 12.32
11/7/2020 10:15:00 AM 6.67 44.006 0.172 7.76 2.45 12.38
11/7/2020 10:30:00 AM 6.83 44.294 0.172 7.77 2.3 12.38
11/7/2020 10:45:00 AM 6.98 44.564 0.172 7.79 2.4 12.36
11/7/2020 11:00:00 AM 7.14 44.852 0.171 7.81 2.39 12.33
11/7/2020 11:15:00 AM 7.32 45.176 0.171 7.82 2.52 12.31
11/7/2020 11:30:00 AM 7.49 45.482 0.171 7.83 2.48 12.28
11/7/2020 11:45:00 AM 7.68 45.824 0.171 7.85 2.35 12.24
11/7/2020 12:00:00 PM 7.88 46.184 0.171 7.86 2.35 12.2
11/7/2020 12:15:00 PM 8.07 46.526 0.17 7.87 2.68 12.16
11/7/2020 12:30:00 PM 8.27 46.886 0.17 7.89 2.46 12.1
11/7/2020 12:45:00 PM 8.47 47.246 0.17 7.91 2.36 12.04
11/7/2020 1:00:00 PM 8.7 47.66 0.17 7.92 2.32 11.98
11/7/2020 1:15:00 PM 8.9 48.02 0.17 7.94 2.42 11.91
11/7/2020 1:30:00 PM 9.13 48.434 0.17 7.96 2.43 11.81
11/7/2020 1:45:00 PM 9.26 48.668 0.17 7.95 2.46 11.76
11/7/2020 2:00:00 PM 9.33 48.794 0.17 7.95 2.5 11.64
11/7/2020 2:15:00 PM 9.44 48.992 0.17 7.94 2.49 11.47
11/7/2020 2:30:00 PM 9.55 49.19 0.17 7.93 2.53 11.44
11/7/2020 2:45:00 PM 9.67 49.406 0.17 7.91 2.41 11.39
11/7/2020 3:00:00 PM 9.8 49.64 0.17 7.92 2.62 11.34
11/7/2020 3:15:00 PM 9.91 49.838 0.17 7.91 2.51 11.33
11/7/2020 3:30:00 PM 10.02 50.036 0.17 7.92 2.47 11.26
11/7/2020 3:45:00 PM 10.1 50.18 0.17 7.92 2.6 11.22
11/7/2020 4:00:00 PM 10.19 50.342 0.17 7.91 2.62 11.2
11/7/2020 4:15:00 PM 10.28 50.504 0.17 7.9 2.58 10.93
11/7/2020 4:30:00 PM 10.35 50.63 0.17 7.87 2.65 11
11/7/2020 4:45:00 PM 10.39 50.702 0.17 7.84 2.5 10.96
11/7/2020 5:00:00 PM 10.37 50.666 0.17 7.8 2.58 10.76
11/7/2020 5:15:00 PM 10.32 50.576 0.17 7.74 2.64 10.68
11/7/2020 5:30:00 PM 10.24 50.432 0.171 7.71 2.71 10.7
11/7/2020 5:45:00 PM 10.14 50.252 0.171 7.68 2.92 10.67
11/7/2020 6:00:00 PM 10.03 50.054 0.171 7.65 2.77 10.64
11/7/2020 6:15:00 PM 9.92 49.856 0.172 7.63 2.71 10.63
11/7/2020 6:30:00 PM 9.81 49.658 0.172 7.62 2.83 10.63
11/7/2020 6:45:00 PM 9.7 49.46 0.172 7.61 2.65 10.63
11/7/2020 7:00:00 PM 9.58 49.244 0.172 7.59 2.61 10.69
11/7/2020 7:15:00 PM 9.47 49.046 0.172 7.58 2.69 10.72
11/7/2020 7:30:00 PM 9.36 48.848 0.172 7.58 2.64 10.74
11/7/2020 7:45:00 PM 9.26 48.668 0.172 7.57 2.64 10.77
11/7/2020 8:00:00 PM 9.15 48.47 0.172 7.56 2.6 10.81
11/7/2020 8:15:00 PM 9.05 48.29 0.172 7.56 2.57 10.83
11/7/2020 8:30:00 PM 8.95 48.11 0.172 7.56 2.69 10.84
11/7/2020 8:45:00 PM 8.85 47.93 0.172 7.56 2.63 10.89
11/7/2020 9:00:00 PM 8.75 47.75 0.172 7.56 2.67 10.9
11/7/2020 9:15:00 PM 8.65 47.57 0.172 7.56 2.56 10.94
11/7/2020 9:30:00 PM 8.55 47.39 0.172 7.55 4.06 10.95
11/7/2020 9:45:00 PM 8.45 47.21 0.172 7.55 2.96 10.98
11/7/2020 10:00:00 PM 8.36 47.048 0.172 7.55 2.57 10.99
11/7/2020 10:15:00 PM 8.26 46.868 0.172 7.55 2.67 11.06
11/7/2020 10:30:00 PM 8.18 46.724 0.172 7.55 2.46 11.07
11/7/2020 10:45:00 PM 8.08 46.544 0.172 7.54 2.49 11.09
11/7/2020 11:00:00 PM 7.99 46.382 0.172 7.55 2.61 11.13
11/7/2020 11:15:00 PM 7.91 46.238 0.172 7.54 2.56 11.16
11/7/2020 11:30:00 PM 7.83 46.094 0.172 7.54 2.61 11.18
11/7/2020 11:45:00 PM 7.75 45.95 0.172 7.55 2.63 11.21
11/8/2020 12:00:00 AM 7.67 45.806 0.172 7.53 2.55 11.23
11/8/2020 12:15:00 AM 7.59 45.662 0.172 7.54 2.66 11.26
11/8/2020 12:30:00 AM 7.52 45.536 0.172 7.54 2.56 11.28
11/8/2020 12:45:00 AM 7.45 45.41 0.172 7.53 2.69 11.29
11/8/2020 1:00:00 AM 7.38 45.284 0.172 7.53 2.51 11.31
11/8/2020 1:15:00 AM 7.31 45.158 0.172 7.53 2.58 11.33
11/8/2020 1:30:00 AM 7.24 45.032 0.172 7.53 2.49 11.35
11/8/2020 1:45:00 AM 7.17 44.906 0.172 7.53 2.63 11.37
11/8/2020 2:00:00 AM 7.1 44.78 0.172 7.54 2.45 11.4
11/8/2020 2:15:00 AM 7.03 44.654 0.172 7.53 2.54 11.42
11/8/2020 2:30:00 AM 6.97 44.546 0.172 7.55 2.61 11.43
11/8/2020 2:45:00 AM 6.9 44.42 0.172 7.53 2.51 11.46
11/8/2020 3:00:00 AM 6.84 44.312 0.172 7.53 2.54 11.49
11/8/2020 3:15:00 AM 6.77 44.186 0.172 7.53 2.39 11.52
11/8/2020 3:30:00 AM 6.71 44.078 0.172 7.53 2.57 11.54
11/8/2020 3:45:00 AM 6.65 43.97 0.172 7.52 2.62 11.56
11/8/2020 4:00:00 AM 6.58 43.844 0.172 7.52 3.04 11.58
11/8/2020 4:15:00 AM 6.52 43.736 0.172 7.52 2.75 11.6
11/8/2020 4:30:00 AM 6.46 43.628 0.172 7.53 2.37 11.61
11/8/2020 4:45:00 AM 6.4 43.52 0.172 7.54 2.6 11.63
11/8/2020 5:00:00 AM 6.34 43.412 0.172 7.54 2.49 11.65
11/8/2020 5:15:00 AM 6.28 43.304 0.172 7.54 2.53 11.67
11/8/2020 5:30:00 AM 6.22 43.196 0.172 7.54 2.63 11.69
11/8/2020 5:45:00 AM 6.16 43.088 0.172 7.53 2.59 11.73
11/8/2020 6:00:00 AM 6.11 42.998 0.172 7.52 2.41 11.75
11/8/2020 6:15:00 AM 6.06 42.908 0.172 7.54 2.67 11.77
11/8/2020 6:30:00 AM 6 42.8 0.172 7.54 2.6 11.79
11/8/2020 6:45:00 AM 5.95 42.71 0.172 7.53 2.46 11.81
11/8/2020 7:00:00 AM 5.9 42.62 0.172 7.53 2.5 11.84
11/8/2020 7:15:00 AM 5.86 42.548 0.172 7.54 2.49 11.89
11/8/2020 7:30:00 AM 5.83 42.494 0.172 7.57 2.58 11.96
11/8/2020 7:45:00 AM 5.8 42.44 0.172 7.57 2.61 12.04
11/8/2020 8:00:00 AM 5.77 42.386 0.172 7.58 2.54 12.12
11/8/2020 8:15:00 AM 5.76 42.368 0.172 7.6 2.44 12.19
11/8/2020 8:30:00 AM 5.74 42.332 0.172 7.62 2.48 12.26
11/8/2020 8:45:00 AM 5.79 42.422 0.171 7.63 2.45 12.34
11/8/2020 9:00:00 AM 5.84 42.512 0.171 7.67 2.58 12.42
11/8/2020 9:15:00 AM 5.92 42.656 0.171 7.69 2.43 12.47
11/8/2020 9:30:00 AM 6.01 42.818 0.171 7.71 2.54 12.51
11/8/2020 9:45:00 AM 6.12 43.016 0.171 7.72 2.5 12.52
11/8/2020 10:00:00 AM 6.24 43.232 0.171 7.73 2.48 12.53
11/8/2020 10:15:00 AM 6.39 43.502 0.171 7.76 2.51 12.53
11/8/2020 10:30:00 AM 6.56 43.808 0.171 7.78 2.48 12.53
11/8/2020 10:45:00 AM 6.69 44.042 0.17 7.79 2.46 12.53
11/8/2020 11:00:00 AM 6.86 44.348 0.17 7.8 2.4 12.5
11/8/2020 11:15:00 AM 7.04 44.672 0.17 7.81 2.39 12.48
11/8/2020 11:30:00 AM 7.22 44.996 0.17 7.83 2.38 12.45
11/8/2020 11:45:00 AM 7.41 45.338 0.17 7.85 2.51 12.42
11/8/2020 12:00:00 PM 7.6 45.68 0.169 7.87 2.37 12.37
11/8/2020 12:15:00 PM 7.8 46.04 0.169 7.89 2.4 12.33
11/8/2020 12:30:00 PM 7.99 46.382 0.169 7.89 2.46 12.28
11/8/2020 12:45:00 PM 8.21 46.778 0.169 7.92 2.38 12.22
11/8/2020 1:00:00 PM 8.43 47.174 0.169 7.95 2.31 12.16
11/8/2020 1:15:00 PM 8.63 47.534 0.169 7.95 2.43 12.1
11/8/2020 1:30:00 PM 8.85 47.93 0.168 7.96 2.35 12.02
11/8/2020 1:45:00 PM 8.95 48.11 0.168 7.96 2.54 11.94
11/8/2020 2:00:00 PM 9.02 48.236 0.168 7.95 2.43 11.81
11/8/2020 2:15:00 PM 9.13 48.434 0.168 7.94 2.55 11.72
11/8/2020 2:30:00 PM 9.23 48.614 0.168 7.93 2.48 11.63
11/8/2020 2:45:00 PM 9.35 48.83 0.168 7.92 2.61 11.55
11/8/2020 3:00:00 PM 9.46 49.028 0.168 7.89 2.48 11.47
11/8/2020 3:15:00 PM 9.57 49.226 0.168 7.88 2.51 11.4
11/8/2020 3:30:00 PM 9.67 49.406 0.168 7.86 2.53 11.32
11/8/2020 3:45:00 PM 9.75 49.55 0.168 7.84 2.67 11.25
11/8/2020 4:00:00 PM 9.82 49.676 0.168 7.82 2.65 11.2
11/8/2020 4:15:00 PM 9.89 49.802 0.168 7.8 2.65 11.14
11/8/2020 4:30:00 PM 9.95 49.91 0.169 7.78 2.68 11.08
11/8/2020 4:45:00 PM 9.98 49.964 0.169 7.76 2.6 11.01
11/8/2020 5:00:00 PM 9.97 49.946 0.169 7.73 2.52 10.93
11/8/2020 5:15:00 PM 9.94 49.892 0.169 7.7 2.65 10.85
11/8/2020 5:30:00 PM 9.87 49.766 0.17 7.68 2.62 10.5
11/8/2020 5:45:00 PM 9.8 49.64 0.17 7.65 2.78 10.71
11/8/2020 6:00:00 PM 9.71 49.478 0.17 7.63 2.77 10.74
11/8/2020 6:15:00 PM 9.61 49.298 0.17 7.62 2.68 10.74
11/8/2020 6:30:00 PM 9.52 49.136 0.17 7.61 2.58 10.75
11/8/2020 6:45:00 PM 9.41 48.938 0.17 7.61 2.68 10.77
11/8/2020 7:00:00 PM 9.31 48.758 0.171 7.58 2.67 10.79
11/8/2020 7:15:00 PM 9.21 48.578 0.171 7.57 2.66 10.8
11/8/2020 7:30:00 PM 9.11 48.398 0.171 7.58 2.61 10.83
11/8/2020 7:45:00 PM 9.01 48.218 0.171 7.58 2.64 10.85
11/8/2020 8:00:00 PM 8.91 48.038 0.171 7.58 2.59 10.89
11/8/2020 8:15:00 PM 8.81 47.858 0.171 7.56 2.69 10.92
11/8/2020 8:30:00 PM 8.72 47.696 0.171 7.56 2.72 10.95
11/8/2020 8:45:00 PM 8.62 47.516 0.171 7.56 2.49 10.96
11/8/2020 9:00:00 PM 8.53 47.354 0.171 7.56 2.54 10.99
11/8/2020 9:15:00 PM 8.44 47.192 0.171 7.55 2.63 11.02
11/8/2020 9:30:00 PM 8.35 47.03 0.171 7.55 2.61 11.04
11/8/2020 9:45:00 PM 8.26 46.868 0.171 7.55 2.54 11.07
11/8/2020 10:00:00 PM 8.16 46.688 0.171 7.54 2.55 11.1
11/8/2020 10:15:00 PM 8.08 46.544 0.171 7.55 2.68 11.13
11/8/2020 10:30:00 PM 7.99 46.382 0.171 7.54 2.59 11.16
11/8/2020 10:45:00 PM 7.91 46.238 0.171 7.54 2.57 11.18
11/8/2020 11:00:00 PM 7.83 46.094 0.171 7.54 2.63 11.2
11/8/2020 11:15:00 PM 7.75 45.95 0.171 7.55 2.63 11.22
11/8/2020 11:30:00 PM 7.68 45.824 0.171 7.54 2.57 11.25
11/8/2020 11:45:00 PM 7.61 45.698 0.171 7.55 2.65 11.27
11/9/2020 12:00:00 AM 7.53 45.554 0.171 7.54 2.58 11.3
11/9/2020 12:15:00 AM 7.47 45.446 0.171 7.54 2.57 11.32
11/9/2020 12:30:00 AM 7.4 45.32 0.171 7.53 2.71 11.34
11/9/2020 12:45:00 AM 7.33 45.194 0.171 7.52 2.63 11.36
11/9/2020 1:00:00 AM 7.27 45.086 0.171 7.54 2.8 11.37
11/9/2020 1:15:00 AM 7.21 44.978 0.171 7.53 2.71 11.39
11/9/2020 1:30:00 AM 7.15 44.87 0.171 7.53 2.63 11.41
11/9/2020 1:45:00 AM 7.08 44.744 0.171 7.54 2.59 11.42
11/9/2020 2:00:00 AM 7.02 44.636 0.171 7.54 2.64 11.44
11/9/2020 2:15:00 AM 6.97 44.546 0.171 7.53 2.63 11.46
11/9/2020 2:30:00 AM 6.9 44.42 0.171 7.54 2.67 11.49
11/9/2020 2:45:00 AM 6.85 44.33 0.171 7.54 2.58 11.51
11/9/2020 3:00:00 AM 6.79 44.222 0.171 7.53 2.57 11.53
11/9/2020 3:15:00 AM 6.74 44.132 0.171 7.53 2.58 11.55
11/9/2020 3:30:00 AM 6.68 44.024 0.171 7.53 2.58 11.56
11/9/2020 3:45:00 AM 6.62 43.916 0.171 7.52 2.57 11.57
11/9/2020 4:00:00 AM 6.57 43.826 0.171 7.53 2.62 11.59
11/9/2020 4:15:00 AM 6.51 43.718 0.171 7.51 2.88 11.6
11/9/2020 4:30:00 AM 6.46 43.628 0.171 7.5 2.66 11.61
11/9/2020 4:45:00 AM 6.4 43.52 0.171 7.52 2.51 11.62
11/9/2020 5:00:00 AM 6.35 43.43 0.171 7.53 2.68 11.66
11/9/2020 5:15:00 AM 6.29 43.322 0.171 7.53 2.57 11.68
11/9/2020 5:30:00 AM 6.24 43.232 0.171 7.53 2.57 11.7
11/9/2020 5:45:00 AM 6.18 43.124 0.171 7.55 2.7 11.72
11/9/2020 6:00:00 AM 6.13 43.034 0.171 7.52 2.9 11.74
11/9/2020 6:15:00 AM 6.08 42.944 0.171 7.53 2.59 11.76
11/9/2020 6:30:00 AM 6.02 42.836 0.171 7.53 2.63 11.77
11/9/2020 6:45:00 AM 5.97 42.746 0.171 7.53 2.73 11.79
11/9/2020 7:00:00 AM 5.92 42.656 0.171 7.52 2.6 11.81
11/9/2020 7:15:00 AM 5.88 42.584 0.171 7.54 2.58 11.86
11/9/2020 7:30:00 AM 5.84 42.512 0.171 7.56 2.53 11.93
11/9/2020 7:45:00 AM 5.81 42.458 0.171 7.57 2.53 12.01
11/9/2020 8:00:00 AM 5.78 42.404 0.171 7.58 2.56 12.08
11/9/2020 8:15:00 AM 5.76 42.368 0.171 7.59 2.47 12.16
11/9/2020 8:30:00 AM 5.74 42.332 0.171 7.6 2.61 12.24
11/9/2020 8:45:00 AM 5.77 42.386 0.17 7.63 2.47 12.3
11/9/2020 9:00:00 AM 5.85 42.53 0.17 7.66 2.48 12.4
11/9/2020 9:15:00 AM 5.92 42.656 0.17 7.68 2.41 12.46
11/9/2020 9:30:00 AM 6.02 42.836 0.17 7.71 2.33 12.5
11/9/2020 9:45:00 AM 6.13 43.034 0.17 7.73 2.46 12.52
11/9/2020 10:00:00 AM 6.26 43.268 0.17 7.74 2.48 12.51
11/9/2020 10:15:00 AM 6.42 43.556 0.169 7.78 2.4 12.51
11/9/2020 10:30:00 AM 6.59 43.862 0.169 7.79 2.47 12.52
11/9/2020 10:45:00 AM 6.76 44.168 0.169 7.8 2.38 12.53
11/9/2020 11:00:00 AM 6.92 44.456 0.169 7.82 2.37 12.5
11/9/2020 11:15:00 AM 7.09 44.762 0.169 7.83 2.33 12.48
11/9/2020 11:30:00 AM 7.28 45.104 0.169 7.84 2.58 12.47
11/9/2020 11:45:00 AM 7.46 45.428 0.168 7.85 2.42 12.44
11/9/2020 12:00:00 PM 7.64 45.752 0.168 7.88 2.47 12.39
11/9/2020 12:15:00 PM 7.82 46.076 0.168 7.9 2.43 12.35
11/9/2020 12:30:00 PM 8 46.4 0.168 7.91 2.49 12.32
11/9/2020 12:45:00 PM 8.2 46.76 0.167 7.93 2.48 12.26
11/9/2020 1:00:00 PM 8.42 47.156 0.167 7.95 2.41 12.19
11/9/2020 1:15:00 PM 8.62 47.516 0.167 7.97 2.52 12.13
11/9/2020 1:30:00 PM 8.83 47.894 0.167 7.98 2.58 12.06
11/9/2020 1:45:00 PM 8.92 48.056 0.167 7.99 2.42 11.98
11/9/2020 2:00:00 PM 9.03 48.254 0.167 7.97 2.55 11.85
11/9/2020 2:15:00 PM 9.16 48.488 0.167 7.96 2.48 11.74
11/9/2020 2:30:00 PM 9.3 48.74 0.167 7.95 2.46 11.63
11/9/2020 2:45:00 PM 9.44 48.992 0.167 7.93 2.6 11.53
11/9/2020 3:00:00 PM 9.59 49.262 0.167 7.91 2.55 11.45
11/9/2020 3:15:00 PM 9.7 49.46 0.167 7.9 2.61 11.35
11/9/2020 3:30:00 PM 9.82 49.676 0.167 7.89 2.5 11.29
11/9/2020 3:45:00 PM 9.94 49.892 0.167 7.88 2.53 11.21
11/9/2020 4:00:00 PM 10.02 50.036 0.167 7.84 2.66 11.13
11/9/2020 4:15:00 PM 10.09 50.162 0.167 7.82 2.52 11.07
11/9/2020 4:30:00 PM 10.15 50.27 0.167 7.8 2.5 11
11/9/2020 4:45:00 PM 10.18 50.324 0.167 7.77 2.51 10.93
11/9/2020 5:00:00 PM 10.19 50.342 0.168 7.75 2.67 10.84
11/9/2020 5:15:00 PM 10.16 50.288 0.168 7.73 2.59 10.76
11/9/2020 5:30:00 PM 10.11 50.198 0.168 7.7 2.66 10.68
11/9/2020 5:45:00 PM 10.04 50.072 0.168 7.66 2.71 10.65
11/9/2020 6:00:00 PM 9.96 49.928 0.169 7.64 2.67 10.63
11/9/2020 6:15:00 PM 9.87 49.766 0.169 7.64 2.75 10.63
11/9/2020 6:30:00 PM 9.78 49.604 0.169 7.61 2.62 10.63
11/9/2020 6:45:00 PM 9.69 49.442 0.169 7.6 2.48 10.64
11/9/2020 7:00:00 PM 9.59 49.262 0.169 7.59 2.64 10.66
11/9/2020 7:15:00 PM 9.49 49.082 0.169 7.58 2.79 10.69
11/9/2020 7:30:00 PM 9.4 48.92 0.169 7.58 2.74 10.7
11/9/2020 7:45:00 PM 9.3 48.74 0.169 7.57 2.67 10.73
11/9/2020 8:00:00 PM 9.21 48.578 0.17 7.57 2.62 10.76
11/9/2020 8:15:00 PM 9.11 48.398 0.17 7.56 2.61 10.78
11/9/2020 8:30:00 PM 9.02 48.236 0.169 7.56 2.62 10.8
11/9/2020 8:45:00 PM 8.92 48.056 0.169 7.55 2.57 10.83
11/9/2020 9:00:00 PM 8.84 47.912 0.169 7.56 2.64 10.85
11/9/2020 9:15:00 PM 8.74 47.732 0.17 7.54 2.67 10.89
11/9/2020 9:30:00 PM 8.66 47.588 0.17 7.54 2.53 10.91
11/9/2020 9:45:00 PM 8.57 47.426 0.169 7.53 2.68 10.94
11/9/2020 10:00:00 PM 8.49 47.282 0.169 7.54 2.57 10.96
11/9/2020 10:15:00 PM 8.41 47.138 0.17 7.54 2.6 10.98
11/9/2020 10:30:00 PM 8.33 46.994 0.169 7.54 2.74 11.01
11/9/2020 10:45:00 PM 8.26 46.868 0.169 7.54 2.54 11.03
11/9/2020 11:00:00 PM 8.19 46.742 0.169 7.54 2.49 11.05
11/9/2020 11:15:00 PM 8.11 46.598 0.169 7.53 2.56 11.07
11/9/2020 11:30:00 PM 8.04 46.472 0.169 7.52 2.54 11.09
11/9/2020 11:45:00 PM 7.98 46.364 0.169 7.52 2.52 11.11
11/10/2020 12:00:00 AM 7.92 46.256 0.169 7.52 2.51 11.13
11/10/2020 12:15:00 AM 7.86 46.148 0.169 7.53 2.57 11.14
11/10/2020 12:30:00 AM 7.79 46.022 0.169 7.53 2.56 11.16
11/10/2020 12:45:00 AM 7.73 45.914 0.169 7.52 2.55 11.18
11/10/2020 1:00:00 AM 7.68 45.824 0.169 7.52 2.45 11.19
11/10/2020 1:15:00 AM 7.63 45.734 0.169 7.53 2.59 11.2
11/10/2020 1:30:00 AM 7.57 45.626 0.169 7.53 2.5 11.23
11/10/2020 1:45:00 AM 7.52 45.536 0.169 7.52 2.51 11.24
11/10/2020 2:00:00 AM 7.47 45.446 0.169 7.52 2.51 11.26
11/10/2020 2:15:00 AM 7.42 45.356 0.169 7.53 2.5 11.27
11/10/2020 2:30:00 AM 7.37 45.266 0.169 7.53 2.45 11.29
11/10/2020 2:45:00 AM 7.32 45.176 0.169 7.53 2.64 11.3
11/10/2020 3:00:00 AM 7.27 45.086 0.17 7.51 2.53 11.32
11/10/2020 3:15:00 AM 7.22 44.996 0.17 7.51 2.54 11.33
11/10/2020 3:30:00 AM 7.18 44.924 0.17 7.51 2.56 11.34
11/10/2020 3:45:00 AM 7.13 44.834 0.17 7.54 2.49 11.35
11/10/2020 4:00:00 AM 7.08 44.744 0.17 7.51 2.66 11.36
11/10/2020 4:15:00 AM 7.04 44.672 0.17 7.52 2.47 11.37
11/10/2020 4:30:00 AM 7.01 44.618 0.17 7.52 2.52 11.39
11/10/2020 4:45:00 AM 7 44.6 0.17 7.51 2.67 11.39
11/10/2020 5:00:00 AM 6.98 44.564 0.17 7.52 2.51 11.4
11/10/2020 5:15:00 AM 6.97 44.546 0.17 7.52 2.5 11.42
11/10/2020 5:30:00 AM 6.96 44.528 0.17 7.52 2.59 11.43
11/10/2020 5:45:00 AM 6.97 44.546 0.17 7.53 2.53 11.43
11/10/2020 6:00:00 AM 6.97 44.546 0.17 7.52 2.41 11.43
11/10/2020 6:15:00 AM 6.99 44.582 0.17 7.53 2.4 11.43
11/10/2020 6:30:00 AM 7 44.6 0.17 7.52 2.39 11.43
11/10/2020 6:45:00 AM 7.02 44.636 0.17 7.54 2.41 11.43
11/10/2020 7:00:00 AM 7.04 44.672 0.17 7.52 2.54 11.43
11/10/2020 7:15:00 AM 7.06 44.708 0.17 7.53 2.49 11.46
11/10/2020 7:30:00 AM 7.09 44.762 0.169 7.54 2.6 11.5
11/10/2020 7:45:00 AM 7.11 44.798 0.169 7.56 2.43 11.57
11/10/2020 8:00:00 AM 7.15 44.87 0.169 7.59 2.59 11.65
11/10/2020 8:15:00 AM 7.2 44.96 0.169 7.6 2.48 11.75
11/10/2020 8:30:00 AM 7.26 45.068 0.169 7.64 2.43 11.85
11/10/2020 8:45:00 AM 7.33 45.194 0.168 7.66 2.58 11.95
11/10/2020 9:00:00 AM 7.43 45.374 0.168 7.7 2.52 12.06
11/10/2020 9:15:00 AM 7.55 45.59 0.168 7.75 2.61 12.12
11/10/2020 9:30:00 AM 7.68 45.824 0.168 7.8 2.54 12.18
11/10/2020 9:45:00 AM 7.81 46.058 0.167 7.83 2.51 12.23
11/10/2020 10:00:00 AM 7.97 46.346 0.167 7.85 2.47 12.22
11/10/2020 10:15:00 AM 8.12 46.616 0.167 7.74 2.58 12.19
11/10/2020 10:30:00 AM 8.28 46.904 0.167 7.9 2.47 12.16
11/10/2020 10:45:00 AM 8.42 47.156 0.167 7.91 2.48 12.14
11/10/2020 11:00:00 AM 8.56 47.408 0.167 7.94 2.41 12.12
11/10/2020 11:15:00 AM 8.71 47.678 0.167 7.96 2.4 12.09
11/10/2020 11:30:00 AM 8.85 47.93 0.167 7.97 2.47 12.07
11/10/2020 11:45:00 AM 8.99 48.182 0.167 7.98 2.5 12.04
11/10/2020 12:00:00 PM 9.15 48.47 0.166 8 2.6 12.02
11/10/2020 12:15:00 PM 9.3 48.74 0.166 8.02 2.41 12
11/10/2020 12:30:00 PM 9.47 49.046 0.166 8.03 2.52 11.95
11/10/2020 12:45:00 PM 9.64 49.352 0.166 8.05 2.54 11.9
11/10/2020 1:00:00 PM 9.83 49.694 0.166 8.07 2.54 11.86
11/10/2020 1:15:00 PM 10.02 50.036 0.165 8.09 2.53 11.81
11/10/2020 1:30:00 PM 10.19 50.342 0.165 8.11 2.54 11.74
11/10/2020 1:45:00 PM 10.23 50.414 0.165 8.09 2.62 11.62
11/10/2020 2:00:00 PM 10.31 50.558 0.165 8.08 2.58 11.49
11/10/2020 2:15:00 PM 10.43 50.774 0.165 8.04 2.55 11.39
11/10/2020 2:30:00 PM 10.5 50.9 0.165 8.02 2.55 11.29
11/10/2020 2:45:00 PM 10.65 51.17 0.165 8.01 2.67 11.19
11/10/2020 3:00:00 PM 10.8 51.44 0.165 7.99 2.51 11.1
11/10/2020 3:15:00 PM 10.91 51.638 0.165 7.97 2.5 11
11/10/2020 3:30:00 PM 11.04 51.872 0.165 7.95 2.51 10.93
11/10/2020 3:45:00 PM 11.11 51.998 0.165 7.91 2.59 10.86
11/10/2020 4:00:00 PM 11.18 52.124 0.166 7.89 2.83 10.79
11/10/2020 4:15:00 PM 11.24 52.232 0.165 7.86 2.65 10.73
11/10/2020 4:30:00 PM 11.27 52.286 0.166 7.82 2.65 10.67
11/10/2020 4:45:00 PM 11.29 52.322 0.166 7.79 2.68 10.58
11/10/2020 5:00:00 PM 11.27 52.286 0.166 7.74 2.67 10.5
11/10/2020 5:15:00 PM 11.23 52.214 0.167 7.73 2.76 10.41
11/10/2020 5:30:00 PM 11.17 52.106 0.167 7.69 2.68 10.35
11/10/2020 5:45:00 PM 11.1 51.98 0.167 7.66 2.62 10.3
11/10/2020 6:00:00 PM 11.03 51.854 0.167 7.63 2.78 10.27
11/10/2020 6:15:00 PM 10.95 51.71 0.168 7.62 2.81 10.26
11/10/2020 6:30:00 PM 10.87 51.566 0.168 7.61 2.74 10.26
11/10/2020 6:45:00 PM 10.8 51.44 0.168 7.59 2.86 10.28
11/10/2020 7:00:00 PM 10.73 51.314 0.168 7.59 2.64 10.3
11/10/2020 7:15:00 PM 10.66 51.188 0.168 7.58 2.76 10.31
11/10/2020 7:30:00 PM 10.61 51.098 0.168 7.58 2.56 10.31
11/10/2020 7:45:00 PM 10.55 50.99 0.168 7.57 2.74 10.32
11/10/2020 8:00:00 PM 10.5 50.9 0.168 7.57 2.88 10.33
11/10/2020 8:15:00 PM 10.46 50.828 0.168 7.56 2.94 10.35
11/10/2020 8:30:00 PM 10.4 50.72 0.168 7.57 2.74 10.37
11/10/2020 8:45:00 PM 10.35 50.63 0.168 7.57 2.65 10.37
11/10/2020 9:00:00 PM 10.3 50.54 0.168 7.57 2.84 10.39
11/10/2020 9:15:00 PM 10.25 50.45 0.168 7.55 2.74 10.41
11/10/2020 9:30:00 PM 10.2 50.36 0.168 7.56 2.86 10.42
11/10/2020 9:45:00 PM 10.14 50.252 0.168 7.56 2.67 10.44
11/10/2020 10:00:00 PM 10.08 50.144 0.168 7.57 2.7 10.46
11/10/2020 10:15:00 PM 10.03 50.054 0.168 7.55 2.79 10.47
11/10/2020 10:30:00 PM 9.98 49.964 0.168 7.55 2.67 10.49
11/10/2020 10:45:00 PM 9.93 49.874 0.168 7.55 2.6 10.5
11/10/2020 11:00:00 PM 9.89 49.802 0.168 7.55 2.94 10.52
11/10/2020 11:15:00 PM 9.85 49.73 0.168 7.55 2.8 10.53
11/10/2020 11:30:00 PM 9.81 49.658 0.168 7.55 3.62 10.54
11/10/2020 11:45:00 PM 9.77 49.586 0.168 7.55 2.76 10.54
11/11/2020 12:00:00 AM 9.74 49.532 0.168 7.55 2.79 10.55
11/11/2020 12:15:00 AM 9.72 49.496 0.168 7.55 2.85 10.56
11/11/2020 12:30:00 AM 9.7 49.46 0.168 7.55 2.84 10.56
11/11/2020 12:45:00 AM 9.68 49.424 0.168 7.55 2.7 10.57
11/11/2020 1:00:00 AM 9.65 49.37 0.168 7.55 2.85 10.58
11/11/2020 1:15:00 AM 9.62 49.316 0.168 7.55 2.64 10.58
11/11/2020 1:30:00 AM 9.59 49.262 0.168 7.55 2.68 10.59
11/11/2020 1:45:00 AM 9.56 49.208 0.168 7.54 2.86 10.59
11/11/2020 2:00:00 AM 9.54 49.172 0.168 7.54 2.66 10.59
11/11/2020 2:15:00 AM 9.52 49.136 0.168 7.55 2.67 10.59
11/11/2020 2:30:00 AM 9.51 49.118 0.168 7.54 2.62 10.61
11/11/2020 2:45:00 AM 9.49 49.082 0.168 7.54 2.7 10.58
11/11/2020 3:00:00 AM 9.49 49.082 0.168 7.53 2.51 10.6
11/11/2020 3:15:00 AM 9.49 49.082 0.168 7.54 2.64 10.6
11/11/2020 3:30:00 AM 9.52 49.136 0.168 7.55 2.62 10.6
11/11/2020 3:45:00 AM 9.55 49.19 0.168 7.55 2.52 10.59
11/11/2020 4:00:00 AM 9.55 49.19 0.168 7.55 2.67 10.59
11/11/2020 4:15:00 AM 9.55 49.19 0.168 7.55 2.9 10.59
11/11/2020 4:30:00 AM 9.54 49.172 0.168 7.55 2.74 10.59
11/11/2020 4:45:00 AM 9.53 49.154 0.168 7.55 2.7 10.6
11/11/2020 5:00:00 AM 9.52 49.136 0.168 7.55 2.56 10.57
11/11/2020 5:15:00 AM 9.53 49.154 0.168 7.55 2.64 10.6
11/11/2020 5:30:00 AM 9.56 49.208 0.168 7.56 2.64 10.6
11/11/2020 5:45:00 AM 9.59 49.262 0.168 7.55 2.53 10.58
11/11/2020 6:00:00 AM 9.63 49.334 0.168 7.56 2.71 10.58
11/11/2020 6:15:00 AM 9.65 49.37 0.168 7.55 2.67 10.58
11/11/2020 6:30:00 AM 9.65 49.37 0.168 7.55 2.63 10.58
11/11/2020 6:45:00 AM 9.67 49.406 0.168 7.54 2.67 10.57
11/11/2020 7:00:00 AM 9.71 49.478 0.168 7.56 2.57 10.6
11/11/2020 7:15:00 AM 9.77 49.586 0.167 7.57 2.68 10.67
11/11/2020 7:30:00 AM 9.82 49.676 0.167 7.59 2.73 10.72
11/11/2020 7:45:00 AM 9.87 49.766 0.167 7.58 2.64 10.74
11/11/2020 8:00:00 AM 9.92 49.856 0.166 7.58 2.73 10.7
11/11/2020 8:15:00 AM 9.96 49.928 0.166 7.57 2.88 10.66
11/11/2020 8:30:00 AM 10.04 50.072 0.162 7.58 3 10.63
11/11/2020 8:45:00 AM 10.13 50.234 0.159 7.56 3.1 10.61
11/11/2020 9:00:00 AM 10.22 50.396 0.155 7.56 3.27 10.58
11/11/2020 9:15:00 AM 10.31 50.558 0.153 7.56 3.18 10.56
11/11/2020 9:30:00 AM 10.41 50.738 0.15 7.55 3.46 10.55
11/11/2020 9:45:00 AM 10.55 50.99 0.146 7.55 3.67 10.56
11/11/2020 10:00:00 AM 10.69 51.242 0.144 7.54 3.96 10.54
11/11/2020 10:15:00 AM 10.8 51.44 0.141 7.55 4.55 10.5
11/11/2020 10:30:00 AM 10.89 51.602 0.139 7.54 4.9 10.51
11/11/2020 10:45:00 AM 10.95 51.71 0.137 7.53 4.98 10.52
11/11/2020 11:00:00 AM 10.98 51.764 0.135 7.53 7.49 10.53
11/11/2020 11:15:00 AM 10.97 51.746 0.135 7.52 6.82 10.58
11/11/2020 11:30:00 AM 10.97 51.746 0.134 7.52 6.45 10.63
11/11/2020 11:45:00 AM 10.98 51.764 0.136 7.53 6.07 10.63
11/11/2020 12:00:00 PM 11.01 51.818 0.136 7.54 6.01 10.64
11/11/2020 12:15:00 PM 11.02 51.836 0.135 7.53 9.46 10.66
11/11/2020 12:30:00 PM 11.03 51.854 0.132 7.53 10.37 10.65
11/11/2020 12:45:00 PM 11.01 51.818 0.128 7.52 12.3 10.7
11/11/2020 1:00:00 PM 11.01 51.818 0.126 7.5 10.52 10.71
11/11/2020 1:15:00 PM 10.97 51.746 0.124 7.48 13.1 10.71
11/11/2020 1:30:00 PM 10.95 51.71 0.123 7.46 12.94 10.7
11/11/2020 1:45:00 PM 10.94 51.692 0.124 7.46 12.47 10.7
11/11/2020 2:00:00 PM 10.91 51.638 0.122 7.46 12.91 10.71
11/11/2020 2:15:00 PM 10.88 51.584 0.118 7.44 14.24 10.7
11/11/2020 2:30:00 PM 10.83 51.494 0.114 7.41 14.41 10.67
11/11/2020 2:45:00 PM 10.78 51.404 0.103 7.37 13.84 10.61
11/11/2020 3:00:00 PM 10.74 51.332 0.102 7.33 17.28 10.59
11/11/2020 3:15:00 PM 10.71 51.278 0.1 7.32 15.9 10.56
11/11/2020 3:30:00 PM 10.68 51.224 0.1 7.3 20.62 10.55
11/11/2020 3:45:00 PM 10.66 51.188 0.102 7.28 85.14 10.54
11/11/2020 4:00:00 PM 10.66 51.188 0.119 7.29 51 10.52
11/11/2020 4:15:00 PM 10.69 51.242 0.127 7.31 67.98 10.5
11/11/2020 4:30:00 PM 10.81 51.458 0.131 7.34 67.58 10.46
11/11/2020 4:45:00 PM 10.98 51.764 0.136 7.34 68.72 10.4
11/11/2020 5:00:00 PM 11.14 52.052 0.143 7.34 158.11 10.36
11/11/2020 5:15:00 PM 11.26 52.268 0.15 7.37 61.24 10.33
11/11/2020 5:30:00 PM 11.32 52.376 0.151 7.38 58.56 10.3
11/11/2020 5:45:00 PM 11.34 52.412 0.15 7.39 55.55 10.29
11/11/2020 6:00:00 PM 11.35 52.43 0.149 7.37 101.34 10.28
11/11/2020 6:15:00 PM 11.35 52.43 0.149 7.37 56.07 10.28
11/11/2020 6:30:00 PM 11.36 52.448 0.148 7.36 55.46 10.27
11/11/2020 6:45:00 PM 11.37 52.466 0.148 7.36 50.94 10.26
11/11/2020 7:00:00 PM 11.38 52.484 0.148 7.36 48.94 10.26
11/11/2020 7:15:00 PM 11.39 52.502 0.15 7.34 45.58 10.26
11/11/2020 7:30:00 PM 11.39 52.502 0.151 7.34 42.68 10.26
11/11/2020 7:45:00 PM 11.39 52.502 0.153 7.33 39.44 10.26
11/11/2020 8:00:00 PM 11.39 52.502 0.153 7.33 39.83 10.25
11/11/2020 8:15:00 PM 11.38 52.484 0.153 7.32 33.94 10.26
11/11/2020 8:30:00 PM 11.37 52.466 0.151 7.31 39.55 10.26
11/11/2020 8:45:00 PM 11.37 52.466 0.149 7.3 32.38 10.26
11/11/2020 9:00:00 PM 11.36 52.448 0.148 7.29 29.18 10.26
11/11/2020 9:15:00 PM 11.35 52.43 0.146 7.28 27.64 10.26
11/11/2020 9:30:00 PM 11.34 52.412 0.145 7.28 26.47 10.27
11/11/2020 9:45:00 PM 11.33 52.394 0.144 7.27 24.55 10.27
11/11/2020 10:00:00 PM 11.32 52.376 0.143 7.27 21.16 10.28
11/11/2020 10:15:00 PM 11.31 52.358 0.142 7.27 19.45 10.29
11/11/2020 10:30:00 PM 11.3 52.34 0.142 7.26 22.45 10.29
11/11/2020 10:45:00 PM 11.29 52.322 0.141 7.25 20.97 10.29
11/11/2020 11:00:00 PM 11.29 52.322 0.141 7.25 22.47 10.29
11/11/2020 11:15:00 PM 11.29 52.322 0.141 7.27 17.86 10.29
11/11/2020 11:30:00 PM 11.31 52.358 0.14 7.29 18.21 10.3
11/11/2020 11:45:00 PM 11.29 52.322 0.141 7.27 18.59 10.3
11/12/2020 12:00:00 AM 11.29 52.322 0.141 7.29 14.81 10.31
11/12/2020 12:15:00 AM 11.29 52.322 0.141 7.29 16.82 10.31
11/12/2020 12:30:00 AM 11.27 52.286 0.141 7.3 16.41 10.32
11/12/2020 12:45:00 AM 11.26 52.268 0.141 7.31 16.18 10.32
11/12/2020 1:00:00 AM 11.26 52.268 0.141 7.3 13.99 10.32
11/12/2020 1:15:00 AM 11.25 52.25 0.141 7.31 14.7 10.33
11/12/2020 1:30:00 AM 11.24 52.232 0.141 7.31 14.2 10.34
11/12/2020 1:45:00 AM 11.22 52.196 0.141 7.31 13.88 10.33
11/12/2020 2:00:00 AM 11.2 52.16 0.141 7.32 13.44 10.34
11/12/2020 2:15:00 AM 11.18 52.124 0.141 7.33 13.53 10.35
11/12/2020 2:30:00 AM 11.16 52.088 0.141 7.33 12.6 10.36
11/12/2020 2:45:00 AM 11.13 52.034 0.141 7.33 12.45 10.36
11/12/2020 3:00:00 AM 11.09 51.962 0.142 7.33 13.13 10.37
11/12/2020 3:15:00 AM 11.05 51.89 0.142 7.33 12.26 10.38
11/12/2020 3:30:00 AM 11.03 51.854 0.142 7.34 11.85 10.39
11/12/2020 3:45:00 AM 11 51.8 0.142 7.33 11.7 10.39
11/12/2020 4:00:00 AM 10.96 51.728 0.142 7.33 11.42 10.4
11/12/2020 4:15:00 AM 10.93 51.674 0.142 7.33 11.12 10.42
11/12/2020 4:30:00 AM 10.89 51.602 0.142 7.34 11.39 10.43
11/12/2020 4:45:00 AM 10.86 51.548 0.142 7.34 10.9 10.44
11/12/2020 5:00:00 AM 10.83 51.494 0.142 7.34 10.21 10.45
11/12/2020 5:15:00 AM 10.79 51.422 0.143 7.35 9.73 10.46
11/12/2020 5:30:00 AM 10.74 51.332 0.143 7.35 9.52 10.47
11/12/2020 5:45:00 AM 10.68 51.224 0.143 7.36 9.26 10.49
11/12/2020 6:00:00 AM 10.63 51.134 0.143 7.35 9.04 10.51
11/12/2020 6:15:00 AM 10.58 51.044 0.143 7.35 8.59 10.51
11/12/2020 6:30:00 AM 10.53 50.954 0.144 7.36 8.9 10.53
11/12/2020 6:45:00 AM 10.48 50.864 0.144 7.36 8.72 10.54
11/12/2020 7:00:00 AM 10.43 50.774 0.144 7.36 7.68 10.55
11/12/2020 7:15:00 AM 10.39 50.702 0.144 7.36 7.71 10.57
11/12/2020 7:30:00 AM 10.34 50.612 0.144 7.37 7.33 10.59
11/12/2020 7:45:00 AM 10.3 50.54 0.144 7.37 7.48 10.62
11/12/2020 8:00:00 AM 10.26 50.468 0.144 7.37 7.31 10.66
11/12/2020 8:15:00 AM 10.23 50.414 0.145 7.38 7.14 10.69
11/12/2020 8:30:00 AM 10.18 50.324 0.145 7.39 6.65 10.73
11/12/2020 8:45:00 AM 10.15 50.27 0.145 7.41 6.76 10.76
11/12/2020 9:00:00 AM 10.1 50.18 0.145 7.41 6.33 10.8
11/12/2020 9:15:00 AM 10.09 50.162 0.145 7.42 6.36 10.84
11/12/2020 9:30:00 AM 10.07 50.126 0.145 7.43 6.46 10.88
11/12/2020 9:45:00 AM 10.05 50.09 0.145 7.45 6.23 10.91
11/12/2020 10:00:00 AM 10.03 50.054 0.146 7.46 5.98 10.96
11/12/2020 10:15:00 AM 10.02 50.036 0.146 7.47 6.18 10.99
11/12/2020 10:30:00 AM 10.01 50.018 0.146 7.48 5.95 11.04
11/12/2020 10:45:00 AM 10.03 50.054 0.146 7.5 5.83 11.09
11/12/2020 11:00:00 AM 10.04 50.072 0.146 7.52 5.83 11.12
11/12/2020 11:15:00 AM 10.04 50.072 0.146 7.52 5.84 11.14
11/12/2020 11:30:00 AM 10.07 50.126 0.146 7.55 5.7 11.16
11/12/2020 11:45:00 AM 10.06 50.108 0.146 7.55 5.53 11.16
11/12/2020 12:00:00 PM 10.04 50.072 0.146 7.56 5.62 11.17
11/12/2020 12:15:00 PM 10.03 50.054 0.146 7.56 5.71 11.16
11/12/2020 12:30:00 PM 10.02 50.036 0.147 7.56 5.29 11.16
11/12/2020 12:45:00 PM 10.02 50.036 0.147 7.57 5.55 11.17
11/12/2020 1:00:00 PM 10.02 50.036 0.147 7.57 5.36 11.18
11/12/2020 1:15:00 PM 10.01 50.018 0.147 7.58 5.32 11.2
11/12/2020 1:30:00 PM 10.03 50.054 0.147 7.59 5.3 11.2
11/12/2020 1:45:00 PM 10.03 50.054 0.147 7.59 5.14 11.2
11/12/2020 2:00:00 PM 10.01 50.018 0.147 7.59 4.95 11.2
11/12/2020 2:15:00 PM 9.99 49.982 0.147 7.59 5.06 11.19
11/12/2020 2:30:00 PM 9.97 49.946 0.147 7.61 4.93 11.2
11/12/2020 2:45:00 PM 9.95 49.91 0.147 7.59 5.1 11.22
11/12/2020 3:00:00 PM 9.93 49.874 0.147 7.6 4.97 11.21
11/12/2020 3:15:00 PM 9.89 49.802 0.147 7.6 4.84 11.21
11/12/2020 3:30:00 PM 9.85 49.73 0.147 7.59 4.98 11.18
11/12/2020 3:45:00 PM 9.81 49.658 0.148 7.59 4.91 11.16
11/12/2020 4:00:00 PM 9.77 49.586 0.148 7.58 4.73 11.14
11/12/2020 4:15:00 PM 9.71 49.478 0.148 7.56 4.86 11.11
11/12/2020 4:30:00 PM 9.64 49.352 0.148 7.55 4.98 11.06
11/12/2020 4:45:00 PM 9.57 49.226 0.148 7.53 4.88 11.02
11/12/2020 5:00:00 PM 9.48 49.064 0.148 7.51 4.74 10.98
11/12/2020 5:15:00 PM 9.4 48.92 0.148 7.49 4.78 10.96
11/12/2020 5:30:00 PM 9.31 48.758 0.148 7.48 4.78 10.93
11/12/2020 5:45:00 PM 9.23 48.614 0.149 7.46 4.59 10.92
11/12/2020 6:00:00 PM 9.15 48.47 0.149 7.45 4.77 10.92
11/12/2020 6:15:00 PM 9.07 48.326 0.149 7.45 4.79 10.93
11/12/2020 6:30:00 PM 8.99 48.182 0.149 7.44 4.57 10.94
11/12/2020 6:45:00 PM 8.91 48.038 0.149 7.43 4.7 10.95
11/12/2020 7:00:00 PM 8.84 47.912 0.149 7.43 4.46 10.97
11/12/2020 7:15:00 PM 8.77 47.786 0.149 7.43 4.61 10.99
11/12/2020 7:30:00 PM 8.68 47.624 0.149 7.43 4.42 11.01
11/12/2020 7:45:00 PM 8.61 47.498 0.15 7.44 4.43 11.03
11/12/2020 8:00:00 PM 8.53 47.354 0.15 7.44 4.39 11.05
11/12/2020 8:15:00 PM 8.45 47.21 0.15 7.42 4.3 11.06
11/12/2020 8:30:00 PM 8.37 47.066 0.15 7.42 4.69 11.08
11/12/2020 8:45:00 PM 8.3 46.94 0.15 7.43 4.53 11.1
11/12/2020 9:00:00 PM 8.22 46.796 0.15 7.43 4.18 11.12
11/12/2020 9:15:00 PM 8.14 46.652 0.15 7.4 4.31 11.14
11/12/2020 9:30:00 PM 8.06 46.508 0.15 7.42 4.2 11.16
11/12/2020 9:45:00 PM 7.98 46.364 0.15 7.42 4.17 11.19
11/12/2020 10:00:00 PM 7.92 46.256 0.151 7.42 4.18 11.2
11/12/2020 10:15:00 PM 7.85 46.13 0.15 7.42 4.24 11.22
11/12/2020 10:30:00 PM 7.78 46.004 0.15 7.43 4.04 11.25
11/12/2020 10:45:00 PM 7.71 45.878 0.151 7.43 4.14 11.26
11/12/2020 11:00:00 PM 7.64 45.752 0.151 7.43 3.98 11.28
11/12/2020 11:15:00 PM 7.58 45.644 0.151 7.43 4.15 11.29
11/12/2020 11:30:00 PM 7.53 45.554 0.151 7.42 3.99 11.32
11/12/2020 11:45:00 PM 7.47 45.446 0.151 7.43 3.9 11.33
11/13/2020 12:00:00 AM 7.42 45.356 0.151 7.43 3.86 11.35
11/13/2020 12:15:00 AM 7.38 45.284 0.151 7.44 4.07 11.37
11/13/2020 12:30:00 AM 7.34 45.212 0.151 7.44 3.83 11.38
11/13/2020 12:45:00 AM 7.3 45.14 0.151 7.44 3.8 11.39
11/13/2020 1:00:00 AM 7.26 45.068 0.152 7.43 4.07 11.4
11/13/2020 1:15:00 AM 7.21 44.978 0.152 7.44 3.77 11.41
11/13/2020 1:30:00 AM 7.16 44.888 0.152 7.43 3.83 11.43
11/13/2020 1:45:00 AM 7.12 44.816 0.152 7.44 3.64 11.44
11/13/2020 2:00:00 AM 7.07 44.726 0.152 7.43 3.58 11.45
11/13/2020 2:15:00 AM 7.03 44.654 0.152 7.43 3.68 11.46
11/13/2020 2:30:00 AM 6.99 44.582 0.152 7.44 3.61 11.48
11/13/2020 2:45:00 AM 6.95 44.51 0.152 7.43 4.03 11.49
11/13/2020 3:00:00 AM 6.9 44.42 0.152 7.44 3.68 11.51
11/13/2020 3:15:00 AM 6.86 44.348 0.152 7.44 3.54 11.52
11/13/2020 3:30:00 AM 6.83 44.294 0.152 7.44 3.68 11.53
11/13/2020 3:45:00 AM 6.79 44.222 0.152 7.44 3.52 11.54
11/13/2020 4:00:00 AM 6.74 44.132 0.152 7.44 3.57 11.55
11/13/2020 4:15:00 AM 6.7 44.06 0.152 7.44 3.54 11.58
11/13/2020 4:30:00 AM 6.65 43.97 0.152 7.44 3.64 11.59
11/13/2020 4:45:00 AM 6.6 43.88 0.153 7.44 3.41 11.6
11/13/2020 5:00:00 AM 6.56 43.808 0.153 7.44 3.46 11.61
11/13/2020 5:15:00 AM 6.52 43.736 0.153 7.44 3.57 11.62
11/13/2020 5:30:00 AM 6.5 43.7 0.153 7.44 3.4 11.62
11/13/2020 5:45:00 AM 6.46 43.628 0.153 7.44 3.43 11.63
11/13/2020 6:00:00 AM 6.41 43.538 0.153 7.44 3.65 11.65
11/13/2020 6:15:00 AM 6.37 43.466 0.153 7.44 3.45 11.66
11/13/2020 6:30:00 AM 6.33 43.394 0.153 7.44 3.46 11.67
11/13/2020 6:45:00 AM 6.29 43.322 0.153 7.45 3.39 11.68
11/13/2020 7:00:00 AM 6.25 43.25 0.153 7.44 3.36 11.7
11/13/2020 7:15:00 AM 6.22 43.196 0.153 7.45 3.44 11.72
11/13/2020 7:30:00 AM 6.19 43.142 0.153 7.45 3.37 11.75
11/13/2020 7:45:00 AM 6.18 43.124 0.153 7.47 3.43 11.81
11/13/2020 8:00:00 AM 6.18 43.124 0.153 7.49 3.37 11.88
11/13/2020 8:15:00 AM 6.2 43.16 0.153 7.51 3.33 11.97
11/13/2020 8:30:00 AM 6.18 43.124 0.153 7.52 3.34 12
11/13/2020 8:45:00 AM 6.17 43.106 0.153 7.53 3.3 12.03
11/13/2020 9:00:00 AM 6.18 43.124 0.153 7.54 3.33 12.09
11/13/2020 9:15:00 AM 6.19 43.142 0.153 7.56 3.14 12.13